﻿<?xml version="1.0" encoding="utf-8"?><gpx creator="Garmin Desktop App" version="1.1" xsi:schemaLocation="http://www.topografix.com/GPX/1/1 http://www.topografix.com/GPX/1/1/gpx.xsd http://www.garmin.com/xmlschemas/WaypointExtension/v1 http://www8.garmin.com/xmlschemas/WaypointExtensionv1.xsd http://www.garmin.com/xmlschemas/TrackPointExtension/v1 http://www.garmin.com/xmlschemas/TrackPointExtensionv1.xsd http://www.garmin.com/xmlschemas/GpxExtensions/v3 http://www8.garmin.com/xmlschemas/GpxExtensionsv3.xsd http://www.garmin.com/xmlschemas/ActivityExtension/v1 http://www8.garmin.com/xmlschemas/ActivityExtensionv1.xsd http://www.garmin.com/xmlschemas/AdventuresExtensions/v1 http://www8.garmin.com/xmlschemas/AdventuresExtensionv1.xsd http://www.garmin.com/xmlschemas/PressureExtension/v1 http://www.garmin.com/xmlschemas/PressureExtensionv1.xsd http://www.garmin.com/xmlschemas/TripExtensions/v1 http://www.garmin.com/xmlschemas/TripExtensionsv1.xsd http://www.garmin.com/xmlschemas/TripMetaDataExtensions/v1 http://www.garmin.com/xmlschemas/TripMetaDataExtensionsv1.xsd http://www.garmin.com/xmlschemas/ViaPointTransportationModeExtensions/v1 http://www.garmin.com/xmlschemas/ViaPointTransportationModeExtensionsv1.xsd http://www.garmin.com/xmlschemas/CreationTimeExtension/v1 http://www.garmin.com/xmlschemas/CreationTimeExtensionsv1.xsd http://www.garmin.com/xmlschemas/AccelerationExtension/v1 http://www.garmin.com/xmlschemas/AccelerationExtensionv1.xsd http://www.garmin.com/xmlschemas/PowerExtension/v1 http://www.garmin.com/xmlschemas/PowerExtensionv1.xsd http://www.garmin.com/xmlschemas/VideoExtension/v1 http://www.garmin.com/xmlschemas/VideoExtensionv1.xsd" xmlns="http://www.topografix.com/GPX/1/1" xmlns:xsi="http://www.w3.org/2001/XMLSchema-instance" xmlns:wptx1="http://www.garmin.com/xmlschemas/WaypointExtension/v1" xmlns:gpxtrx="http://www.garmin.com/xmlschemas/GpxExtensions/v3" xmlns:gpxtpx="http://www.garmin.com/xmlschemas/TrackPointExtension/v1" xmlns:gpxx="http://www.garmin.com/xmlschemas/GpxExtensions/v3" xmlns:trp="http://www.garmin.com/xmlschemas/TripExtensions/v1" xmlns:adv="http://www.garmin.com/xmlschemas/AdventuresExtensions/v1" xmlns:prs="http://www.garmin.com/xmlschemas/PressureExtension/v1" xmlns:tmd="http://www.garmin.com/xmlschemas/TripMetaDataExtensions/v1" xmlns:vptm="http://www.garmin.com/xmlschemas/ViaPointTransportationModeExtensions/v1" xmlns:ctx="http://www.garmin.com/xmlschemas/CreationTimeExtension/v1" xmlns:gpxacc="http://www.garmin.com/xmlschemas/AccelerationExtension/v1" xmlns:gpxpx="http://www.garmin.com/xmlschemas/PowerExtension/v1" xmlns:vidx1="http://www.garmin.com/xmlschemas/VideoExtension/v1">

  <metadata>
    <link href="http://www.garmin.com">
      <text>Garmin International</text>
    </link>
    <time>2020-02-10T09:52:33Z</time>
    <bounds maxlat="46.316184271126986" maxlon="8.257645145058632" minlat="46.307738246396184" minlon="8.241117540746927" />
  </metadata>

  <trk>
    <name>alpe-devero2020-02-09</name>
    <extensions>
      <gpxx:TrackExtension>
        <gpxx:DisplayColor>Yellow</gpxx:DisplayColor>
      </gpxx:TrackExtension>
      <gpxtrkx:TrackStatsExtension xmlns:gpxtrkx="http://www.garmin.com/xmlschemas/TrackStatsExtension/v1">
        <gpxtrkx:Distance>5335</gpxtrkx:Distance>
        <gpxtrkx:TotalElapsedTime>18526</gpxtrkx:TotalElapsedTime>
        <gpxtrkx:MovingTime>7756</gpxtrkx:MovingTime>
        <gpxtrkx:StoppedTime>10762</gpxtrkx:StoppedTime>
        <gpxtrkx:MovingSpeed>1</gpxtrkx:MovingSpeed>
        <gpxtrkx:MaxSpeed>2</gpxtrkx:MaxSpeed>
        <gpxtrkx:MaxElevation>2042</gpxtrkx:MaxElevation>
        <gpxtrkx:MinElevation>1635</gpxtrkx:MinElevation>
        <gpxtrkx:Ascent>474</gpxtrkx:Ascent>
        <gpxtrkx:Descent>486</gpxtrkx:Descent>
        <gpxtrkx:AvgAscentRate>0</gpxtrkx:AvgAscentRate>
        <gpxtrkx:MaxAscentRate>2</gpxtrkx:MaxAscentRate>
        <gpxtrkx:AvgDescentRate>0</gpxtrkx:AvgDescentRate>
        <gpxtrkx:MaxDescentRate>-2</gpxtrkx:MaxDescentRate>
      </gpxtrkx:TrackStatsExtension>
    </extensions>
    <trkseg>
      <trkpt lat="46.31545546464622" lon="8.256879625841975">
        <ele>1697.3699999999999</ele>
        <time>2020-02-09T08:54:13Z</time>
      </trkpt>
      <trkpt lat="46.315456721931696" lon="8.25687937438488">
        <ele>1697.3699999999999</ele>
        <time>2020-02-09T08:54:14Z</time>
      </trkpt>
      <trkpt lat="46.31546032615006" lon="8.256877698004246">
        <ele>1650</ele>
        <time>2020-02-09T08:54:17Z</time>
      </trkpt>
      <trkpt lat="46.315460661426187" lon="8.256876775994897">
        <ele>1650</ele>
        <time>2020-02-09T08:54:18Z</time>
      </trkpt>
      <trkpt lat="46.315452614799142" lon="8.256869399920106">
        <ele>1649.9200000000001</ele>
        <time>2020-02-09T08:54:32Z</time>
      </trkpt>
      <trkpt lat="46.315464768558741" lon="8.256861856207252">
        <ele>1649.22</ele>
        <time>2020-02-09T08:54:46Z</time>
      </trkpt>
      <trkpt lat="46.315462924540043" lon="8.256864789873362">
        <ele>1649.1199999999999</ele>
        <time>2020-02-09T08:55:03Z</time>
      </trkpt>
      <trkpt lat="46.315470216795802" lon="8.256865460425615">
        <ele>1649.4200000000001</ele>
        <time>2020-02-09T08:55:19Z</time>
      </trkpt>
      <trkpt lat="46.315469881519675" lon="8.25686470605433">
        <ele>1649.5599999999999</ele>
        <time>2020-02-09T08:55:42Z</time>
      </trkpt>
      <trkpt lat="46.315467283129692" lon="8.256864454597235">
        <ele>1649.3699999999999</ele>
        <time>2020-02-09T08:55:51Z</time>
      </trkpt>
      <trkpt lat="46.315466780215502" lon="8.256865041330457">
        <ele>1649.4000000000001</ele>
        <time>2020-02-09T08:56:08Z</time>
      </trkpt>
      <trkpt lat="46.315471222624183" lon="8.256862862035632">
        <ele>1649.1900000000001</ele>
        <time>2020-02-09T08:56:27Z</time>
      </trkpt>
      <trkpt lat="46.315469043329358" lon="8.25686470605433">
        <ele>1649.4000000000001</ele>
        <time>2020-02-09T08:56:37Z</time>
      </trkpt>
      <trkpt lat="46.315465439110994" lon="8.256863197311759">
        <ele>1649.3199999999999</ele>
        <time>2020-02-09T08:57:06Z</time>
      </trkpt>
      <trkpt lat="46.315469378605485" lon="8.256863448768854">
        <ele>1649.26</ele>
        <time>2020-02-09T08:57:24Z</time>
      </trkpt>
      <trkpt lat="46.315472144633532" lon="8.256862107664347">
        <ele>1649.05</ele>
        <time>2020-02-09T08:57:41Z</time>
      </trkpt>
      <trkpt lat="46.315473569557071" lon="8.256861520931125">
        <ele>1649.1700000000001</ele>
        <time>2020-02-09T08:57:57Z</time>
      </trkpt>
      <trkpt lat="46.315473653376102" lon="8.256863784044981">
        <ele>1649.0899999999999</ele>
        <time>2020-02-09T08:58:15Z</time>
      </trkpt>
      <trkpt lat="46.315467869862914" lon="8.256862945854664">
        <ele>1649.1099999999999</ele>
        <time>2020-02-09T08:58:37Z</time>
      </trkpt>
      <trkpt lat="46.315465103834867" lon="8.256865292787552">
        <ele>1648.8599999999999</ele>
        <time>2020-02-09T08:58:54Z</time>
      </trkpt>
      <trkpt lat="46.315462924540043" lon="8.256857665255666">
        <ele>1648.79</ele>
        <time>2020-02-09T08:59:29Z</time>
      </trkpt>
      <trkpt lat="46.31546963006258" lon="8.256855485960841">
        <ele>1648.77</ele>
        <time>2020-02-09T08:59:54Z</time>
      </trkpt>
      <trkpt lat="46.315473904833198" lon="8.256850456818938">
        <ele>1648.79</ele>
        <time>2020-02-09T09:00:14Z</time>
      </trkpt>
      <trkpt lat="46.315481029450893" lon="8.256853641942143">
        <ele>1648.78</ele>
        <time>2020-02-09T09:00:33Z</time>
      </trkpt>
      <trkpt lat="46.315475832670927" lon="8.256881218403578">
        <ele>1648.3199999999999</ele>
        <time>2020-02-09T09:00:44Z</time>
      </trkpt>
      <trkpt lat="46.315426211804152" lon="8.256710227578878">
        <ele>1648.9200000000001</ele>
        <time>2020-02-09T09:00:57Z</time>
      </trkpt>
      <trkpt lat="46.31540316157043" lon="8.256561448797584">
        <ele>1649.0799999999999</ele>
        <time>2020-02-09T09:01:06Z</time>
      </trkpt>
      <trkpt lat="46.315380362793803" lon="8.256383500993252">
        <ele>1649.4100000000001</ele>
        <time>2020-02-09T09:01:17Z</time>
      </trkpt>
      <trkpt lat="46.315370723605156" lon="8.256224747747183">
        <ele>1649.9200000000001</ele>
        <time>2020-02-09T09:01:28Z</time>
      </trkpt>
      <trkpt lat="46.315341973677278" lon="8.256036657840014">
        <ele>1650.1500000000001</ele>
        <time>2020-02-09T09:01:41Z</time>
      </trkpt>
      <trkpt lat="46.315333507955074" lon="8.255914030596614">
        <ele>1650.8299999999999</ele>
        <time>2020-02-09T09:01:50Z</time>
      </trkpt>
      <trkpt lat="46.315314313396811" lon="8.255717726424336">
        <ele>1651.3099999999999</ele>
        <time>2020-02-09T09:02:04Z</time>
      </trkpt>
      <trkpt lat="46.315301237627864" lon="8.255533995106816">
        <ele>1651.3699999999999</ele>
        <time>2020-02-09T09:02:16Z</time>
      </trkpt>
      <trkpt lat="46.315290844067931" lon="8.255359819158912">
        <ele>1651.8299999999999</ele>
        <time>2020-02-09T09:02:28Z</time>
      </trkpt>
      <trkpt lat="46.315283048897982" lon="8.255231324583292">
        <ele>1652.1900000000001</ele>
        <time>2020-02-09T09:02:37Z</time>
      </trkpt>
      <trkpt lat="46.315281121060252" lon="8.255044240504503">
        <ele>1652.5599999999999</ele>
        <time>2020-02-09T09:02:50Z</time>
      </trkpt>
      <trkpt lat="46.315276930108666" lon="8.254877859726548">
        <ele>1652.76</ele>
        <time>2020-02-09T09:03:02Z</time>
      </trkpt>
      <trkpt lat="46.315266117453575" lon="8.254699241369963">
        <ele>1653.1900000000001</ele>
        <time>2020-02-09T09:03:15Z</time>
      </trkpt>
      <trkpt lat="46.315236277878284" lon="8.254493800923228">
        <ele>1653.6800000000001</ele>
        <time>2020-02-09T09:03:31Z</time>
      </trkpt>
      <trkpt lat="46.315184477716684" lon="8.2542725186795">
        <ele>1654.23</ele>
        <time>2020-02-09T09:03:47Z</time>
      </trkpt>
      <trkpt lat="46.315132929012179" lon="8.254062384366989">
        <ele>1654.8399999999999</ele>
        <time>2020-02-09T09:04:03Z</time>
      </trkpt>
      <trkpt lat="46.315130749717355" lon="8.253895668312907">
        <ele>1655.3499999999999</ele>
        <time>2020-02-09T09:04:16Z</time>
      </trkpt>
      <trkpt lat="46.315148435533047" lon="8.253839006647468">
        <ele>1655.1900000000001</ele>
        <time>2020-02-09T09:04:29Z</time>
      </trkpt>
      <trkpt lat="46.31515153683722" lon="8.253837414085865">
        <ele>1655.3399999999999</ele>
        <time>2020-02-09T09:04:42Z</time>
      </trkpt>
      <trkpt lat="46.31515983492136" lon="8.25383230112493">
        <ele>1655.1600000000001</ele>
        <time>2020-02-09T09:05:06Z</time>
      </trkpt>
      <trkpt lat="46.315164193511009" lon="8.253833139315248">
        <ele>1654.71</ele>
        <time>2020-02-09T09:05:32Z</time>
      </trkpt>
      <trkpt lat="46.315165115520358" lon="8.253776310011745">
        <ele>1655.25</ele>
        <time>2020-02-09T09:05:45Z</time>
      </trkpt>
      <trkpt lat="46.315161176025867" lon="8.25376046821475">
        <ele>1655.01</ele>
        <time>2020-02-09T09:06:04Z</time>
      </trkpt>
      <trkpt lat="46.315162014216185" lon="8.253762647509575">
        <ele>1655</ele>
        <time>2020-02-09T09:06:18Z</time>
      </trkpt>
      <trkpt lat="46.315161343663931" lon="8.25376289896667">
        <ele>1654.95</ele>
        <time>2020-02-09T09:06:33Z</time>
      </trkpt>
      <trkpt lat="46.315162517130375" lon="8.253763569518924">
        <ele>1654.5799999999999</ele>
        <time>2020-02-09T09:06:57Z</time>
      </trkpt>
      <trkpt lat="46.315160086378455" lon="8.253765162080526">
        <ele>1654.3599999999999</ele>
        <time>2020-02-09T09:07:21Z</time>
      </trkpt>
      <trkpt lat="46.315155141055584" lon="8.253764072433114">
        <ele>1654.7</ele>
        <time>2020-02-09T09:07:31Z</time>
      </trkpt>
      <trkpt lat="46.315145250409842" lon="8.253756696358323">
        <ele>1654.1600000000001</ele>
        <time>2020-02-09T09:07:44Z</time>
      </trkpt>
      <trkpt lat="46.315117087215185" lon="8.253747895359993">
        <ele>1654.1800000000001</ele>
        <time>2020-02-09T09:07:47Z</time>
      </trkpt>
      <trkpt lat="46.315055312588811" lon="8.253714619204402">
        <ele>1654.1700000000001</ele>
        <time>2020-02-09T09:07:53Z</time>
      </trkpt>
      <trkpt lat="46.314955903217196" lon="8.253547819331288">
        <ele>1654.72</ele>
        <time>2020-02-09T09:08:07Z</time>
      </trkpt>
      <trkpt lat="46.314880549907684" lon="8.253360819071531">
        <ele>1655.5699999999999</ele>
        <time>2020-02-09T09:08:21Z</time>
      </trkpt>
      <trkpt lat="46.314856577664614" lon="8.253223355859518">
        <ele>1656.73</ele>
        <time>2020-02-09T09:08:32Z</time>
      </trkpt>
      <trkpt lat="46.314833024516702" lon="8.253050185739994">
        <ele>1657.8199999999999</ele>
        <time>2020-02-09T09:08:44Z</time>
      </trkpt>
      <trkpt lat="46.314815757796168" lon="8.252906184643507">
        <ele>1658.6199999999999</ele>
        <time>2020-02-09T09:08:54Z</time>
      </trkpt>
      <trkpt lat="46.314808046445251" lon="8.252741396427155">
        <ele>1658.8800000000001</ele>
        <time>2020-02-09T09:09:05Z</time>
      </trkpt>
      <trkpt lat="46.314776614308357" lon="8.25260242447257">
        <ele>1659.3800000000001</ele>
        <time>2020-02-09T09:09:17Z</time>
      </trkpt>
      <trkpt lat="46.314767561852932" lon="8.252596892416477">
        <ele>1659.48</ele>
        <time>2020-02-09T09:09:18Z</time>
      </trkpt>
      <trkpt lat="46.314676450565457" lon="8.2524782884866">
        <ele>1659.5</ele>
        <time>2020-02-09T09:09:32Z</time>
      </trkpt>
      <trkpt lat="46.314668990671635" lon="8.252463368698955">
        <ele>1659.03</ele>
        <time>2020-02-09T09:09:41Z</time>
      </trkpt>
      <trkpt lat="46.314619621261954" lon="8.252407209947705">
        <ele>1660.8399999999999</ele>
        <time>2020-02-09T09:09:57Z</time>
      </trkpt>
      <trkpt lat="46.314604030922055" lon="8.252272931858897">
        <ele>1663.8099999999999</ele>
        <time>2020-02-09T09:10:13Z</time>
      </trkpt>
      <trkpt lat="46.314556170254946" lon="8.25212356634438">
        <ele>1665.99</ele>
        <time>2020-02-09T09:10:29Z</time>
      </trkpt>
      <trkpt lat="46.31456907838583" lon="8.252090206369758">
        <ele>1666.45</ele>
        <time>2020-02-09T09:10:42Z</time>
      </trkpt>
      <trkpt lat="46.314567569643259" lon="8.252077717334032">
        <ele>1666.26</ele>
        <time>2020-02-09T09:10:54Z</time>
      </trkpt>
      <trkpt lat="46.314593469724059" lon="8.252076040953398">
        <ele>1665.1400000000001</ele>
        <time>2020-02-09T09:11:06Z</time>
      </trkpt>
      <trkpt lat="46.314565809443593" lon="8.252080315724015">
        <ele>1665.1900000000001</ele>
        <time>2020-02-09T09:11:30Z</time>
      </trkpt>
      <trkpt lat="46.31456907838583" lon="8.25209079310298">
        <ele>1666.6199999999999</ele>
        <time>2020-02-09T09:11:39Z</time>
      </trkpt>
      <trkpt lat="46.314559606835246" lon="8.252042597159743">
        <ele>1666.3699999999999</ele>
        <time>2020-02-09T09:11:50Z</time>
      </trkpt>
      <trkpt lat="46.31455784663558" lon="8.252027425915003">
        <ele>1666.4300000000001</ele>
        <time>2020-02-09T09:11:51Z</time>
      </trkpt>
      <trkpt lat="46.314563630148768" lon="8.25198526494205">
        <ele>1667.3099999999999</ele>
        <time>2020-02-09T09:11:54Z</time>
      </trkpt>
      <trkpt lat="46.314544435590506" lon="8.251862470060587">
        <ele>1669.3099999999999</ele>
        <time>2020-02-09T09:12:03Z</time>
      </trkpt>
      <trkpt lat="46.314545525237918" lon="8.251791894435883">
        <ele>1670.26</ele>
        <time>2020-02-09T09:12:08Z</time>
      </trkpt>
      <trkpt lat="46.314565725624561" lon="8.251630291342735">
        <ele>1672.5999999999999</ele>
        <time>2020-02-09T09:12:20Z</time>
      </trkpt>
      <trkpt lat="46.31457544863224" lon="8.251476734876633">
        <ele>1675.5699999999999</ele>
        <time>2020-02-09T09:12:35Z</time>
      </trkpt>
      <trkpt lat="46.314581651240587" lon="8.25145510956645">
        <ele>1675.8499999999999</ele>
        <time>2020-02-09T09:12:37Z</time>
      </trkpt>
      <trkpt lat="46.314595062285662" lon="8.251438848674297">
        <ele>1676.1600000000001</ele>
        <time>2020-02-09T09:12:39Z</time>
      </trkpt>
      <trkpt lat="46.314642755314708" lon="8.251403979957104">
        <ele>1677.75</ele>
        <time>2020-02-09T09:12:48Z</time>
      </trkpt>
      <trkpt lat="46.314728083088994" lon="8.251274479553103">
        <ele>1680.1600000000001</ele>
        <time>2020-02-09T09:13:05Z</time>
      </trkpt>
      <trkpt lat="46.314727077260613" lon="8.251139279454947">
        <ele>1680.99</ele>
        <time>2020-02-09T09:13:19Z</time>
      </trkpt>
      <trkpt lat="46.314780553802848" lon="8.251073565334082">
        <ele>1681.8800000000001</ele>
        <time>2020-02-09T09:13:29Z</time>
      </trkpt>
      <trkpt lat="46.314889267086983" lon="8.250967282801867">
        <ele>1681.6300000000001</ele>
        <time>2020-02-09T09:13:42Z</time>
      </trkpt>
      <trkpt lat="46.31499320268631" lon="8.250916237011552">
        <ele>1682.53</ele>
        <time>2020-02-09T09:13:55Z</time>
      </trkpt>
      <trkpt lat="46.315042236819863" lon="8.25088631361723">
        <ele>1683.21</ele>
        <time>2020-02-09T09:14:10Z</time>
      </trkpt>
      <trkpt lat="46.3150938693434" lon="8.25078665278852">
        <ele>1685</ele>
        <time>2020-02-09T09:14:23Z</time>
      </trkpt>
      <trkpt lat="46.315152710303664" lon="8.250682465732098">
        <ele>1686.95</ele>
        <time>2020-02-09T09:14:35Z</time>
      </trkpt>
      <trkpt lat="46.315204594284296" lon="8.250582804903388">
        <ele>1688.6300000000001</ele>
        <time>2020-02-09T09:14:47Z</time>
      </trkpt>
      <trkpt lat="46.315257484093308" lon="8.250464117154479">
        <ele>1690.8900000000001</ele>
        <time>2020-02-09T09:15:02Z</time>
      </trkpt>
      <trkpt lat="46.315303165465593" lon="8.250317350029945">
        <ele>1693.3</ele>
        <time>2020-02-09T09:15:17Z</time>
      </trkpt>
      <trkpt lat="46.315391846001148" lon="8.250253396108747">
        <ele>1693.9400000000001</ele>
        <time>2020-02-09T09:15:31Z</time>
      </trkpt>
      <trkpt lat="46.315457560122013" lon="8.250104868784547">
        <ele>1694.9300000000001</ele>
        <time>2020-02-09T09:15:44Z</time>
      </trkpt>
      <trkpt lat="46.315520843490958" lon="8.250018870458007">
        <ele>1695.0799999999999</ele>
        <time>2020-02-09T09:15:57Z</time>
      </trkpt>
      <trkpt lat="46.315665179863572" lon="8.249927088618279">
        <ele>1695.8800000000001</ele>
        <time>2020-02-09T09:16:13Z</time>
      </trkpt>
      <trkpt lat="46.315782526507974" lon="8.249889370054007">
        <ele>1697.52</ele>
        <time>2020-02-09T09:16:28Z</time>
      </trkpt>
      <trkpt lat="46.315867435187101" lon="8.249870594590902">
        <ele>1698.72</ele>
        <time>2020-02-09T09:16:43Z</time>
      </trkpt>
      <trkpt lat="46.315936921164393" lon="8.249793983995915">
        <ele>1700.8499999999999</ele>
        <time>2020-02-09T09:16:58Z</time>
      </trkpt>
      <trkpt lat="46.315897945314646" lon="8.249789793044329">
        <ele>1701.01</ele>
        <time>2020-02-09T09:17:10Z</time>
      </trkpt>
      <trkpt lat="46.315860394388437" lon="8.249802617356181">
        <ele>1702.48</ele>
        <time>2020-02-09T09:17:20Z</time>
      </trkpt>
      <trkpt lat="46.315863914787769" lon="8.249814435839653">
        <ele>1702.5999999999999</ele>
        <time>2020-02-09T09:17:37Z</time>
      </trkpt>
      <trkpt lat="46.315883947536349" lon="8.249838408082724">
        <ele>1702.28</ele>
        <time>2020-02-09T09:17:54Z</time>
      </trkpt>
      <trkpt lat="46.31592744961381" lon="8.24983136728406">
        <ele>1702.5599999999999</ele>
        <time>2020-02-09T09:18:11Z</time>
      </trkpt>
      <trkpt lat="46.315941112115979" lon="8.249836061149836">
        <ele>1702.3299999999999</ele>
        <time>2020-02-09T09:18:34Z</time>
      </trkpt>
      <trkpt lat="46.315934741869569" lon="8.249843437224627">
        <ele>1702.3900000000001</ele>
        <time>2020-02-09T09:18:57Z</time>
      </trkpt>
      <trkpt lat="46.315934741869569" lon="8.249823655933142">
        <ele>1701.95</ele>
        <time>2020-02-09T09:19:25Z</time>
      </trkpt>
      <trkpt lat="46.315909428521991" lon="8.249823488295078">
        <ele>1701.8199999999999</ele>
        <time>2020-02-09T09:19:45Z</time>
      </trkpt>
      <trkpt lat="46.31583558395505" lon="8.249781997874379">
        <ele>1703.98</ele>
        <time>2020-02-09T09:19:56Z</time>
      </trkpt>
      <trkpt lat="46.315870368853211" lon="8.249669261276722">
        <ele>1706.6800000000001</ele>
        <time>2020-02-09T09:20:10Z</time>
      </trkpt>
      <trkpt lat="46.315924935042858" lon="8.249521823599935">
        <ele>1708.78</ele>
        <time>2020-02-09T09:20:24Z</time>
      </trkpt>
      <trkpt lat="46.315950667485595" lon="8.249405985698104">
        <ele>1711.23</ele>
        <time>2020-02-09T09:20:38Z</time>
      </trkpt>
      <trkpt lat="46.315984781831503" lon="8.249309090897441">
        <ele>1714.3299999999999</ele>
        <time>2020-02-09T09:20:54Z</time>
      </trkpt>
      <trkpt lat="46.31603348068893" lon="8.249256704002619">
        <ele>1716.9100000000001</ele>
        <time>2020-02-09T09:21:08Z</time>
      </trkpt>
      <trkpt lat="46.316104559227824" lon="8.249196270480752">
        <ele>1719.9400000000001</ele>
        <time>2020-02-09T09:21:26Z</time>
      </trkpt>
      <trkpt lat="46.316184271126986" lon="8.249112786725164">
        <ele>1721.97</ele>
        <time>2020-02-09T09:21:42Z</time>
      </trkpt>
      <trkpt lat="46.316160298883915" lon="8.24898948892951">
        <ele>1724.47</ele>
        <time>2020-02-09T09:21:57Z</time>
      </trkpt>
      <trkpt lat="46.316106906160712" lon="8.248926373198628">
        <ele>1726.97</ele>
        <time>2020-02-09T09:22:10Z</time>
      </trkpt>
      <trkpt lat="46.316057788208127" lon="8.248898042365909">
        <ele>1729.9200000000001</ele>
        <time>2020-02-09T09:22:24Z</time>
      </trkpt>
      <trkpt lat="46.315991906449199" lon="8.248853534460068">
        <ele>1731.77</ele>
        <time>2020-02-09T09:22:39Z</time>
      </trkpt>
      <trkpt lat="46.315972544252872" lon="8.248879685997963">
        <ele>1734.22</ele>
        <time>2020-02-09T09:22:53Z</time>
      </trkpt>
      <trkpt lat="46.315927030518651" lon="8.248927798122168">
        <ele>1735.95</ele>
        <time>2020-02-09T09:23:06Z</time>
      </trkpt>
      <trkpt lat="46.31584488786757" lon="8.248902065679431">
        <ele>1738.54</ele>
        <time>2020-02-09T09:23:23Z</time>
      </trkpt>
      <trkpt lat="46.315806917846203" lon="8.248916566371918">
        <ele>1740.02</ele>
        <time>2020-02-09T09:23:38Z</time>
      </trkpt>
      <trkpt lat="46.315803481265903" lon="8.248892594128847">
        <ele>1738.9200000000001</ele>
        <time>2020-02-09T09:23:51Z</time>
      </trkpt>
      <trkpt lat="46.315802475437522" lon="8.248900724574924">
        <ele>1738.75</ele>
        <time>2020-02-09T09:24:04Z</time>
      </trkpt>
      <trkpt lat="46.315807085484266" lon="8.248908435925841">
        <ele>1739.3699999999999</ele>
        <time>2020-02-09T09:24:28Z</time>
      </trkpt>
      <trkpt lat="46.315754866227508" lon="8.248921679332852">
        <ele>1740.52</ele>
        <time>2020-02-09T09:24:44Z</time>
      </trkpt>
      <trkpt lat="46.315722679719329" lon="8.248858647421002">
        <ele>1743.4100000000001</ele>
        <time>2020-02-09T09:25:00Z</time>
      </trkpt>
      <trkpt lat="46.315683368593454" lon="8.248773571103811">
        <ele>1744.6199999999999</ele>
        <time>2020-02-09T09:25:11Z</time>
      </trkpt>
      <trkpt lat="46.315672304481268" lon="8.248724201694131">
        <ele>1745.6400000000001</ele>
        <time>2020-02-09T09:25:16Z</time>
      </trkpt>
      <trkpt lat="46.315596112981439" lon="8.248644573614001">
        <ele>1747.3199999999999</ele>
        <time>2020-02-09T09:25:29Z</time>
      </trkpt>
      <trkpt lat="46.315517909824848" lon="8.248586319386959">
        <ele>1749.0899999999999</ele>
        <time>2020-02-09T09:25:42Z</time>
      </trkpt>
      <trkpt lat="46.315445071086287" lon="8.248515324667096">
        <ele>1751.4100000000001</ele>
        <time>2020-02-09T09:25:58Z</time>
      </trkpt>
      <trkpt lat="46.315382039174438" lon="8.248430164530873">
        <ele>1753.21</ele>
        <time>2020-02-09T09:26:12Z</time>
      </trkpt>
      <trkpt lat="46.315307524055243" lon="8.248350704088807">
        <ele>1753.4000000000001</ele>
        <time>2020-02-09T09:26:23Z</time>
      </trkpt>
      <trkpt lat="46.315284306183457" lon="8.248339388519526">
        <ele>1753.9300000000001</ele>
        <time>2020-02-09T09:26:34Z</time>
      </trkpt>
      <trkpt lat="46.315275002270937" lon="8.248343579471111">
        <ele>1753.6900000000001</ele>
        <time>2020-02-09T09:26:53Z</time>
      </trkpt>
      <trkpt lat="46.31529126316309" lon="8.24834106490016">
        <ele>1753.49</ele>
        <time>2020-02-09T09:27:06Z</time>
      </trkpt>
      <trkpt lat="46.315300231799483" lon="8.248332431539893">
        <ele>1753.1600000000001</ele>
        <time>2020-02-09T09:27:33Z</time>
      </trkpt>
      <trkpt lat="46.315300902351737" lon="8.248330419883132">
        <ele>1753</ele>
        <time>2020-02-09T09:27:47Z</time>
      </trkpt>
      <trkpt lat="46.315291011705995" lon="8.248326564207673">
        <ele>1752.77</ele>
        <time>2020-02-09T09:28:12Z</time>
      </trkpt>
      <trkpt lat="46.315293861553073" lon="8.248329414054751">
        <ele>1752.79</ele>
        <time>2020-02-09T09:28:30Z</time>
      </trkpt>
      <trkpt lat="46.31531422957778" lon="8.248328911140561">
        <ele>1752.9200000000001</ele>
        <time>2020-02-09T09:28:55Z</time>
      </trkpt>
      <trkpt lat="46.315306099131703" lon="8.248327150940895">
        <ele>1752.8499999999999</ele>
        <time>2020-02-09T09:29:18Z</time>
      </trkpt>
      <trkpt lat="46.31528832949698" lon="8.248315583914518">
        <ele>1752.78</ele>
        <time>2020-02-09T09:29:37Z</time>
      </trkpt>
      <trkpt lat="46.315269554033875" lon="8.248285828158259">
        <ele>1753.01</ele>
        <time>2020-02-09T09:29:40Z</time>
      </trkpt>
      <trkpt lat="46.315183807164431" lon="8.248169990256429">
        <ele>1753.24</ele>
        <time>2020-02-09T09:29:51Z</time>
      </trkpt>
      <trkpt lat="46.315100826323032" lon="8.24808114208281">
        <ele>1754.3599999999999</ele>
        <time>2020-02-09T09:30:02Z</time>
      </trkpt>
      <trkpt lat="46.315002925693989" lon="8.247995646670461">
        <ele>1755.4100000000001</ele>
        <time>2020-02-09T09:30:14Z</time>
      </trkpt>
      <trkpt lat="46.314957160502672" lon="8.247910737991333">
        <ele>1757.9200000000001</ele>
        <time>2020-02-09T09:30:26Z</time>
      </trkpt>
      <trkpt lat="46.314911730587482" lon="8.247873354703188">
        <ele>1759.51</ele>
        <time>2020-02-09T09:30:34Z</time>
      </trkpt>
      <trkpt lat="46.314834114164114" lon="8.247858434915543">
        <ele>1761.48</ele>
        <time>2020-02-09T09:30:46Z</time>
      </trkpt>
      <trkpt lat="46.314760185778141" lon="8.247817447409034">
        <ele>1764.05</ele>
        <time>2020-02-09T09:31:01Z</time>
      </trkpt>
      <trkpt lat="46.314700925722718" lon="8.247787524014711">
        <ele>1766.03</ele>
        <time>2020-02-09T09:31:14Z</time>
      </trkpt>
      <trkpt lat="46.314629260450602" lon="8.247782243415713">
        <ele>1768.6800000000001</ele>
        <time>2020-02-09T09:31:29Z</time>
      </trkpt>
      <trkpt lat="46.314553823322058" lon="8.2477190438658">
        <ele>1771.5999999999999</ele>
        <time>2020-02-09T09:31:44Z</time>
      </trkpt>
      <trkpt lat="46.314499508589506" lon="8.247680570930243">
        <ele>1773.1300000000001</ele>
        <time>2020-02-09T09:31:56Z</time>
      </trkpt>
      <trkpt lat="46.314413510262966" lon="8.247618041932583">
        <ele>1774.73</ele>
        <time>2020-02-09T09:32:10Z</time>
      </trkpt>
      <trkpt lat="46.314370175823569" lon="8.247565403580666">
        <ele>1775.45</ele>
        <time>2020-02-09T09:32:22Z</time>
      </trkpt>
      <trkpt lat="46.314346203580499" lon="8.24750354513526">
        <ele>1777.04</ele>
        <time>2020-02-09T09:32:34Z</time>
      </trkpt>
      <trkpt lat="46.314334301277995" lon="8.247429030016065">
        <ele>1779.04</ele>
        <time>2020-02-09T09:32:47Z</time>
      </trkpt>
      <trkpt lat="46.314308401197195" lon="8.247370105236769">
        <ele>1780.5899999999999</ele>
        <time>2020-02-09T09:33:00Z</time>
      </trkpt>
      <trkpt lat="46.314287697896361" lon="8.247358370572329">
        <ele>1781.3699999999999</ele>
        <time>2020-02-09T09:33:10Z</time>
      </trkpt>
      <trkpt lat="46.314271772280335" lon="8.247339595109224">
        <ele>1782.23</ele>
        <time>2020-02-09T09:33:22Z</time>
      </trkpt>
      <trkpt lat="46.314281327649951" lon="8.247328698635101">
        <ele>1782.29</ele>
        <time>2020-02-09T09:33:45Z</time>
      </trkpt>
      <trkpt lat="46.314275292679667" lon="8.247340600937605">
        <ele>1782.28</ele>
        <time>2020-02-09T09:34:05Z</time>
      </trkpt>
      <trkpt lat="46.314269509166479" lon="8.247349988669157">
        <ele>1782.1600000000001</ele>
        <time>2020-02-09T09:34:24Z</time>
      </trkpt>
      <trkpt lat="46.314268754795194" lon="8.247353844344616">
        <ele>1781.96</ele>
        <time>2020-02-09T09:34:49Z</time>
      </trkpt>
      <trkpt lat="46.314273783937097" lon="8.247348563745618">
        <ele>1781.75</ele>
        <time>2020-02-09T09:35:07Z</time>
      </trkpt>
      <trkpt lat="46.314283339306712" lon="8.247359795495868">
        <ele>1781.26</ele>
        <time>2020-02-09T09:35:26Z</time>
      </trkpt>
      <trkpt lat="46.314276466146111" lon="8.24735501781106">
        <ele>1781.02</ele>
        <time>2020-02-09T09:35:51Z</time>
      </trkpt>
      <trkpt lat="46.314271437004209" lon="8.247347306460142">
        <ele>1780.74</ele>
        <time>2020-02-09T09:36:18Z</time>
      </trkpt>
      <trkpt lat="46.314274705946445" lon="8.247351832687855">
        <ele>1780.73</ele>
        <time>2020-02-09T09:36:34Z</time>
      </trkpt>
      <trkpt lat="46.31426808424294" lon="8.247341606765986">
        <ele>1781.04</ele>
        <time>2020-02-09T09:36:51Z</time>
      </trkpt>
      <trkpt lat="46.314272694289684" lon="8.247325345873833">
        <ele>1780.8499999999999</ele>
        <time>2020-02-09T09:37:10Z</time>
      </trkpt>
      <trkpt lat="46.314264731481671" lon="8.247330291196704">
        <ele>1780.73</ele>
        <time>2020-02-09T09:37:34Z</time>
      </trkpt>
      <trkpt lat="46.314272778108716" lon="8.247353089973331">
        <ele>1780.5799999999999</ele>
        <time>2020-02-09T09:37:59Z</time>
      </trkpt>
      <trkpt lat="46.314260959625244" lon="8.247345546260476">
        <ele>1780.6300000000001</ele>
        <time>2020-02-09T09:38:25Z</time>
      </trkpt>
      <trkpt lat="46.314264982938766" lon="8.247350826859474">
        <ele>1780.6500000000001</ele>
        <time>2020-02-09T09:38:40Z</time>
      </trkpt>
      <trkpt lat="46.314277639612556" lon="8.247376391664147">
        <ele>1780.45</ele>
        <time>2020-02-09T09:38:57Z</time>
      </trkpt>
      <trkpt lat="46.314275125041604" lon="8.247385863214731">
        <ele>1780.27</ele>
        <time>2020-02-09T09:39:15Z</time>
      </trkpt>
      <trkpt lat="46.31426808424294" lon="8.247430454939604">
        <ele>1780.9100000000001</ele>
        <time>2020-02-09T09:39:30Z</time>
      </trkpt>
      <trkpt lat="46.314192898571491" lon="8.247442776337266">
        <ele>1783.3199999999999</ele>
        <time>2020-02-09T09:39:43Z</time>
      </trkpt>
      <trkpt lat="46.314167249947786" lon="8.247461719438434">
        <ele>1783.6300000000001</ele>
        <time>2020-02-09T09:39:47Z</time>
      </trkpt>
      <trkpt lat="46.314093489199877" lon="8.24747228063643">
        <ele>1784.5699999999999</ele>
        <time>2020-02-09T09:39:58Z</time>
      </trkpt>
      <trkpt lat="46.314029954373837" lon="8.247417965903878">
        <ele>1786.6700000000001</ele>
        <time>2020-02-09T09:40:12Z</time>
      </trkpt>
      <trkpt lat="46.313935574144125" lon="8.247436825186014">
        <ele>1789.5599999999999</ele>
        <time>2020-02-09T09:40:27Z</time>
      </trkpt>
      <trkpt lat="46.313870027661324" lon="8.247412433847785">
        <ele>1791.9400000000001</ele>
        <time>2020-02-09T09:40:42Z</time>
      </trkpt>
      <trkpt lat="46.313822921365499" lon="8.247381504625082">
        <ele>1794.0799999999999</ele>
        <time>2020-02-09T09:40:53Z</time>
      </trkpt>
      <trkpt lat="46.313768271356821" lon="8.247382594272494">
        <ele>1796.25</ele>
        <time>2020-02-09T09:41:07Z</time>
      </trkpt>
      <trkpt lat="46.313699623569846" lon="8.247402459383011">
        <ele>1798.6099999999999</ele>
        <time>2020-02-09T09:41:23Z</time>
      </trkpt>
      <trkpt lat="46.313623515889049" lon="8.247419307008386">
        <ele>1801.3</ele>
        <time>2020-02-09T09:41:39Z</time>
      </trkpt>
      <trkpt lat="46.313574817031622" lon="8.247431293129921">
        <ele>1803.25</ele>
        <time>2020-02-09T09:41:52Z</time>
      </trkpt>
      <trkpt lat="46.313507007434964" lon="8.247429700568318">
        <ele>1805.4100000000001</ele>
        <time>2020-02-09T09:42:06Z</time>
      </trkpt>
      <trkpt lat="46.313446993008256" lon="8.247441267594695">
        <ele>1807.71</ele>
        <time>2020-02-09T09:42:20Z</time>
      </trkpt>
      <trkpt lat="46.313412711024284" lon="8.247441435232759">
        <ele>1808.9300000000001</ele>
        <time>2020-02-09T09:42:34Z</time>
      </trkpt>
      <trkpt lat="46.313360827043653" lon="8.247379660606384">
        <ele>1809.79</ele>
        <time>2020-02-09T09:42:49Z</time>
      </trkpt>
      <trkpt lat="46.31331036798656" lon="8.247281089425087">
        <ele>1812.3800000000001</ele>
        <time>2020-02-09T09:43:06Z</time>
      </trkpt>
      <trkpt lat="46.313269296661019" lon="8.247169945389032">
        <ele>1814.3199999999999</ele>
        <time>2020-02-09T09:43:21Z</time>
      </trkpt>
      <trkpt lat="46.313251610845327" lon="8.247074894607067">
        <ele>1815.9300000000001</ele>
        <time>2020-02-09T09:43:33Z</time>
      </trkpt>
      <trkpt lat="46.313200481235981" lon="8.247005827724934">
        <ele>1817.5999999999999</ele>
        <time>2020-02-09T09:43:46Z</time>
      </trkpt>
      <trkpt lat="46.313140215352178" lon="8.246994595974684">
        <ele>1819.47</ele>
        <time>2020-02-09T09:43:59Z</time>
      </trkpt>
      <trkpt lat="46.313084475696087" lon="8.246952602639794">
        <ele>1821</ele>
        <time>2020-02-09T09:44:11Z</time>
      </trkpt>
      <trkpt lat="46.31303234025836" lon="8.246896862983704">
        <ele>1822.3499999999999</ele>
        <time>2020-02-09T09:44:25Z</time>
      </trkpt>
      <trkpt lat="46.313035106286407" lon="8.246885631233454">
        <ele>1822.04</ele>
        <time>2020-02-09T09:44:38Z</time>
      </trkpt>
      <trkpt lat="46.313039297237992" lon="8.246882110834122">
        <ele>1822.03</ele>
        <time>2020-02-09T09:44:47Z</time>
      </trkpt>
      <trkpt lat="46.313044913113117" lon="8.246871214359999">
        <ele>1822</ele>
        <time>2020-02-09T09:45:01Z</time>
      </trkpt>
      <trkpt lat="46.313038961961865" lon="8.246880853548646">
        <ele>1820.97</ele>
        <time>2020-02-09T09:45:12Z</time>
      </trkpt>
      <trkpt lat="46.313047343865037" lon="8.246866352856159">
        <ele>1820.76</ele>
        <time>2020-02-09T09:45:38Z</time>
      </trkpt>
      <trkpt lat="46.313039213418961" lon="8.246888229623437">
        <ele>1820.8299999999999</ele>
        <time>2020-02-09T09:45:56Z</time>
      </trkpt>
      <trkpt lat="46.313071316108108" lon="8.246876746416092">
        <ele>1820.8299999999999</ele>
        <time>2020-02-09T09:46:19Z</time>
      </trkpt>
      <trkpt lat="46.313106352463365" lon="8.246867274865508">
        <ele>1821.1500000000001</ele>
        <time>2020-02-09T09:46:53Z</time>
      </trkpt>
      <trkpt lat="46.313096210360527" lon="8.246880518272519">
        <ele>1821.3299999999999</ele>
        <time>2020-02-09T09:47:29Z</time>
      </trkpt>
      <trkpt lat="46.313092522323132" lon="8.246878674253821">
        <ele>1821.6900000000001</ele>
        <time>2020-02-09T09:48:06Z</time>
      </trkpt>
      <trkpt lat="46.313096629455686" lon="8.246895773336291">
        <ele>1821.72</ele>
        <time>2020-02-09T09:48:52Z</time>
      </trkpt>
      <trkpt lat="46.313094450160861" lon="8.246895102784038">
        <ele>1821.6900000000001</ele>
        <time>2020-02-09T09:49:33Z</time>
      </trkpt>
      <trkpt lat="46.313089840114117" lon="8.246887726709247">
        <ele>1821.8399999999999</ele>
        <time>2020-02-09T09:50:34Z</time>
      </trkpt>
      <trkpt lat="46.313095455989242" lon="8.246880518272519">
        <ele>1822.0799999999999</ele>
        <time>2020-02-09T09:51:30Z</time>
      </trkpt>
      <trkpt lat="46.313094031065702" lon="8.2468815241009">
        <ele>1822.3499999999999</ele>
        <time>2020-02-09T09:52:18Z</time>
      </trkpt>
      <trkpt lat="46.313104089349508" lon="8.246886134147644">
        <ele>1822.6500000000001</ele>
        <time>2020-02-09T09:52:52Z</time>
      </trkpt>
      <trkpt lat="46.313101826235652" lon="8.24688982218504">
        <ele>1823.1400000000001</ele>
        <time>2020-02-09T09:53:12Z</time>
      </trkpt>
      <trkpt lat="46.313085146248341" lon="8.246907843276858">
        <ele>1823.05</ele>
        <time>2020-02-09T09:53:39Z</time>
      </trkpt>
      <trkpt lat="46.313077518716455" lon="8.246918069198728">
        <ele>1823.98</ele>
        <time>2020-02-09T09:53:49Z</time>
      </trkpt>
      <trkpt lat="46.313063101842999" lon="8.246901892125607">
        <ele>1824.23</ele>
        <time>2020-02-09T09:54:02Z</time>
      </trkpt>
      <trkpt lat="46.313022281974554" lon="8.246855288743973">
        <ele>1825.3299999999999</ele>
        <time>2020-02-09T09:54:14Z</time>
      </trkpt>
      <trkpt lat="46.312964530661702" lon="8.246817653998733">
        <ele>1826.51</ele>
        <time>2020-02-09T09:54:25Z</time>
      </trkpt>
      <trkpt lat="46.312952460721135" lon="8.246750012040138">
        <ele>1827.25</ele>
        <time>2020-02-09T09:54:35Z</time>
      </trkpt>
      <trkpt lat="46.312955729663372" lon="8.246726877987385">
        <ele>1827.55</ele>
        <time>2020-02-09T09:54:44Z</time>
      </trkpt>
      <trkpt lat="46.312903426587582" lon="8.246661750599742">
        <ele>1827.6099999999999</ele>
        <time>2020-02-09T09:54:54Z</time>
      </trkpt>
      <trkpt lat="46.312851374968886" lon="8.246586313471198">
        <ele>1828.5</ele>
        <time>2020-02-09T09:55:06Z</time>
      </trkpt>
      <trkpt lat="46.312875682488084" lon="8.246577931568027">
        <ele>1827.76</ele>
        <time>2020-02-09T09:55:17Z</time>
      </trkpt>
      <trkpt lat="46.312876017764211" lon="8.246511379256845">
        <ele>1827.01</ele>
        <time>2020-02-09T09:55:27Z</time>
      </trkpt>
      <trkpt lat="46.312862271443009" lon="8.246444491669536">
        <ele>1827.05</ele>
        <time>2020-02-09T09:55:38Z</time>
      </trkpt>
      <trkpt lat="46.312837796285748" lon="8.246449772268534">
        <ele>1826.8699999999999</ele>
        <time>2020-02-09T09:55:48Z</time>
      </trkpt>
      <trkpt lat="46.312771160155535" lon="8.246398810297251">
        <ele>1827.5899999999999</ele>
        <time>2020-02-09T09:56:02Z</time>
      </trkpt>
      <trkpt lat="46.31272891536355" lon="8.246364444494247">
        <ele>1828.0699999999999</ele>
        <time>2020-02-09T09:56:12Z</time>
      </trkpt>
      <trkpt lat="46.312672337517142" lon="8.246344747021794">
        <ele>1828.3499999999999</ele>
        <time>2020-02-09T09:56:22Z</time>
      </trkpt>
      <trkpt lat="46.312633361667395" lon="8.246274841949344">
        <ele>1829.95</ele>
        <time>2020-02-09T09:56:34Z</time>
      </trkpt>
      <trkpt lat="46.312599750235677" lon="8.246152801439166">
        <ele>1831.8299999999999</ele>
        <time>2020-02-09T09:56:47Z</time>
      </trkpt>
      <trkpt lat="46.312527414411306" lon="8.246039813384414">
        <ele>1833.3199999999999</ele>
        <time>2020-02-09T09:57:03Z</time>
      </trkpt>
      <trkpt lat="46.312483660876751" lon="8.245967561379075">
        <ele>1834.5899999999999</ele>
        <time>2020-02-09T09:57:13Z</time>
      </trkpt>
      <trkpt lat="46.31242984905839" lon="8.245957922190428">
        <ele>1836.23</ele>
        <time>2020-02-09T09:57:24Z</time>
      </trkpt>
      <trkpt lat="46.312362207099795" lon="8.24599807150662">
        <ele>1838.3900000000001</ele>
        <time>2020-02-09T09:57:36Z</time>
      </trkpt>
      <trkpt lat="46.312300348654389" lon="8.245961610227823">
        <ele>1840.4100000000001</ele>
        <time>2020-02-09T09:57:47Z</time>
      </trkpt>
      <trkpt lat="46.312231197953224" lon="8.245911486446858">
        <ele>1842.04</ele>
        <time>2020-02-09T09:57:59Z</time>
      </trkpt>
      <trkpt lat="46.31221242249012" lon="8.245902936905623">
        <ele>1842.3599999999999</ele>
        <time>2020-02-09T09:58:11Z</time>
      </trkpt>
      <trkpt lat="46.312209656462073" lon="8.245917605236173">
        <ele>1842.3299999999999</ele>
        <time>2020-02-09T09:58:33Z</time>
      </trkpt>
      <trkpt lat="46.312206806614995" lon="8.24590377509594">
        <ele>1843.04</ele>
        <time>2020-02-09T09:58:53Z</time>
      </trkpt>
      <trkpt lat="46.312207393348217" lon="8.245881563052535">
        <ele>1843.28</ele>
        <time>2020-02-09T09:59:08Z</time>
      </trkpt>
      <trkpt lat="46.312212087213993" lon="8.245866810902953">
        <ele>1842.3599999999999</ele>
        <time>2020-02-09T09:59:24Z</time>
      </trkpt>
      <trkpt lat="46.312201526015997" lon="8.245868738740683">
        <ele>1843.28</ele>
        <time>2020-02-09T09:59:57Z</time>
      </trkpt>
      <trkpt lat="46.312195658683777" lon="8.245856920257211">
        <ele>1843.3399999999999</ele>
        <time>2020-02-09T10:00:13Z</time>
      </trkpt>
      <trkpt lat="46.312176547944546" lon="8.245829762890935">
        <ele>1843.5799999999999</ele>
        <time>2020-02-09T10:00:33Z</time>
      </trkpt>
      <trkpt lat="46.312113348394632" lon="8.245753822848201">
        <ele>1846.01</ele>
        <time>2020-02-09T10:00:45Z</time>
      </trkpt>
      <trkpt lat="46.312076468020678" lon="8.245642678812146">
        <ele>1847.6900000000001</ele>
        <time>2020-02-09T10:00:57Z</time>
      </trkpt>
      <trkpt lat="46.312050232663751" lon="8.245526337996125">
        <ele>1850.72</ele>
        <time>2020-02-09T10:01:09Z</time>
      </trkpt>
      <trkpt lat="46.311991643160582" lon="8.245449224486947">
        <ele>1853.28</ele>
        <time>2020-02-09T10:01:24Z</time>
      </trkpt>
      <trkpt lat="46.311919894069433" lon="8.245502868667245">
        <ele>1855.1199999999999</ele>
        <time>2020-02-09T10:01:39Z</time>
      </trkpt>
      <trkpt lat="46.311871698126197" lon="8.24558274820447">
        <ele>1856.6300000000001</ele>
        <time>2020-02-09T10:01:51Z</time>
      </trkpt>
      <trkpt lat="46.311817886307836" lon="8.245640499517322">
        <ele>1859.4000000000001</ele>
        <time>2020-02-09T10:02:06Z</time>
      </trkpt>
      <trkpt lat="46.311760302633047" lon="8.245624909177423">
        <ele>1861</ele>
        <time>2020-02-09T10:02:19Z</time>
      </trkpt>
      <trkpt lat="46.311694923788309" lon="8.24557788670063">
        <ele>1862.6800000000001</ele>
        <time>2020-02-09T10:02:31Z</time>
      </trkpt>
      <trkpt lat="46.311639687046409" lon="8.245543017983437">
        <ele>1863.99</ele>
        <time>2020-02-09T10:02:42Z</time>
      </trkpt>
      <trkpt lat="46.311583612114191" lon="8.245492391288281">
        <ele>1866.05</ele>
        <time>2020-02-09T10:02:54Z</time>
      </trkpt>
      <trkpt lat="46.311516305431724" lon="8.245372110977769">
        <ele>1868.0999999999999</ele>
        <time>2020-02-09T10:03:11Z</time>
      </trkpt>
      <trkpt lat="46.311462996527553" lon="8.245293153449893">
        <ele>1869.6500000000001</ele>
        <time>2020-02-09T10:03:24Z</time>
      </trkpt>
      <trkpt lat="46.311412956565619" lon="8.245196342468262">
        <ele>1871.51</ele>
        <time>2020-02-09T10:03:38Z</time>
      </trkpt>
      <trkpt lat="46.31135780364275" lon="8.245093412697315">
        <ele>1873.8800000000001</ele>
        <time>2020-02-09T10:03:54Z</time>
      </trkpt>
      <trkpt lat="46.311315894126892" lon="8.244998697191477">
        <ele>1875.77</ele>
        <time>2020-02-09T10:04:07Z</time>
      </trkpt>
      <trkpt lat="46.311251940205693" lon="8.244886714965105">
        <ele>1877.98</ele>
        <time>2020-02-09T10:04:24Z</time>
      </trkpt>
      <trkpt lat="46.31119167432189" lon="8.24481706134975">
        <ele>1879.54</ele>
        <time>2020-02-09T10:04:37Z</time>
      </trkpt>
      <trkpt lat="46.311112632974982" lon="8.244726452976465">
        <ele>1881.3299999999999</ele>
        <time>2020-02-09T10:04:53Z</time>
      </trkpt>
      <trkpt lat="46.311028059571981" lon="8.244614470750094">
        <ele>1883.29</ele>
        <time>2020-02-09T10:05:10Z</time>
      </trkpt>
      <trkpt lat="46.310972403734922" lon="8.244524281471968">
        <ele>1884.4100000000001</ele>
        <time>2020-02-09T10:05:22Z</time>
      </trkpt>
      <trkpt lat="46.310890344902873" lon="8.244415819644928">
        <ele>1885.8099999999999</ele>
        <time>2020-02-09T10:05:38Z</time>
      </trkpt>
      <trkpt lat="46.310824127867818" lon="8.244330156594515">
        <ele>1886.8599999999999</ele>
        <time>2020-02-09T10:05:51Z</time>
      </trkpt>
      <trkpt lat="46.310811219736934" lon="8.244332168251276">
        <ele>1886.6900000000001</ele>
        <time>2020-02-09T10:06:01Z</time>
      </trkpt>
      <trkpt lat="46.310795377939939" lon="8.244285313412547">
        <ele>1888.3</ele>
        <time>2020-02-09T10:06:13Z</time>
      </trkpt>
      <trkpt lat="46.310793282464147" lon="8.244279194623232">
        <ele>1887.73</ele>
        <time>2020-02-09T10:06:35Z</time>
      </trkpt>
      <trkpt lat="46.310795210301876" lon="8.244288833811879">
        <ele>1888.05</ele>
        <time>2020-02-09T10:06:52Z</time>
      </trkpt>
      <trkpt lat="46.310797473415732" lon="8.244290594011545">
        <ele>1887.78</ele>
        <time>2020-02-09T10:07:10Z</time>
      </trkpt>
      <trkpt lat="46.310792192816734" lon="8.244281206279993">
        <ele>1888.0899999999999</ele>
        <time>2020-02-09T10:07:25Z</time>
      </trkpt>
      <trkpt lat="46.310791270807385" lon="8.244274919852614">
        <ele>1887.8499999999999</ele>
        <time>2020-02-09T10:07:42Z</time>
      </trkpt>
      <trkpt lat="46.310787498950958" lon="8.24427274055779">
        <ele>1887.8199999999999</ele>
        <time>2020-02-09T10:08:03Z</time>
      </trkpt>
      <trkpt lat="46.310793617740273" lon="8.244271231815219">
        <ele>1887.45</ele>
        <time>2020-02-09T10:08:15Z</time>
      </trkpt>
      <trkpt lat="46.310794623568654" lon="8.244258323684335">
        <ele>1887.55</ele>
        <time>2020-02-09T10:08:32Z</time>
      </trkpt>
      <trkpt lat="46.310788504779339" lon="8.244258156046271">
        <ele>1887.4100000000001</ele>
        <time>2020-02-09T10:08:58Z</time>
      </trkpt>
      <trkpt lat="46.310786325484514" lon="8.244262346997857">
        <ele>1887.3499999999999</ele>
        <time>2020-02-09T10:09:13Z</time>
      </trkpt>
      <trkpt lat="46.310788756236434" lon="8.244263269007206">
        <ele>1887.26</ele>
        <time>2020-02-09T10:09:32Z</time>
      </trkpt>
      <trkpt lat="46.310788169503212" lon="8.244279781356454">
        <ele>1887.27</ele>
        <time>2020-02-09T10:10:05Z</time>
      </trkpt>
      <trkpt lat="46.310788420960307" lon="8.244304172694683">
        <ele>1887.1400000000001</ele>
        <time>2020-02-09T10:10:37Z</time>
      </trkpt>
      <trkpt lat="46.310791941359639" lon="8.244302580133081">
        <ele>1886.99</ele>
        <time>2020-02-09T10:10:57Z</time>
      </trkpt>
      <trkpt lat="46.310797808691859" lon="8.244296126067638">
        <ele>1886.8599999999999</ele>
        <time>2020-02-09T10:11:17Z</time>
      </trkpt>
      <trkpt lat="46.310792695730925" lon="8.244295455515385">
        <ele>1886.72</ele>
        <time>2020-02-09T10:11:31Z</time>
      </trkpt>
      <trkpt lat="46.310792444273829" lon="8.244297550991178">
        <ele>1886.8199999999999</ele>
        <time>2020-02-09T10:11:48Z</time>
      </trkpt>
      <trkpt lat="46.310794036835432" lon="8.244302663952112">
        <ele>1887.05</ele>
        <time>2020-02-09T10:12:07Z</time>
      </trkpt>
      <trkpt lat="46.310790935531259" lon="8.244302496314049">
        <ele>1886.8699999999999</ele>
        <time>2020-02-09T10:12:26Z</time>
      </trkpt>
      <trkpt lat="46.31079101935029" lon="8.244297299534082">
        <ele>1886.9300000000001</ele>
        <time>2020-02-09T10:12:40Z</time>
      </trkpt>
      <trkpt lat="46.3107939530164" lon="8.24431330896914">
        <ele>1886.76</ele>
        <time>2020-02-09T10:12:51Z</time>
      </trkpt>
      <trkpt lat="46.310797389596701" lon="8.244324959814549">
        <ele>1886.48</ele>
        <time>2020-02-09T10:13:03Z</time>
      </trkpt>
      <trkpt lat="46.31080275401473" lon="8.244321942329407">
        <ele>1886.6400000000001</ele>
        <time>2020-02-09T10:13:16Z</time>
      </trkpt>
      <trkpt lat="46.310802502557635" lon="8.244320014491677">
        <ele>1886.5699999999999</ele>
        <time>2020-02-09T10:13:32Z</time>
      </trkpt>
      <trkpt lat="46.31074114702642" lon="8.244290174916387">
        <ele>1887.52</ele>
        <time>2020-02-09T10:13:46Z</time>
      </trkpt>
      <trkpt lat="46.310742069035769" lon="8.244283637031913">
        <ele>1887.8099999999999</ele>
        <time>2020-02-09T10:13:55Z</time>
      </trkpt>
      <trkpt lat="46.310751624405384" lon="8.244297215715051">
        <ele>1887.48</ele>
        <time>2020-02-09T10:14:09Z</time>
      </trkpt>
      <trkpt lat="46.310751121491194" lon="8.244299059733748">
        <ele>1887.5</ele>
        <time>2020-02-09T10:14:24Z</time>
      </trkpt>
      <trkpt lat="46.310749026015401" lon="8.244302580133081">
        <ele>1887.47</ele>
        <time>2020-02-09T10:14:39Z</time>
      </trkpt>
      <trkpt lat="46.31074114702642" lon="8.244295790791512">
        <ele>1887.3599999999999</ele>
        <time>2020-02-09T10:15:00Z</time>
      </trkpt>
      <trkpt lat="46.310742571949959" lon="8.244316913187504">
        <ele>1886.9400000000001</ele>
        <time>2020-02-09T10:15:25Z</time>
      </trkpt>
      <trkpt lat="46.310735531151295" lon="8.244311381131411">
        <ele>1887.25</ele>
        <time>2020-02-09T10:15:45Z</time>
      </trkpt>
      <trkpt lat="46.310729831457138" lon="8.24431573972106">
        <ele>1887.2</ele>
        <time>2020-02-09T10:16:09Z</time>
      </trkpt>
      <trkpt lat="46.310732681304216" lon="8.244300400838256">
        <ele>1887.3399999999999</ele>
        <time>2020-02-09T10:16:22Z</time>
      </trkpt>
      <trkpt lat="46.310725305229425" lon="8.244294868782163">
        <ele>1887.3599999999999</ele>
        <time>2020-02-09T10:16:47Z</time>
      </trkpt>
      <trkpt lat="46.310727568343282" lon="8.244302831590176">
        <ele>1887.5799999999999</ele>
        <time>2020-02-09T10:17:09Z</time>
      </trkpt>
      <trkpt lat="46.310706110671163" lon="8.24425857514143">
        <ele>1888.3900000000001</ele>
        <time>2020-02-09T10:17:22Z</time>
      </trkpt>
      <trkpt lat="46.31070502102375" lon="8.244258156046271">
        <ele>1888.5799999999999</ele>
        <time>2020-02-09T10:17:46Z</time>
      </trkpt>
      <trkpt lat="46.310697225853801" lon="8.244260838255286">
        <ele>1888.5599999999999</ele>
        <time>2020-02-09T10:18:08Z</time>
      </trkpt>
      <trkpt lat="46.310685826465487" lon="8.244251366704702">
        <ele>1889.4400000000001</ele>
        <time>2020-02-09T10:18:19Z</time>
      </trkpt>
      <trkpt lat="46.310643665492535" lon="8.24422437697649">
        <ele>1892.01</ele>
        <time>2020-02-09T10:18:40Z</time>
      </trkpt>
      <trkpt lat="46.310610976070166" lon="8.244232926517725">
        <ele>1893.52</ele>
        <time>2020-02-09T10:18:53Z</time>
      </trkpt>
      <trkpt lat="46.310554314404726" lon="8.244213061407208">
        <ele>1896.5599999999999</ele>
        <time>2020-02-09T10:19:10Z</time>
      </trkpt>
      <trkpt lat="46.310517685487866" lon="8.244184646755457">
        <ele>1898.4300000000001</ele>
        <time>2020-02-09T10:19:24Z</time>
      </trkpt>
      <trkpt lat="46.310506956651807" lon="8.24417601339519">
        <ele>1898.95</ele>
        <time>2020-02-09T10:19:38Z</time>
      </trkpt>
      <trkpt lat="46.31049488671124" lon="8.244168553501368">
        <ele>1899.9000000000001</ele>
        <time>2020-02-09T10:19:54Z</time>
      </trkpt>
      <trkpt lat="46.310501508414745" lon="8.244172325357795">
        <ele>1900.0799999999999</ele>
        <time>2020-02-09T10:20:12Z</time>
      </trkpt>
      <trkpt lat="46.310501927509904" lon="8.244195375591517">
        <ele>1900.23</ele>
        <time>2020-02-09T10:20:26Z</time>
      </trkpt>
      <trkpt lat="46.31050611846149" lon="8.244203170761466">
        <ele>1899.2</ele>
        <time>2020-02-09T10:20:36Z</time>
      </trkpt>
      <trkpt lat="46.310497149825096" lon="8.244211468845606">
        <ele>1899.0999999999999</ele>
        <time>2020-02-09T10:20:56Z</time>
      </trkpt>
      <trkpt lat="46.310484074056149" lon="8.244218593463302">
        <ele>1899.1199999999999</ele>
        <time>2020-02-09T10:21:14Z</time>
      </trkpt>
      <trkpt lat="46.310481810942292" lon="8.244214486330748">
        <ele>1899.1099999999999</ele>
        <time>2020-02-09T10:21:33Z</time>
      </trkpt>
      <trkpt lat="46.310483319684863" lon="8.244209038093686">
        <ele>1900.26</ele>
        <time>2020-02-09T10:21:54Z</time>
      </trkpt>
      <trkpt lat="46.310506956651807" lon="8.244189005345106">
        <ele>1899.22</ele>
        <time>2020-02-09T10:22:03Z</time>
      </trkpt>
      <trkpt lat="46.310568731278181" lon="8.244230579584837">
        <ele>1897.5</ele>
        <time>2020-02-09T10:22:15Z</time>
      </trkpt>
      <trkpt lat="46.31055255420506" lon="8.244243739172816">
        <ele>1897.9200000000001</ele>
        <time>2020-02-09T10:22:25Z</time>
      </trkpt>
      <trkpt lat="46.310548530891538" lon="8.24424734339118">
        <ele>1898.52</ele>
        <time>2020-02-09T10:22:40Z</time>
      </trkpt>
      <trkpt lat="46.310538053512573" lon="8.244218677282333">
        <ele>1898.8299999999999</ele>
        <time>2020-02-09T10:22:53Z</time>
      </trkpt>
      <trkpt lat="46.310523888096213" lon="8.244186826050282">
        <ele>1899.1300000000001</ele>
        <time>2020-02-09T10:23:09Z</time>
      </trkpt>
      <trkpt lat="46.310521960258484" lon="8.24417844414711">
        <ele>1899.1500000000001</ele>
        <time>2020-02-09T10:23:21Z</time>
      </trkpt>
      <trkpt lat="46.31056479178369" lon="8.244223119691014">
        <ele>1898.52</ele>
        <time>2020-02-09T10:23:35Z</time>
      </trkpt>
      <trkpt lat="46.310607120394707" lon="8.244232004508376">
        <ele>1895.8599999999999</ele>
        <time>2020-02-09T10:23:47Z</time>
      </trkpt>
      <trkpt lat="46.31065079011023" lon="8.244244996458292">
        <ele>1893.02</ele>
        <time>2020-02-09T10:23:58Z</time>
      </trkpt>
      <trkpt lat="46.310702338814735" lon="8.244236530736089">
        <ele>1890.5799999999999</ele>
        <time>2020-02-09T10:24:08Z</time>
      </trkpt>
      <trkpt lat="46.310731926932931" lon="8.244227645918727">
        <ele>1889.3199999999999</ele>
        <time>2020-02-09T10:24:18Z</time>
      </trkpt>
      <trkpt lat="46.310733268037438" lon="8.244223287329078">
        <ele>1889.25</ele>
        <time>2020-02-09T10:24:39Z</time>
      </trkpt>
      <trkpt lat="46.310720611363649" lon="8.244219766929746">
        <ele>1889.29</ele>
        <time>2020-02-09T10:24:56Z</time>
      </trkpt>
      <trkpt lat="46.310721784830093" lon="8.24422630481422">
        <ele>1889.3199999999999</ele>
        <time>2020-02-09T10:25:16Z</time>
      </trkpt>
      <trkpt lat="46.310715666040778" lon="8.244236279278994">
        <ele>1889.49</ele>
        <time>2020-02-09T10:25:31Z</time>
      </trkpt>
      <trkpt lat="46.310711978003383" lon="8.244236363098025">
        <ele>1889.24</ele>
        <time>2020-02-09T10:25:51Z</time>
      </trkpt>
      <trkpt lat="46.310697896406054" lon="8.244226137176156">
        <ele>1889.53</ele>
        <time>2020-02-09T10:26:12Z</time>
      </trkpt>
      <trkpt lat="46.310700243338943" lon="8.244229154661298">
        <ele>1889.55</ele>
        <time>2020-02-09T10:26:29Z</time>
      </trkpt>
      <trkpt lat="46.310709044337273" lon="8.2442307472229">
        <ele>1889.51</ele>
        <time>2020-02-09T10:26:52Z</time>
      </trkpt>
      <trkpt lat="46.310704182833433" lon="8.244287157431245">
        <ele>1889.2</ele>
        <time>2020-02-09T10:27:09Z</time>
      </trkpt>
      <trkpt lat="46.310674343258142" lon="8.244287660345435">
        <ele>1891.05</ele>
        <time>2020-02-09T10:27:20Z</time>
      </trkpt>
      <trkpt lat="46.31067568436265" lon="8.244295120239258">
        <ele>1890.6099999999999</ele>
        <time>2020-02-09T10:27:35Z</time>
      </trkpt>
      <trkpt lat="46.310660094022751" lon="8.244300065562129">
        <ele>1890.75</ele>
        <time>2020-02-09T10:27:48Z</time>
      </trkpt>
      <trkpt lat="46.310660513117909" lon="8.244292521849275">
        <ele>1891.04</ele>
        <time>2020-02-09T10:28:04Z</time>
      </trkpt>
      <trkpt lat="46.310658920556307" lon="8.244309788569808">
        <ele>1891.1099999999999</ele>
        <time>2020-02-09T10:28:27Z</time>
      </trkpt>
      <trkpt lat="46.31065858528018" lon="8.244295790791512">
        <ele>1890.6500000000001</ele>
        <time>2020-02-09T10:28:44Z</time>
      </trkpt>
      <trkpt lat="46.310702674090862" lon="8.244240134954453">
        <ele>1889.2</ele>
        <time>2020-02-09T10:28:57Z</time>
      </trkpt>
      <trkpt lat="46.310754055157304" lon="8.244238207116723">
        <ele>1888.01</ele>
        <time>2020-02-09T10:29:09Z</time>
      </trkpt>
      <trkpt lat="46.310755228623748" lon="8.244243990629911">
        <ele>1887.9100000000001</ele>
        <time>2020-02-09T10:29:26Z</time>
      </trkpt>
      <trkpt lat="46.310756234452128" lon="8.244247762486339">
        <ele>1887.3699999999999</ele>
        <time>2020-02-09T10:29:48Z</time>
      </trkpt>
      <trkpt lat="46.310759419575334" lon="8.244247594848275">
        <ele>1887.3399999999999</ele>
        <time>2020-02-09T10:30:09Z</time>
      </trkpt>
      <trkpt lat="46.310758581385016" lon="8.244250109419227">
        <ele>1887.05</ele>
        <time>2020-02-09T10:30:28Z</time>
      </trkpt>
      <trkpt lat="46.310757827013731" lon="8.244227981194854">
        <ele>1887.3</ele>
        <time>2020-02-09T10:30:49Z</time>
      </trkpt>
      <trkpt lat="46.310768974944949" lon="8.244220018386841">
        <ele>1887.01</ele>
        <time>2020-02-09T10:31:16Z</time>
      </trkpt>
      <trkpt lat="46.310760509222746" lon="8.244224293157458">
        <ele>1887.0599999999999</ele>
        <time>2020-02-09T10:31:35Z</time>
      </trkpt>
      <trkpt lat="46.31075874902308" lon="8.244233345612884">
        <ele>1887.04</ele>
        <time>2020-02-09T10:32:00Z</time>
      </trkpt>
      <trkpt lat="46.31075338460505" lon="8.244232507422566">
        <ele>1887.28</ele>
        <time>2020-02-09T10:32:16Z</time>
      </trkpt>
      <trkpt lat="46.310755144804716" lon="8.244237285107374">
        <ele>1887.1099999999999</ele>
        <time>2020-02-09T10:32:34Z</time>
      </trkpt>
      <trkpt lat="46.310748523101211" lon="8.244246672838926">
        <ele>1886.8900000000001</ele>
        <time>2020-02-09T10:32:56Z</time>
      </trkpt>
      <trkpt lat="46.310750031843781" lon="8.244244996458292">
        <ele>1886.8900000000001</ele>
        <time>2020-02-09T10:33:19Z</time>
      </trkpt>
      <trkpt lat="46.310748104006052" lon="8.244246505200863">
        <ele>1886.5799999999999</ele>
        <time>2020-02-09T10:33:43Z</time>
      </trkpt>
      <trkpt lat="46.310748858377337" lon="8.244241056963801">
        <ele>1886.6500000000001</ele>
        <time>2020-02-09T10:34:02Z</time>
      </trkpt>
      <trkpt lat="46.310748104006052" lon="8.24424684047699">
        <ele>1886.29</ele>
        <time>2020-02-09T10:34:23Z</time>
      </trkpt>
      <trkpt lat="46.310724131762981" lon="8.244236614555121">
        <ele>1887.24</ele>
        <time>2020-02-09T10:34:43Z</time>
      </trkpt>
      <trkpt lat="46.310719773173332" lon="8.244228987023234">
        <ele>1887.6099999999999</ele>
        <time>2020-02-09T10:35:00Z</time>
      </trkpt>
      <trkpt lat="46.310711978003383" lon="8.244232591241598">
        <ele>1887.73</ele>
        <time>2020-02-09T10:35:22Z</time>
      </trkpt>
      <trkpt lat="46.310690436512232" lon="8.244206104427576">
        <ele>1888.3800000000001</ele>
        <time>2020-02-09T10:35:39Z</time>
      </trkpt>
      <trkpt lat="46.310682306066155" lon="8.244205601513386">
        <ele>1889.1099999999999</ele>
        <time>2020-02-09T10:35:51Z</time>
      </trkpt>
      <trkpt lat="46.310687838122249" lon="8.24422781355679">
        <ele>1889.03</ele>
        <time>2020-02-09T10:36:09Z</time>
      </trkpt>
      <trkpt lat="46.310681132599711" lon="8.244255892932415">
        <ele>1889.71</ele>
        <time>2020-02-09T10:36:23Z</time>
      </trkpt>
      <trkpt lat="46.31071868352592" lon="8.244222952052951">
        <ele>1888.6800000000001</ele>
        <time>2020-02-09T10:36:32Z</time>
      </trkpt>
      <trkpt lat="46.310740560293198" lon="8.244223538786173">
        <ele>1887.73</ele>
        <time>2020-02-09T10:36:41Z</time>
      </trkpt>
      <trkpt lat="46.310748774558306" lon="8.244223538786173">
        <ele>1887.5599999999999</ele>
        <time>2020-02-09T10:37:00Z</time>
      </trkpt>
      <trkpt lat="46.310732765123248" lon="8.244213983416557">
        <ele>1887.8099999999999</ele>
        <time>2020-02-09T10:37:24Z</time>
      </trkpt>
      <trkpt lat="46.310703428462148" lon="8.244219766929746">
        <ele>1888.6400000000001</ele>
        <time>2020-02-09T10:37:34Z</time>
      </trkpt>
      <trkpt lat="46.310685994103551" lon="8.244231669232249">
        <ele>1888.9400000000001</ele>
        <time>2020-02-09T10:37:50Z</time>
      </trkpt>
      <trkpt lat="46.310686999931931" lon="8.244220186024904">
        <ele>1888.8</ele>
        <time>2020-02-09T10:38:04Z</time>
      </trkpt>
      <trkpt lat="46.310711978003383" lon="8.244221359491348">
        <ele>1888.03</ele>
        <time>2020-02-09T10:38:13Z</time>
      </trkpt>
      <trkpt lat="46.310718767344952" lon="8.244225969538093">
        <ele>1887.9000000000001</ele>
        <time>2020-02-09T10:38:25Z</time>
      </trkpt>
      <trkpt lat="46.310741817578673" lon="8.244213564321399">
        <ele>1887.6600000000001</ele>
        <time>2020-02-09T10:38:58Z</time>
      </trkpt>
      <trkpt lat="46.310711307451129" lon="8.244273578748107">
        <ele>1888.9000000000001</ele>
        <time>2020-02-09T10:39:15Z</time>
      </trkpt>
      <trkpt lat="46.310691861435771" lon="8.244296042248607">
        <ele>1889.52</ele>
        <time>2020-02-09T10:39:29Z</time>
      </trkpt>
      <trkpt lat="46.310712397098541" lon="8.244255222380161">
        <ele>1888.8299999999999</ele>
        <time>2020-02-09T10:39:42Z</time>
      </trkpt>
      <trkpt lat="46.310716252774" lon="8.244219096377492">
        <ele>1888.72</ele>
        <time>2020-02-09T10:39:53Z</time>
      </trkpt>
      <trkpt lat="46.310715330764651" lon="8.244217755272985">
        <ele>1888.6400000000001</ele>
        <time>2020-02-09T10:40:07Z</time>
      </trkpt>
      <trkpt lat="46.310716168954968" lon="8.244199482724071">
        <ele>1889.05</ele>
        <time>2020-02-09T10:40:17Z</time>
      </trkpt>
      <trkpt lat="46.310715414583683" lon="8.244200740009546">
        <ele>1889.1199999999999</ele>
        <time>2020-02-09T10:40:44Z</time>
      </trkpt>
      <trkpt lat="46.310715917497873" lon="8.244204260408878">
        <ele>1889.0899999999999</ele>
        <time>2020-02-09T10:41:13Z</time>
      </trkpt>
      <trkpt lat="46.310723712667823" lon="8.244204260408878">
        <ele>1889.51</ele>
        <time>2020-02-09T10:41:37Z</time>
      </trkpt>
      <trkpt lat="46.310720359906554" lon="8.244207696989179">
        <ele>1889.22</ele>
        <time>2020-02-09T10:41:57Z</time>
      </trkpt>
      <trkpt lat="46.310734944418073" lon="8.244194956496358">
        <ele>1889.46</ele>
        <time>2020-02-09T10:42:13Z</time>
      </trkpt>
      <trkpt lat="46.310803927481174" lon="8.244146006181836">
        <ele>1890.28</ele>
        <time>2020-02-09T10:42:27Z</time>
      </trkpt>
      <trkpt lat="46.310802502557635" lon="8.244143910706043">
        <ele>1890.47</ele>
        <time>2020-02-09T10:42:47Z</time>
      </trkpt>
      <trkpt lat="46.31079881452024" lon="8.244140725582838">
        <ele>1890.3900000000001</ele>
        <time>2020-02-09T10:43:04Z</time>
      </trkpt>
      <trkpt lat="46.310801496729255" lon="8.244138965383172">
        <ele>1890.5899999999999</ele>
        <time>2020-02-09T10:43:20Z</time>
      </trkpt>
      <trkpt lat="46.310799065977335" lon="8.244140725582838">
        <ele>1889.3199999999999</ele>
        <time>2020-02-09T10:43:36Z</time>
      </trkpt>
      <trkpt lat="46.310822619125247" lon="8.244136786088347">
        <ele>1889.0899999999999</ele>
        <time>2020-02-09T10:43:58Z</time>
      </trkpt>
      <trkpt lat="46.310819014906883" lon="8.244129661470652">
        <ele>1889.28</ele>
        <time>2020-02-09T10:44:32Z</time>
      </trkpt>
      <trkpt lat="46.310810213908553" lon="8.24412907473743">
        <ele>1889.3900000000001</ele>
        <time>2020-02-09T10:45:03Z</time>
      </trkpt>
      <trkpt lat="46.310794707387686" lon="8.244113316759467">
        <ele>1889.6400000000001</ele>
        <time>2020-02-09T10:45:34Z</time>
      </trkpt>
      <trkpt lat="46.310790767893195" lon="8.244111472740769">
        <ele>1889.52</ele>
        <time>2020-02-09T10:46:08Z</time>
      </trkpt>
      <trkpt lat="46.310804262757301" lon="8.244122201576829">
        <ele>1889.6500000000001</ele>
        <time>2020-02-09T10:46:41Z</time>
      </trkpt>
      <trkpt lat="46.310807196423411" lon="8.244130415841937">
        <ele>1890.0699999999999</ele>
        <time>2020-02-09T10:47:25Z</time>
      </trkpt>
      <trkpt lat="46.310804933309555" lon="8.244131589308381">
        <ele>1891.1700000000001</ele>
        <time>2020-02-09T10:47:33Z</time>
      </trkpt>
      <trkpt lat="46.310794875025749" lon="8.244200153276324">
        <ele>1890.05</ele>
        <time>2020-02-09T10:47:43Z</time>
      </trkpt>
      <trkpt lat="46.310799736529589" lon="8.244205936789513">
        <ele>1889.78</ele>
        <time>2020-02-09T10:47:54Z</time>
      </trkpt>
      <trkpt lat="46.310788588598371" lon="8.244215492159128">
        <ele>1889.3499999999999</ele>
        <time>2020-02-09T10:48:11Z</time>
      </trkpt>
      <trkpt lat="46.310771321877837" lon="8.24425371363759">
        <ele>1888.8599999999999</ele>
        <time>2020-02-09T10:48:23Z</time>
      </trkpt>
      <trkpt lat="46.310777608305216" lon="8.244276260957122">
        <ele>1888.74</ele>
        <time>2020-02-09T10:48:54Z</time>
      </trkpt>
      <trkpt lat="46.310771154239774" lon="8.244271734729409">
        <ele>1889.02</ele>
        <time>2020-02-09T10:49:07Z</time>
      </trkpt>
      <trkpt lat="46.3107680529356" lon="8.244271147996187">
        <ele>1888.8099999999999</ele>
        <time>2020-02-09T10:49:24Z</time>
      </trkpt>
      <trkpt lat="46.310765454545617" lon="8.244268130511046">
        <ele>1888.8699999999999</ele>
        <time>2020-02-09T10:49:40Z</time>
      </trkpt>
      <trkpt lat="46.310760173946619" lon="8.244264107197523">
        <ele>1888.76</ele>
        <time>2020-02-09T10:49:52Z</time>
      </trkpt>
      <trkpt lat="46.310756988823414" lon="8.244278188794851">
        <ele>1887.71</ele>
        <time>2020-02-09T10:50:07Z</time>
      </trkpt>
      <trkpt lat="46.310747181996703" lon="8.244286989793181">
        <ele>1887.52</ele>
        <time>2020-02-09T10:50:44Z</time>
      </trkpt>
      <trkpt lat="46.310737961903214" lon="8.244280703365803">
        <ele>1887.5699999999999</ele>
        <time>2020-02-09T10:51:14Z</time>
      </trkpt>
      <trkpt lat="46.310742236673832" lon="8.244256312027574">
        <ele>1887.76</ele>
        <time>2020-02-09T10:51:37Z</time>
      </trkpt>
      <trkpt lat="46.310760928317904" lon="8.244234519079328">
        <ele>1887.5899999999999</ele>
        <time>2020-02-09T10:51:55Z</time>
      </trkpt>
      <trkpt lat="46.310703093186021" lon="8.244255222380161">
        <ele>1887.55</ele>
        <time>2020-02-09T10:52:17Z</time>
      </trkpt>
      <trkpt lat="46.31074508652091" lon="8.244233345612884">
        <ele>1887.03</ele>
        <time>2020-02-09T10:52:37Z</time>
      </trkpt>
      <trkpt lat="46.310724131762981" lon="8.244249606505036">
        <ele>1887.29</ele>
        <time>2020-02-09T10:53:02Z</time>
      </trkpt>
      <trkpt lat="46.310746343806386" lon="8.244244828820229">
        <ele>1887.1900000000001</ele>
        <time>2020-02-09T10:53:28Z</time>
      </trkpt>
      <trkpt lat="46.310754641890526" lon="8.244202164933085">
        <ele>1887.0699999999999</ele>
        <time>2020-02-09T10:53:53Z</time>
      </trkpt>
      <trkpt lat="46.310754641890526" lon="8.244133936241269">
        <ele>1887.3199999999999</ele>
        <time>2020-02-09T10:54:17Z</time>
      </trkpt>
      <trkpt lat="46.3107128161937" lon="8.244193196296692">
        <ele>1886.97</ele>
        <time>2020-02-09T10:54:44Z</time>
      </trkpt>
      <trkpt lat="46.310752630233765" lon="8.244179617613554">
        <ele>1887.1099999999999</ele>
        <time>2020-02-09T10:55:15Z</time>
      </trkpt>
      <trkpt lat="46.310721784830093" lon="8.244221275672317">
        <ele>1886.51</ele>
        <time>2020-02-09T10:55:41Z</time>
      </trkpt>
      <trkpt lat="46.310713486745954" lon="8.244361001998186">
        <ele>1886.8099999999999</ele>
        <time>2020-02-09T10:56:22Z</time>
      </trkpt>
      <trkpt lat="46.310697142034769" lon="8.244267124682665">
        <ele>1886.8</ele>
        <time>2020-02-09T10:56:41Z</time>
      </trkpt>
      <trkpt lat="46.310681216418743" lon="8.244380783289671">
        <ele>1887</ele>
        <time>2020-02-09T10:57:06Z</time>
      </trkpt>
      <trkpt lat="46.31072111427784" lon="8.244296628981829">
        <ele>1887.1199999999999</ele>
        <time>2020-02-09T10:57:32Z</time>
      </trkpt>
      <trkpt lat="46.31071524694562" lon="8.244287995621562">
        <ele>1887.1099999999999</ele>
        <time>2020-02-09T10:57:57Z</time>
      </trkpt>
      <trkpt lat="46.31072991527617" lon="8.244263855740428">
        <ele>1887.28</ele>
        <time>2020-02-09T10:58:22Z</time>
      </trkpt>
      <trkpt lat="46.310740476474166" lon="8.244282631203532">
        <ele>1888.0999999999999</ele>
        <time>2020-02-09T10:58:37Z</time>
      </trkpt>
      <trkpt lat="46.310745673254132" lon="8.244231417775154">
        <ele>1888.5799999999999</ele>
        <time>2020-02-09T10:58:54Z</time>
      </trkpt>
      <trkpt lat="46.310704182833433" lon="8.244103845208883">
        <ele>1890.51</ele>
        <time>2020-02-09T10:59:08Z</time>
      </trkpt>
      <trkpt lat="46.310635786503553" lon="8.243992114439607">
        <ele>1892.4100000000001</ele>
        <time>2020-02-09T10:59:23Z</time>
      </trkpt>
      <trkpt lat="46.310617597773671" lon="8.243996137753129">
        <ele>1893.71</ele>
        <time>2020-02-09T10:59:35Z</time>
      </trkpt>
      <trkpt lat="46.310585411265492" lon="8.244011141359806">
        <ele>1895.51</ele>
        <time>2020-02-09T10:59:46Z</time>
      </trkpt>
      <trkpt lat="46.310562444850802" lon="8.244124464690685">
        <ele>1898.0699999999999</ele>
        <time>2020-02-09T11:00:02Z</time>
      </trkpt>
      <trkpt lat="46.310537299141288" lon="8.244151789695025">
        <ele>1899.8599999999999</ele>
        <time>2020-02-09T11:00:13Z</time>
      </trkpt>
      <trkpt lat="46.310480553656816" lon="8.244188837707043">
        <ele>1901.7</ele>
        <time>2020-02-09T11:00:24Z</time>
      </trkpt>
      <trkpt lat="46.310397237539291" lon="8.244180958718061">
        <ele>1903.6800000000001</ele>
        <time>2020-02-09T11:00:37Z</time>
      </trkpt>
      <trkpt lat="46.310336301103234" lon="8.244113065302372">
        <ele>1905.9100000000001</ele>
        <time>2020-02-09T11:00:49Z</time>
      </trkpt>
      <trkpt lat="46.310258684679866" lon="8.244004603475332">
        <ele>1908.24</ele>
        <time>2020-02-09T11:01:05Z</time>
      </trkpt>
      <trkpt lat="46.310204369947314" lon="8.243886586278677">
        <ele>1909.8599999999999</ele>
        <time>2020-02-09T11:01:19Z</time>
      </trkpt>
      <trkpt lat="46.310165394097567" lon="8.243769491091371">
        <ele>1910.6600000000001</ele>
        <time>2020-02-09T11:01:32Z</time>
      </trkpt>
      <trkpt lat="46.310146618634462" lon="8.243653820827603">
        <ele>1910.6900000000001</ele>
        <time>2020-02-09T11:01:45Z</time>
      </trkpt>
      <trkpt lat="46.310139494016767" lon="8.243657341226935">
        <ele>1910.77</ele>
        <time>2020-02-09T11:01:59Z</time>
      </trkpt>
      <trkpt lat="46.310147205367684" lon="8.243648037314415">
        <ele>1909.54</ele>
        <time>2020-02-09T11:02:13Z</time>
      </trkpt>
      <trkpt lat="46.310151228681207" lon="8.24365708976984">
        <ele>1909.27</ele>
        <time>2020-02-09T11:02:37Z</time>
      </trkpt>
      <trkpt lat="46.310162292793393" lon="8.243638817220926">
        <ele>1909.3699999999999</ele>
        <time>2020-02-09T11:03:21Z</time>
      </trkpt>
      <trkpt lat="46.310156593099236" lon="8.243658933788538">
        <ele>1909.3599999999999</ele>
        <time>2020-02-09T11:03:43Z</time>
      </trkpt>
      <trkpt lat="46.31017092615366" lon="8.243650384247303">
        <ele>1909.2</ele>
        <time>2020-02-09T11:04:15Z</time>
      </trkpt>
      <trkpt lat="46.310180984437466" lon="8.243655664846301">
        <ele>1909.3</ele>
        <time>2020-02-09T11:04:40Z</time>
      </trkpt>
      <trkpt lat="46.310169082134962" lon="8.24365365318954">
        <ele>1909.0999999999999</ele>
        <time>2020-02-09T11:05:11Z</time>
      </trkpt>
      <trkpt lat="46.310150725767016" lon="8.243673266842961">
        <ele>1909.3099999999999</ele>
        <time>2020-02-09T11:05:40Z</time>
      </trkpt>
      <trkpt lat="46.310131950303912" lon="8.243716852739453">
        <ele>1909.52</ele>
        <time>2020-02-09T11:06:11Z</time>
      </trkpt>
      <trkpt lat="46.310101272538304" lon="8.243768820539117">
        <ele>1909.99</ele>
        <time>2020-02-09T11:06:46Z</time>
      </trkpt>
      <trkpt lat="46.310094986110926" lon="8.243819028139114">
        <ele>1910.5799999999999</ele>
        <time>2020-02-09T11:07:23Z</time>
      </trkpt>
      <trkpt lat="46.310088112950325" lon="8.2438456825912">
        <ele>1910.52</ele>
        <time>2020-02-09T11:08:00Z</time>
      </trkpt>
      <trkpt lat="46.310084760189056" lon="8.243832439184189">
        <ele>1910.53</ele>
        <time>2020-02-09T11:08:31Z</time>
      </trkpt>
      <trkpt lat="46.310094315558672" lon="8.243764713406563">
        <ele>1910.8099999999999</ele>
        <time>2020-02-09T11:09:00Z</time>
      </trkpt>
      <trkpt lat="46.310072941705585" lon="8.243751134723425">
        <ele>1910.72</ele>
        <time>2020-02-09T11:09:33Z</time>
      </trkpt>
      <trkpt lat="46.310079982504249" lon="8.243723977357149">
        <ele>1910.6900000000001</ele>
        <time>2020-02-09T11:09:58Z</time>
      </trkpt>
      <trkpt lat="46.310095237568021" lon="8.243700340390205">
        <ele>1910.71</ele>
        <time>2020-02-09T11:10:41Z</time>
      </trkpt>
      <trkpt lat="46.310124071314931" lon="8.243697993457317">
        <ele>1910.72</ele>
        <time>2020-02-09T11:11:39Z</time>
      </trkpt>
      <trkpt lat="46.310138069093227" lon="8.243684330955148">
        <ele>1910.98</ele>
        <time>2020-02-09T11:12:30Z</time>
      </trkpt>
      <trkpt lat="46.310146199539304" lon="8.243675781413913">
        <ele>1910.8499999999999</ele>
        <time>2020-02-09T11:13:33Z</time>
      </trkpt>
      <trkpt lat="46.310153575614095" lon="8.243679217994213">
        <ele>1910.8299999999999</ele>
        <time>2020-02-09T11:14:37Z</time>
      </trkpt>
      <trkpt lat="46.310172099620104" lon="8.243648372590542">
        <ele>1910.8299999999999</ele>
        <time>2020-02-09T11:15:29Z</time>
      </trkpt>
      <trkpt lat="46.310163717716932" lon="8.243667567148805">
        <ele>1910.8399999999999</ele>
        <time>2020-02-09T11:16:05Z</time>
      </trkpt>
      <trkpt lat="46.310166902840137" lon="8.243658430874348">
        <ele>1911.0999999999999</ele>
        <time>2020-02-09T11:16:36Z</time>
      </trkpt>
      <trkpt lat="46.310160113498569" lon="8.243667399510741">
        <ele>1911.25</ele>
        <time>2020-02-09T11:17:09Z</time>
      </trkpt>
      <trkpt lat="46.310170842334628" lon="8.243663124740124">
        <ele>1911.25</ele>
        <time>2020-02-09T11:17:41Z</time>
      </trkpt>
      <trkpt lat="46.310169836506248" lon="8.243656000122428">
        <ele>1911.1600000000001</ele>
        <time>2020-02-09T11:18:13Z</time>
      </trkpt>
      <trkpt lat="46.31017972715199" lon="8.243661029264331">
        <ele>1911.1600000000001</ele>
        <time>2020-02-09T11:18:44Z</time>
      </trkpt>
      <trkpt lat="46.310155168175697" lon="8.243680140003562">
        <ele>1911.3</ele>
        <time>2020-02-09T11:19:16Z</time>
      </trkpt>
      <trkpt lat="46.310158856213093" lon="8.243664465844631">
        <ele>1911.4000000000001</ele>
        <time>2020-02-09T11:19:50Z</time>
      </trkpt>
      <trkpt lat="46.310174949467182" lon="8.243658011779189">
        <ele>1911.45</ele>
        <time>2020-02-09T11:20:30Z</time>
      </trkpt>
      <trkpt lat="46.310170004144311" lon="8.243644684553146">
        <ele>1911.3099999999999</ele>
        <time>2020-02-09T11:21:33Z</time>
      </trkpt>
      <trkpt lat="46.310163717716932" lon="8.243653904646635">
        <ele>1910.8900000000001</ele>
        <time>2020-02-09T11:22:36Z</time>
      </trkpt>
      <trkpt lat="46.310155084356666" lon="8.243646612390876">
        <ele>1910.77</ele>
        <time>2020-02-09T11:23:33Z</time>
      </trkpt>
      <trkpt lat="46.31015432998538" lon="8.24362875893712">
        <ele>1911.1400000000001</ele>
        <time>2020-02-09T11:23:57Z</time>
      </trkpt>
      <trkpt lat="46.310164975002408" lon="8.243642589077354">
        <ele>1910.8399999999999</ele>
        <time>2020-02-09T11:24:27Z</time>
      </trkpt>
      <trkpt lat="46.310173776000738" lon="8.243648707866669">
        <ele>1911.0999999999999</ele>
        <time>2020-02-09T11:25:00Z</time>
      </trkpt>
      <trkpt lat="46.310173692181706" lon="8.243645774200559">
        <ele>1911.3299999999999</ele>
        <time>2020-02-09T11:25:29Z</time>
      </trkpt>
      <trkpt lat="46.310182828456163" lon="8.243640325963497">
        <ele>1911.75</ele>
        <time>2020-02-09T11:25:58Z</time>
      </trkpt>
      <trkpt lat="46.31017486564815" lon="8.243627836927772">
        <ele>1911.49</ele>
        <time>2020-02-09T11:26:30Z</time>
      </trkpt>
      <trkpt lat="46.310165394097567" lon="8.243629932403565">
        <ele>1911.3099999999999</ele>
        <time>2020-02-09T11:27:08Z</time>
      </trkpt>
      <trkpt lat="46.310169082134962" lon="8.243624148890376">
        <ele>1911.1400000000001</ele>
        <time>2020-02-09T11:27:37Z</time>
      </trkpt>
      <trkpt lat="46.310155168175697" lon="8.24360721744597">
        <ele>1911.26</ele>
        <time>2020-02-09T11:28:05Z</time>
      </trkpt>
      <trkpt lat="46.310153994709253" lon="8.243595063686371">
        <ele>1911.1900000000001</ele>
        <time>2020-02-09T11:28:34Z</time>
      </trkpt>
      <trkpt lat="46.31017335690558" lon="8.243594225496054">
        <ele>1911.21</ele>
        <time>2020-02-09T11:29:04Z</time>
      </trkpt>
      <trkpt lat="46.310167489573359" lon="8.243621718138456">
        <ele>1911.46</ele>
        <time>2020-02-09T11:29:32Z</time>
      </trkpt>
      <trkpt lat="46.310167321935296" lon="8.243644181638956">
        <ele>1911.5899999999999</ele>
        <time>2020-02-09T11:30:13Z</time>
      </trkpt>
      <trkpt lat="46.310168579220772" lon="8.243662789463997">
        <ele>1910.9300000000001</ele>
        <time>2020-02-09T11:30:42Z</time>
      </trkpt>
      <trkpt lat="46.310165729373693" lon="8.243663208559156">
        <ele>1911.3199999999999</ele>
        <time>2020-02-09T11:31:17Z</time>
      </trkpt>
      <trkpt lat="46.3101601973176" lon="8.243663879111409">
        <ele>1912.1900000000001</ele>
        <time>2020-02-09T11:31:28Z</time>
      </trkpt>
      <trkpt lat="46.310161706060171" lon="8.243675194680691">
        <ele>1911.5599999999999</ele>
        <time>2020-02-09T11:31:44Z</time>
      </trkpt>
      <trkpt lat="46.310134883970022" lon="8.243627585470676">
        <ele>1911.4300000000001</ele>
        <time>2020-02-09T11:31:52Z</time>
      </trkpt>
      <trkpt lat="46.310095824301243" lon="8.24351535178721">
        <ele>1910.26</ele>
        <time>2020-02-09T11:32:05Z</time>
      </trkpt>
      <trkpt lat="46.310077970847487" lon="8.24348509311676">
        <ele>1910.03</ele>
        <time>2020-02-09T11:32:15Z</time>
      </trkpt>
      <trkpt lat="46.310075037181377" lon="8.243479477241635">
        <ele>1909.8699999999999</ele>
        <time>2020-02-09T11:32:29Z</time>
      </trkpt>
      <trkpt lat="46.310062212869525" lon="8.243472939357162">
        <ele>1909.8099999999999</ele>
        <time>2020-02-09T11:32:44Z</time>
      </trkpt>
      <trkpt lat="46.310032876208425" lon="8.243448045104742">
        <ele>1909.95</ele>
        <time>2020-02-09T11:32:54Z</time>
      </trkpt>
      <trkpt lat="46.310019632801414" lon="8.243443602696061">
        <ele>1909.8299999999999</ele>
        <time>2020-02-09T11:33:06Z</time>
      </trkpt>
      <trkpt lat="46.310026757419109" lon="8.243425413966179">
        <ele>1910.1600000000001</ele>
        <time>2020-02-09T11:33:29Z</time>
      </trkpt>
      <trkpt lat="46.31003606133163" lon="8.243423905223608">
        <ele>1910.05</ele>
        <time>2020-02-09T11:33:40Z</time>
      </trkpt>
      <trkpt lat="46.310055255889893" lon="8.243443183600903">
        <ele>1910.4400000000001</ele>
        <time>2020-02-09T11:33:51Z</time>
      </trkpt>
      <trkpt lat="46.310053244233131" lon="8.243462629616261">
        <ele>1909.4100000000001</ele>
        <time>2020-02-09T11:34:03Z</time>
      </trkpt>
      <trkpt lat="46.31007025949657" lon="8.24345525354147">
        <ele>1909.0599999999999</ele>
        <time>2020-02-09T11:34:34Z</time>
      </trkpt>
      <trkpt lat="46.310079228132963" lon="8.243457600474358">
        <ele>1910.01</ele>
        <time>2020-02-09T11:34:48Z</time>
      </trkpt>
      <trkpt lat="46.310062715783715" lon="8.243452487513423">
        <ele>1910.02</ele>
        <time>2020-02-09T11:35:03Z</time>
      </trkpt>
      <trkpt lat="46.310066571459174" lon="8.243442764505744">
        <ele>1909.3199999999999</ele>
        <time>2020-02-09T11:35:25Z</time>
      </trkpt>
      <trkpt lat="46.310053579509258" lon="8.243424072861671">
        <ele>1909.9400000000001</ele>
        <time>2020-02-09T11:35:42Z</time>
      </trkpt>
      <trkpt lat="46.310047376900911" lon="8.243410745635629">
        <ele>1909.95</ele>
        <time>2020-02-09T11:36:04Z</time>
      </trkpt>
      <trkpt lat="46.310019297525287" lon="8.243397502228618">
        <ele>1909.9300000000001</ele>
        <time>2020-02-09T11:36:13Z</time>
      </trkpt>
      <trkpt lat="46.309957271441817" lon="8.243302535265684">
        <ele>1910.8299999999999</ele>
        <time>2020-02-09T11:36:25Z</time>
      </trkpt>
      <trkpt lat="46.309914104640484" lon="8.243175130337477">
        <ele>1912.1400000000001</ele>
        <time>2020-02-09T11:36:38Z</time>
      </trkpt>
      <trkpt lat="46.309856437146664" lon="8.243041690438986">
        <ele>1913.4200000000001</ele>
        <time>2020-02-09T11:36:52Z</time>
      </trkpt>
      <trkpt lat="46.309761134907603" lon="8.242938425391913">
        <ele>1915.2</ele>
        <time>2020-02-09T11:37:09Z</time>
      </trkpt>
      <trkpt lat="46.309699276462197" lon="8.242890229448676">
        <ele>1917.6400000000001</ele>
        <time>2020-02-09T11:37:21Z</time>
      </trkpt>
      <trkpt lat="46.309616714715958" lon="8.242896683514118">
        <ele>1919.27</ele>
        <time>2020-02-09T11:37:35Z</time>
      </trkpt>
      <trkpt lat="46.309555778279901" lon="8.242917889729142">
        <ele>1921.1900000000001</ele>
        <time>2020-02-09T11:37:48Z</time>
      </trkpt>
      <trkpt lat="46.309523340314627" lon="8.242917889729142">
        <ele>1922.9100000000001</ele>
        <time>2020-02-09T11:38:00Z</time>
      </trkpt>
      <trkpt lat="46.309480424970388" lon="8.24292903766036">
        <ele>1924.5799999999999</ele>
        <time>2020-02-09T11:38:14Z</time>
      </trkpt>
      <trkpt lat="46.309406748041511" lon="8.24302383698523">
        <ele>1926.8</ele>
        <time>2020-02-09T11:38:30Z</time>
      </trkpt>
      <trkpt lat="46.309333741664886" lon="8.243071530014277">
        <ele>1928.1800000000001</ele>
        <time>2020-02-09T11:38:41Z</time>
      </trkpt>
      <trkpt lat="46.309255119413137" lon="8.243045713752508">
        <ele>1930.29</ele>
        <time>2020-02-09T11:38:56Z</time>
      </trkpt>
      <trkpt lat="46.309235673397779" lon="8.24296809732914">
        <ele>1932.73</ele>
        <time>2020-02-09T11:39:09Z</time>
      </trkpt>
      <trkpt lat="46.309179682284594" lon="8.242921829223633">
        <ele>1934.6500000000001</ele>
        <time>2020-02-09T11:39:21Z</time>
      </trkpt>
      <trkpt lat="46.309124110266566" lon="8.24287430383265">
        <ele>1936.5799999999999</ele>
        <time>2020-02-09T11:39:33Z</time>
      </trkpt>
      <trkpt lat="46.309135174378753" lon="8.242844715714455">
        <ele>1937.5599999999999</ele>
        <time>2020-02-09T11:39:45Z</time>
      </trkpt>
      <trkpt lat="46.309193763881922" lon="8.242771709337831">
        <ele>1939.0999999999999</ele>
        <time>2020-02-09T11:39:58Z</time>
      </trkpt>
      <trkpt lat="46.309185298159719" lon="8.242737762629986">
        <ele>1941.3399999999999</ele>
        <time>2020-02-09T11:40:11Z</time>
      </trkpt>
      <trkpt lat="46.309166857972741" lon="8.242687722668052">
        <ele>1943.5799999999999</ele>
        <time>2020-02-09T11:40:24Z</time>
      </trkpt>
      <trkpt lat="46.309153027832508" lon="8.242678083479404">
        <ele>1943.6700000000001</ele>
        <time>2020-02-09T11:40:51Z</time>
      </trkpt>
      <trkpt lat="46.309148585423827" lon="8.242689315229654">
        <ele>1943.28</ele>
        <time>2020-02-09T11:41:35Z</time>
      </trkpt>
      <trkpt lat="46.309111956506968" lon="8.242653356865048">
        <ele>1945.0899999999999</ele>
        <time>2020-02-09T11:41:48Z</time>
      </trkpt>
      <trkpt lat="46.309036687016487" lon="8.242588900029659">
        <ele>1948.29</ele>
        <time>2020-02-09T11:42:00Z</time>
      </trkpt>
      <trkpt lat="46.308972062543035" lon="8.242549588903785">
        <ele>1950.98</ele>
        <time>2020-02-09T11:42:12Z</time>
      </trkpt>
      <trkpt lat="46.308913808315992" lon="8.24254053644836">
        <ele>1952.7</ele>
        <time>2020-02-09T11:42:25Z</time>
      </trkpt>
      <trkpt lat="46.308842897415161" lon="8.24253031052649">
        <ele>1954.8399999999999</ele>
        <time>2020-02-09T11:42:39Z</time>
      </trkpt>
      <trkpt lat="46.308782380074263" lon="8.24252100661397">
        <ele>1956.5799999999999</ele>
        <time>2020-02-09T11:42:51Z</time>
      </trkpt>
      <trkpt lat="46.30874658934772" lon="8.242530561983585">
        <ele>1957.55</ele>
        <time>2020-02-09T11:43:02Z</time>
      </trkpt>
      <trkpt lat="46.308698896318674" lon="8.242536429315805">
        <ele>1958.9000000000001</ele>
        <time>2020-02-09T11:43:12Z</time>
      </trkpt>
      <trkpt lat="46.308644749224186" lon="8.242516731843352">
        <ele>1960.96</ele>
        <time>2020-02-09T11:43:25Z</time>
      </trkpt>
      <trkpt lat="46.308583477512002" lon="8.242486640810967">
        <ele>1962.74</ele>
        <time>2020-02-09T11:43:36Z</time>
      </trkpt>
      <trkpt lat="46.308535700663924" lon="8.242431487888098">
        <ele>1964.48</ele>
        <time>2020-02-09T11:43:48Z</time>
      </trkpt>
      <trkpt lat="46.308512901887298" lon="8.242370216175914">
        <ele>1966.26</ele>
        <time>2020-02-09T11:44:00Z</time>
      </trkpt>
      <trkpt lat="46.308509213849902" lon="8.24237247928977">
        <ele>1966.8499999999999</ele>
        <time>2020-02-09T11:44:09Z</time>
      </trkpt>
      <trkpt lat="46.308447020128369" lon="8.242365354672074">
        <ele>1967.95</ele>
        <time>2020-02-09T11:44:21Z</time>
      </trkpt>
      <trkpt lat="46.308376109227538" lon="8.242360996082425">
        <ele>1970.4300000000001</ele>
        <time>2020-02-09T11:44:34Z</time>
      </trkpt>
      <trkpt lat="46.308309976011515" lon="8.242358481511474">
        <ele>1972.53</ele>
        <time>2020-02-09T11:44:46Z</time>
      </trkpt>
      <trkpt lat="46.308241244405508" lon="8.242341298609972">
        <ele>1974.5699999999999</ele>
        <time>2020-02-09T11:44:59Z</time>
      </trkpt>
      <trkpt lat="46.308184415102005" lon="8.242313554510474">
        <ele>1976.6099999999999</ele>
        <time>2020-02-09T11:45:11Z</time>
      </trkpt>
      <trkpt lat="46.308126579970121" lon="8.242304837331176">
        <ele>1978.96</ele>
        <time>2020-02-09T11:45:25Z</time>
      </trkpt>
      <trkpt lat="46.308106379583478" lon="8.242304502055049">
        <ele>1979.3599999999999</ele>
        <time>2020-02-09T11:45:42Z</time>
      </trkpt>
      <trkpt lat="46.308058016002178" lon="8.242273991927505">
        <ele>1981.8699999999999</ele>
        <time>2020-02-09T11:45:54Z</time>
      </trkpt>
      <trkpt lat="46.30801510065794" lon="8.242241134867072">
        <ele>1983.9400000000001</ele>
        <time>2020-02-09T11:46:06Z</time>
      </trkpt>
      <trkpt lat="46.307967742905021" lon="8.242212301120162">
        <ele>1985.6400000000001</ele>
        <time>2020-02-09T11:46:18Z</time>
      </trkpt>
      <trkpt lat="46.30791979841888" lon="8.242232166230679">
        <ele>1988.29</ele>
        <time>2020-02-09T11:46:32Z</time>
      </trkpt>
      <trkpt lat="46.30790856666863" lon="8.2421740796417">
        <ele>1990.22</ele>
        <time>2020-02-09T11:46:44Z</time>
      </trkpt>
      <trkpt lat="46.307886522263288" lon="8.242151867598295">
        <ele>1992.04</ele>
        <time>2020-02-09T11:46:57Z</time>
      </trkpt>
      <trkpt lat="46.307871770113707" lon="8.242159662768245">
        <ele>1993.5999999999999</ele>
        <time>2020-02-09T11:47:08Z</time>
      </trkpt>
      <trkpt lat="46.307854754850268" lon="8.242138037458062">
        <ele>1995.76</ele>
        <time>2020-02-09T11:47:20Z</time>
      </trkpt>
      <trkpt lat="46.307846875861287" lon="8.242102665826678">
        <ele>1996.4000000000001</ele>
        <time>2020-02-09T11:47:30Z</time>
      </trkpt>
      <trkpt lat="46.307833883911371" lon="8.242045668885112">
        <ele>1998.3800000000001</ele>
        <time>2020-02-09T11:47:41Z</time>
      </trkpt>
      <trkpt lat="46.307835560292006" lon="8.241985738277435">
        <ele>1999.45</ele>
        <time>2020-02-09T11:47:51Z</time>
      </trkpt>
      <trkpt lat="46.307825753465295" lon="8.242017170414329">
        <ele>1998.99</ele>
        <time>2020-02-09T11:48:04Z</time>
      </trkpt>
      <trkpt lat="46.307824831455946" lon="8.242019768804312">
        <ele>1999.1099999999999</ele>
        <time>2020-02-09T11:48:18Z</time>
      </trkpt>
      <trkpt lat="46.307823490351439" lon="8.242021696642041">
        <ele>1999.26</ele>
        <time>2020-02-09T11:48:50Z</time>
      </trkpt>
      <trkpt lat="46.307829022407532" lon="8.242021026089788">
        <ele>1998.6400000000001</ele>
        <time>2020-02-09T11:49:06Z</time>
      </trkpt>
      <trkpt lat="46.307828854769468" lon="8.242015242576599">
        <ele>1998.75</ele>
        <time>2020-02-09T11:49:25Z</time>
      </trkpt>
      <trkpt lat="46.307826172560453" lon="8.242011638358235">
        <ele>1999.1600000000001</ele>
        <time>2020-02-09T11:49:50Z</time>
      </trkpt>
      <trkpt lat="46.307821813970804" lon="8.24204558506608">
        <ele>1999.3599999999999</ele>
        <time>2020-02-09T11:50:29Z</time>
      </trkpt>
      <trkpt lat="46.307829609140754" lon="8.242010716348887">
        <ele>1999.76</ele>
        <time>2020-02-09T11:50:59Z</time>
      </trkpt>
      <trkpt lat="46.307841259986162" lon="8.241855902597308">
        <ele>2000.97</ele>
        <time>2020-02-09T11:51:12Z</time>
      </trkpt>
      <trkpt lat="46.307860454544425" lon="8.241779459640384">
        <ele>2000.46</ele>
        <time>2020-02-09T11:51:22Z</time>
      </trkpt>
      <trkpt lat="46.307876883074641" lon="8.241711733862758">
        <ele>2001.3399999999999</ele>
        <time>2020-02-09T11:51:32Z</time>
      </trkpt>
      <trkpt lat="46.307885264977813" lon="8.241589022800326">
        <ele>2002</ele>
        <time>2020-02-09T11:51:43Z</time>
      </trkpt>
      <trkpt lat="46.307902447879314" lon="8.24147729203105">
        <ele>2003.95</ele>
        <time>2020-02-09T11:51:55Z</time>
      </trkpt>
      <trkpt lat="46.307908818125725" lon="8.241369416937232">
        <ele>2005.1300000000001</ele>
        <time>2020-02-09T11:52:06Z</time>
      </trkpt>
      <trkpt lat="46.307898592203856" lon="8.241229774430394">
        <ele>2005.46</ele>
        <time>2020-02-09T11:52:20Z</time>
      </trkpt>
      <trkpt lat="46.307826088741422" lon="8.24116020463407">
        <ele>2005.5899999999999</ele>
        <time>2020-02-09T11:52:32Z</time>
      </trkpt>
      <trkpt lat="46.307795997709036" lon="8.241180488839746">
        <ele>2005.03</ele>
        <time>2020-02-09T11:52:40Z</time>
      </trkpt>
      <trkpt lat="46.30779180675745" lon="8.241188786923885">
        <ele>2005.23</ele>
        <time>2020-02-09T11:52:51Z</time>
      </trkpt>
      <trkpt lat="46.307799853384495" lon="8.241183338686824">
        <ele>2004.27</ele>
        <time>2020-02-09T11:53:03Z</time>
      </trkpt>
      <trkpt lat="46.307799099013209" lon="8.241172693669796">
        <ele>2004.0699999999999</ele>
        <time>2020-02-09T11:53:24Z</time>
      </trkpt>
      <trkpt lat="46.307796919718385" lon="8.241165820509195">
        <ele>2004.1099999999999</ele>
        <time>2020-02-09T11:53:53Z</time>
      </trkpt>
      <trkpt lat="46.307789711281657" lon="8.241208149120212">
        <ele>2004.03</ele>
        <time>2020-02-09T11:54:38Z</time>
      </trkpt>
      <trkpt lat="46.307801865041256" lon="8.241234803572297">
        <ele>2004.21</ele>
        <time>2020-02-09T11:55:27Z</time>
      </trkpt>
      <trkpt lat="46.307817958295345" lon="8.241193229332566">
        <ele>2004.28</ele>
        <time>2020-02-09T11:56:26Z</time>
      </trkpt>
      <trkpt lat="46.307823406532407" lon="8.241195995360613">
        <ele>2004.77</ele>
        <time>2020-02-09T11:57:27Z</time>
      </trkpt>
      <trkpt lat="46.307824160903692" lon="8.241201611235738">
        <ele>2004.79</ele>
        <time>2020-02-09T11:58:02Z</time>
      </trkpt>
      <trkpt lat="46.3078030385077" lon="8.241215106099844">
        <ele>2005.23</ele>
        <time>2020-02-09T11:58:41Z</time>
      </trkpt>
      <trkpt lat="46.307798512279987" lon="8.241196246817708">
        <ele>2005.0899999999999</ele>
        <time>2020-02-09T11:59:43Z</time>
      </trkpt>
      <trkpt lat="46.307786274701357" lon="8.241185015067458">
        <ele>2004.99</ele>
        <time>2020-02-09T12:00:39Z</time>
      </trkpt>
      <trkpt lat="46.307787364348769" lon="8.241200102493167">
        <ele>2005.1800000000001</ele>
        <time>2020-02-09T12:01:43Z</time>
      </trkpt>
      <trkpt lat="46.30780010484159" lon="8.241218626499176">
        <ele>2005.5899999999999</ele>
        <time>2020-02-09T12:02:44Z</time>
      </trkpt>
      <trkpt lat="46.307807564735413" lon="8.241226421669126">
        <ele>2005.4000000000001</ele>
        <time>2020-02-09T12:03:39Z</time>
      </trkpt>
      <trkpt lat="46.307820556685328" lon="8.241204963997006">
        <ele>2005.3599999999999</ele>
        <time>2020-02-09T12:04:31Z</time>
      </trkpt>
      <trkpt lat="46.307835476472974" lon="8.241229187697172">
        <ele>2005.25</ele>
        <time>2020-02-09T12:05:10Z</time>
      </trkpt>
      <trkpt lat="46.307820221409202" lon="8.24121150188148">
        <ele>2005.21</ele>
        <time>2020-02-09T12:05:59Z</time>
      </trkpt>
      <trkpt lat="46.307822819799185" lon="8.241208484396339">
        <ele>2004.8099999999999</ele>
        <time>2020-02-09T12:06:53Z</time>
      </trkpt>
      <trkpt lat="46.307813180610538" lon="8.241208987310529">
        <ele>2004.9100000000001</ele>
        <time>2020-02-09T12:07:53Z</time>
      </trkpt>
      <trkpt lat="46.307815359905362" lon="8.241178477182984">
        <ele>2005</ele>
        <time>2020-02-09T12:08:56Z</time>
      </trkpt>
      <trkpt lat="46.307796752080321" lon="8.241169592365623">
        <ele>2005.0999999999999</ele>
        <time>2020-02-09T12:10:06Z</time>
      </trkpt>
      <trkpt lat="46.307809157297015" lon="8.241167832165957">
        <ele>2004.97</ele>
        <time>2020-02-09T12:11:17Z</time>
      </trkpt>
      <trkpt lat="46.307778982445598" lon="8.24121099896729">
        <ele>2004.79</ele>
        <time>2020-02-09T12:12:32Z</time>
      </trkpt>
      <trkpt lat="46.307781161740422" lon="8.241212759166956">
        <ele>2005.01</ele>
        <time>2020-02-09T12:13:55Z</time>
      </trkpt>
      <trkpt lat="46.307783257216215" lon="8.241193648427725">
        <ele>2005.1400000000001</ele>
        <time>2020-02-09T12:15:10Z</time>
      </trkpt>
      <trkpt lat="46.307786274701357" lon="8.241189541295171">
        <ele>2005.3900000000001</ele>
        <time>2020-02-09T12:16:25Z</time>
      </trkpt>
      <trkpt lat="46.307789795100689" lon="8.24118560180068">
        <ele>2005.4100000000001</ele>
        <time>2020-02-09T12:17:40Z</time>
      </trkpt>
      <trkpt lat="46.307794824242592" lon="8.241198426112533">
        <ele>2004.79</ele>
        <time>2020-02-09T12:18:55Z</time>
      </trkpt>
      <trkpt lat="46.307802703231573" lon="8.241184679791331">
        <ele>2004.52</ele>
        <time>2020-02-09T12:20:07Z</time>
      </trkpt>
      <trkpt lat="46.307787364348769" lon="8.241197755560279">
        <ele>2004.5599999999999</ele>
        <time>2020-02-09T12:21:19Z</time>
      </trkpt>
      <trkpt lat="46.307791722938418" lon="8.241176549345255">
        <ele>2004.9100000000001</ele>
        <time>2020-02-09T12:22:01Z</time>
      </trkpt>
      <trkpt lat="46.307799434289336" lon="8.241170095279813">
        <ele>1989.21</ele>
        <time>2020-02-09T12:22:21Z</time>
      </trkpt>
      <trkpt lat="46.307801362127066" lon="8.241169843822718">
        <ele>1978.55</ele>
        <time>2020-02-09T12:22:22Z</time>
      </trkpt>
      <trkpt lat="46.307801781222224" lon="8.241168754175305">
        <ele>2006.24</ele>
        <time>2020-02-09T12:22:23Z</time>
      </trkpt>
      <trkpt lat="46.307801613584161" lon="8.24116799980402">
        <ele>2025.0999999999999</ele>
        <time>2020-02-09T12:22:24Z</time>
      </trkpt>
      <trkpt lat="46.307801529765129" lon="8.241167245432735">
        <ele>2015.0799999999999</ele>
        <time>2020-02-09T12:22:25Z</time>
      </trkpt>
      <trkpt lat="46.307802200317383" lon="8.241164982318878">
        <ele>2008.8</ele>
        <time>2020-02-09T12:22:26Z</time>
      </trkpt>
      <trkpt lat="46.30780354142189" lon="8.241163892671466">
        <ele>2005.55</ele>
        <time>2020-02-09T12:22:27Z</time>
      </trkpt>
      <trkpt lat="46.307804128155112" lon="8.241163557395339">
        <ele>2004.21</ele>
        <time>2020-02-09T12:22:30Z</time>
      </trkpt>
      <trkpt lat="46.307787280529737" lon="8.241178058087826">
        <ele>2002.24</ele>
        <time>2020-02-09T12:22:49Z</time>
      </trkpt>
      <trkpt lat="46.307786023244262" lon="8.241182081401348">
        <ele>2004.51</ele>
        <time>2020-02-09T12:22:51Z</time>
      </trkpt>
      <trkpt lat="46.307785185053945" lon="8.241186272352934">
        <ele>2003.6300000000001</ele>
        <time>2020-02-09T12:22:53Z</time>
      </trkpt>
      <trkpt lat="46.30778350867331" lon="8.241176046431065">
        <ele>1997.9100000000001</ele>
        <time>2020-02-09T12:23:09Z</time>
      </trkpt>
      <trkpt lat="46.307783424854279" lon="8.241173699498177">
        <ele>2001.4400000000001</ele>
        <time>2020-02-09T12:23:10Z</time>
      </trkpt>
      <trkpt lat="46.307781413197517" lon="8.241162803024054">
        <ele>2004.76</ele>
        <time>2020-02-09T12:23:13Z</time>
      </trkpt>
      <trkpt lat="46.307779988273978" lon="8.241148637607694">
        <ele>2005.6199999999999</ele>
        <time>2020-02-09T12:23:22Z</time>
      </trkpt>
      <trkpt lat="46.30778007209301" lon="8.241149224340916">
        <ele>2001.9400000000001</ele>
        <time>2020-02-09T12:23:23Z</time>
      </trkpt>
      <trkpt lat="46.30778007209301" lon="8.241148553788662">
        <ele>1998.6099999999999</ele>
        <time>2020-02-09T12:23:24Z</time>
      </trkpt>
      <trkpt lat="46.307778563350439" lon="8.241149308159947">
        <ele>2011.6900000000001</ele>
        <time>2020-02-09T12:23:25Z</time>
      </trkpt>
      <trkpt lat="46.307776970788836" lon="8.241151068359613">
        <ele>2008.4400000000001</ele>
        <time>2020-02-09T12:23:26Z</time>
      </trkpt>
      <trkpt lat="46.307776970788836" lon="8.241152577102184">
        <ele>2002.99</ele>
        <time>2020-02-09T12:23:27Z</time>
      </trkpt>
      <trkpt lat="46.307778060436249" lon="8.241149475798011">
        <ele>2003.6400000000001</ele>
        <time>2020-02-09T12:23:28Z</time>
      </trkpt>
      <trkpt lat="46.30777521058917" lon="8.241155091673136">
        <ele>2003.47</ele>
        <time>2020-02-09T12:23:33Z</time>
      </trkpt>
      <trkpt lat="46.307760877534747" lon="8.241165233775973">
        <ele>2008.53</ele>
        <time>2020-02-09T12:23:43Z</time>
      </trkpt>
      <trkpt lat="46.307762553915381" lon="8.241164898499847">
        <ele>2002.5899999999999</ele>
        <time>2020-02-09T12:23:44Z</time>
      </trkpt>
      <trkpt lat="46.307757860049605" lon="8.241168083623052">
        <ele>2006.24</ele>
        <time>2020-02-09T12:23:46Z</time>
      </trkpt>
      <trkpt lat="46.307759704068303" lon="8.241171268746257">
        <ele>2002.5699999999999</ele>
        <time>2020-02-09T12:23:49Z</time>
      </trkpt>
      <trkpt lat="46.307759117335081" lon="8.241169676184654">
        <ele>1998.1400000000001</ele>
        <time>2020-02-09T12:23:50Z</time>
      </trkpt>
      <trkpt lat="46.307758698239923" lon="8.241169927641749">
        <ele>2001.0799999999999</ele>
        <time>2020-02-09T12:23:51Z</time>
      </trkpt>
      <trkpt lat="46.307761045172811" lon="8.241164730861783">
        <ele>2004.3499999999999</ele>
        <time>2020-02-09T12:23:56Z</time>
      </trkpt>
      <trkpt lat="46.307767163962126" lon="8.241164311766625">
        <ele>2011.2</ele>
        <time>2020-02-09T12:24:02Z</time>
      </trkpt>
      <trkpt lat="46.307766912505031" lon="8.241160707548261">
        <ele>2009.1199999999999</ele>
        <time>2020-02-09T12:24:03Z</time>
      </trkpt>
      <trkpt lat="46.30776640959084" lon="8.241159869357944">
        <ele>2005.8599999999999</ele>
        <time>2020-02-09T12:24:04Z</time>
      </trkpt>
      <trkpt lat="46.307768924161792" lon="8.241154253482819">
        <ele>2001.8299999999999</ele>
        <time>2020-02-09T12:24:06Z</time>
      </trkpt>
      <trkpt lat="46.307769007980824" lon="8.241152660921216">
        <ele>1998.25</ele>
        <time>2020-02-09T12:24:07Z</time>
      </trkpt>
      <trkpt lat="46.307770935818553" lon="8.241150565445423">
        <ele>2001.1500000000001</ele>
        <time>2020-02-09T12:24:08Z</time>
      </trkpt>
      <trkpt lat="46.307772863656282" lon="8.241145452484489">
        <ele>2005.99</ele>
        <time>2020-02-09T12:24:11Z</time>
      </trkpt>
      <trkpt lat="46.307773366570473" lon="8.241143440827727">
        <ele>2004.77</ele>
        <time>2020-02-09T12:24:12Z</time>
      </trkpt>
      <trkpt lat="46.307771187275648" lon="8.2411396689713">
        <ele>2009.73</ele>
        <time>2020-02-09T12:24:14Z</time>
      </trkpt>
      <trkpt lat="46.307770516723394" lon="8.241138914600015">
        <ele>2007.4300000000001</ele>
        <time>2020-02-09T12:24:15Z</time>
      </trkpt>
      <trkpt lat="46.307774875313044" lon="8.241134472191334">
        <ele>2003.5</ele>
        <time>2020-02-09T12:24:18Z</time>
      </trkpt>
      <trkpt lat="46.307790549471974" lon="8.241117540746927">
        <ele>1999.6600000000001</ele>
        <time>2020-02-09T12:24:24Z</time>
      </trkpt>
      <trkpt lat="46.307790633291006" lon="8.241119887679815">
        <ele>2003.0999999999999</ele>
        <time>2020-02-09T12:24:26Z</time>
      </trkpt>
      <trkpt lat="46.307789124548435" lon="8.241121899336577">
        <ele>2003.75</ele>
        <time>2020-02-09T12:24:28Z</time>
      </trkpt>
      <trkpt lat="46.307773450389504" lon="8.241141512989998">
        <ele>2007.2</ele>
        <time>2020-02-09T12:24:40Z</time>
      </trkpt>
      <trkpt lat="46.307771103456616" lon="8.241144027560949">
        <ele>1997.48</ele>
        <time>2020-02-09T12:24:41Z</time>
      </trkpt>
      <trkpt lat="46.307769007980824" lon="8.241146458312869">
        <ele>2001.1099999999999</ele>
        <time>2020-02-09T12:24:42Z</time>
      </trkpt>
      <trkpt lat="46.307768505066633" lon="8.241154672577977">
        <ele>2004.8699999999999</ele>
        <time>2020-02-09T12:24:44Z</time>
      </trkpt>
      <trkpt lat="46.307764900848269" lon="8.241164311766625">
        <ele>2005.71</ele>
        <time>2020-02-09T12:24:46Z</time>
      </trkpt>
      <trkpt lat="46.307759452611208" lon="8.241184093058109">
        <ele>2000.8399999999999</ele>
        <time>2020-02-09T12:24:59Z</time>
      </trkpt>
      <trkpt lat="46.307759955525398" lon="8.241185015067458">
        <ele>2002.78</ele>
        <time>2020-02-09T12:25:00Z</time>
      </trkpt>
      <trkpt lat="46.307762889191508" lon="8.241186104714871">
        <ele>2004.0999999999999</ele>
        <time>2020-02-09T12:25:02Z</time>
      </trkpt>
      <trkpt lat="46.307773785665631" lon="8.241188703104854">
        <ele>2005.6099999999999</ele>
        <time>2020-02-09T12:25:13Z</time>
      </trkpt>
      <trkpt lat="46.30777764134109" lon="8.2411880325526">
        <ele>1997.1400000000001</ele>
        <time>2020-02-09T12:25:17Z</time>
      </trkpt>
      <trkpt lat="46.307777389883995" lon="8.241191301494837">
        <ele>2000.4300000000001</ele>
        <time>2020-02-09T12:25:18Z</time>
      </trkpt>
      <trkpt lat="46.307774120941758" lon="8.2411914691329">
        <ele>2003.6800000000001</ele>
        <time>2020-02-09T12:25:20Z</time>
      </trkpt>
      <trkpt lat="46.30777470767498" lon="8.241194151341915">
        <ele>2003.8699999999999</ele>
        <time>2020-02-09T12:25:21Z</time>
      </trkpt>
      <trkpt lat="46.3077771384269" lon="8.241199012845755">
        <ele>1997.5</ele>
        <time>2020-02-09T12:25:26Z</time>
      </trkpt>
      <trkpt lat="46.307773031294346" lon="8.241211418062449">
        <ele>1983.8299999999999</ele>
        <time>2020-02-09T12:25:27Z</time>
      </trkpt>
      <trkpt lat="46.307772360742092" lon="8.241207478567958">
        <ele>2024.74</ele>
        <time>2020-02-09T12:25:28Z</time>
      </trkpt>
      <trkpt lat="46.307770181447268" lon="8.241208149120212">
        <ele>2019.8900000000001</ele>
        <time>2020-02-09T12:25:29Z</time>
      </trkpt>
      <trkpt lat="46.307772025465965" lon="8.241205969825387">
        <ele>2008.1400000000001</ele>
        <time>2020-02-09T12:25:30Z</time>
      </trkpt>
      <trkpt lat="46.30777177400887" lon="8.241206305101514">
        <ele>2002.3</ele>
        <time>2020-02-09T12:25:31Z</time>
      </trkpt>
      <trkpt lat="46.307776970788836" lon="8.241201192140579">
        <ele>1992.05</ele>
        <time>2020-02-09T12:25:32Z</time>
      </trkpt>
      <trkpt lat="46.307781077921391" lon="8.241196665912867">
        <ele>1992.8</ele>
        <time>2020-02-09T12:25:33Z</time>
      </trkpt>
      <trkpt lat="46.307782921940088" lon="8.241194151341915">
        <ele>2021.8800000000001</ele>
        <time>2020-02-09T12:25:34Z</time>
      </trkpt>
      <trkpt lat="46.307783760130405" lon="8.241194151341915">
        <ele>2012.0699999999999</ele>
        <time>2020-02-09T12:25:35Z</time>
      </trkpt>
      <trkpt lat="46.307784598320723" lon="8.241189960390329">
        <ele>2007.3599999999999</ele>
        <time>2020-02-09T12:25:36Z</time>
      </trkpt>
      <trkpt lat="46.307783592492342" lon="8.241190798580647">
        <ele>2003.0699999999999</ele>
        <time>2020-02-09T12:25:40Z</time>
      </trkpt>
      <trkpt lat="46.307785268872976" lon="8.241181494668126">
        <ele>2004.74</ele>
        <time>2020-02-09T12:25:50Z</time>
      </trkpt>
      <trkpt lat="46.307793650776148" lon="8.24116020463407">
        <ele>2011.5999999999999</ele>
        <time>2020-02-09T12:26:17Z</time>
      </trkpt>
      <trkpt lat="46.307792980223894" lon="8.241160791367292">
        <ele>2009.1500000000001</ele>
        <time>2020-02-09T12:26:18Z</time>
      </trkpt>
      <trkpt lat="46.307789124548435" lon="8.241162467747927">
        <ele>2004.51</ele>
        <time>2020-02-09T12:26:21Z</time>
      </trkpt>
      <trkpt lat="46.30778837017715" lon="8.241163222119212">
        <ele>2004.5699999999999</ele>
        <time>2020-02-09T12:26:22Z</time>
      </trkpt>
      <trkpt lat="46.307778730988503" lon="8.241172777488828">
        <ele>2000.55</ele>
        <time>2020-02-09T12:26:29Z</time>
      </trkpt>
      <trkpt lat="46.30777764134109" lon="8.241172442212701">
        <ele>2003.5599999999999</ele>
        <time>2020-02-09T12:26:30Z</time>
      </trkpt>
      <trkpt lat="46.307778982445598" lon="8.241172526031733">
        <ele>2004.8499999999999</ele>
        <time>2020-02-09T12:26:33Z</time>
      </trkpt>
      <trkpt lat="46.307787783443928" lon="8.241170011460781">
        <ele>2009.6199999999999</ele>
        <time>2020-02-09T12:26:50Z</time>
      </trkpt>
      <trkpt lat="46.307788621634245" lon="8.241171520203352">
        <ele>2004.9400000000001</ele>
        <time>2020-02-09T12:26:52Z</time>
      </trkpt>
      <trkpt lat="46.307789040729403" lon="8.241171352565289">
        <ele>2001.6700000000001</ele>
        <time>2020-02-09T12:26:53Z</time>
      </trkpt>
      <trkpt lat="46.307790549471974" lon="8.241177052259445">
        <ele>2004.6800000000001</ele>
        <time>2020-02-09T12:26:57Z</time>
      </trkpt>
      <trkpt lat="46.307789711281657" lon="8.241169927641749">
        <ele>2004.79</ele>
        <time>2020-02-09T12:27:21Z</time>
      </trkpt>
      <trkpt lat="46.307790717110038" lon="8.24117437005043">
        <ele>1995.8800000000001</ele>
        <time>2020-02-09T12:27:33Z</time>
      </trkpt>
      <trkpt lat="46.307791722938418" lon="8.241174202412367">
        <ele>2002.96</ele>
        <time>2020-02-09T12:27:34Z</time>
      </trkpt>
      <trkpt lat="46.307790465652943" lon="8.241176130250096">
        <ele>2006.77</ele>
        <time>2020-02-09T12:27:37Z</time>
      </trkpt>
      <trkpt lat="46.307787531986833" lon="8.241182835772634">
        <ele>2004.8</ele>
        <time>2020-02-09T12:27:40Z</time>
      </trkpt>
      <trkpt lat="46.30778937600553" lon="8.241166239604354">
        <ele>2005</ele>
        <time>2020-02-09T12:28:05Z</time>
      </trkpt>
      <trkpt lat="46.307771941646934" lon="8.241213597357273">
        <ele>2003.72</ele>
        <time>2020-02-09T12:28:31Z</time>
      </trkpt>
      <trkpt lat="46.307787615805864" lon="8.241201527416706">
        <ele>2008.4200000000001</ele>
        <time>2020-02-09T12:28:50Z</time>
      </trkpt>
      <trkpt lat="46.307785352692008" lon="8.241203119978309">
        <ele>2012.3800000000001</ele>
        <time>2020-02-09T12:28:51Z</time>
      </trkpt>
      <trkpt lat="46.307785771787167" lon="8.241202365607023">
        <ele>2010.25</ele>
        <time>2020-02-09T12:28:52Z</time>
      </trkpt>
      <trkpt lat="46.30778644233942" lon="8.241202617064118">
        <ele>2002.53</ele>
        <time>2020-02-09T12:28:53Z</time>
      </trkpt>
      <trkpt lat="46.307788956910372" lon="8.241201778873801">
        <ele>1980.3499999999999</ele>
        <time>2020-02-09T12:28:54Z</time>
      </trkpt>
      <trkpt lat="46.307791974395514" lon="8.24119876138866">
        <ele>2009.6800000000001</ele>
        <time>2020-02-09T12:28:55Z</time>
      </trkpt>
      <trkpt lat="46.30779524333775" lon="8.24119733646512">
        <ele>2009.4200000000001</ele>
        <time>2020-02-09T12:28:56Z</time>
      </trkpt>
      <trkpt lat="46.307782083749771" lon="8.241208903491497">
        <ele>2016.1900000000001</ele>
        <time>2020-02-09T12:28:58Z</time>
      </trkpt>
      <trkpt lat="46.307783760130405" lon="8.241207394748926">
        <ele>2002.4400000000001</ele>
        <time>2020-02-09T12:28:59Z</time>
      </trkpt>
      <trkpt lat="46.307788537815213" lon="8.241208652034402">
        <ele>2001.1900000000001</ele>
        <time>2020-02-09T12:29:01Z</time>
      </trkpt>
      <trkpt lat="46.307791890576482" lon="8.241208735853434">
        <ele>2004.2</ele>
        <time>2020-02-09T12:29:03Z</time>
      </trkpt>
      <trkpt lat="46.307799350470304" lon="8.241210579872131">
        <ele>2004.9100000000001</ele>
        <time>2020-02-09T12:29:05Z</time>
      </trkpt>
      <trkpt lat="46.307828854769468" lon="8.241183506324887">
        <ele>2009.9400000000001</ele>
        <time>2020-02-09T12:29:19Z</time>
      </trkpt>
      <trkpt lat="46.307831788435578" lon="8.24117973446846">
        <ele>2005.6800000000001</ele>
        <time>2020-02-09T12:29:20Z</time>
      </trkpt>
      <trkpt lat="46.307828351855278" lon="8.241160539910197">
        <ele>2013.78</ele>
        <time>2020-02-09T12:29:38Z</time>
      </trkpt>
      <trkpt lat="46.307827681303024" lon="8.241161294281483">
        <ele>2007.27</ele>
        <time>2020-02-09T12:29:39Z</time>
      </trkpt>
      <trkpt lat="46.30782843567431" lon="8.241162803024054">
        <ele>2000.3099999999999</ele>
        <time>2020-02-09T12:29:40Z</time>
      </trkpt>
      <trkpt lat="46.307828351855278" lon="8.241165904328227">
        <ele>2003.8199999999999</ele>
        <time>2020-02-09T12:29:43Z</time>
      </trkpt>
      <trkpt lat="46.307803960517049" lon="8.241175459697843">
        <ele>2009.3599999999999</ele>
        <time>2020-02-09T12:30:03Z</time>
      </trkpt>
      <trkpt lat="46.307802954688668" lon="8.241175040602684">
        <ele>2008.77</ele>
        <time>2020-02-09T12:30:04Z</time>
      </trkpt>
      <trkpt lat="46.307803960517049" lon="8.241173028945923">
        <ele>2004.3499999999999</ele>
        <time>2020-02-09T12:30:05Z</time>
      </trkpt>
      <trkpt lat="46.307801278308034" lon="8.241171352565289">
        <ele>2000.5599999999999</ele>
        <time>2020-02-09T12:30:10Z</time>
      </trkpt>
      <trkpt lat="46.307800272479653" lon="8.241172861307859">
        <ele>2000.3599999999999</ele>
        <time>2020-02-09T12:30:11Z</time>
      </trkpt>
      <trkpt lat="46.307801781222224" lon="8.241171184927225">
        <ele>2003.5799999999999</ele>
        <time>2020-02-09T12:30:13Z</time>
      </trkpt>
      <trkpt lat="46.307794069871306" lon="8.241157522425056">
        <ele>2005.0799999999999</ele>
        <time>2020-02-09T12:30:41Z</time>
      </trkpt>
      <trkpt lat="46.307792812585831" lon="8.241159617900848">
        <ele>2009.03</ele>
        <time>2020-02-09T12:30:44Z</time>
      </trkpt>
      <trkpt lat="46.307791639119387" lon="8.241159785538912">
        <ele>2020.1300000000001</ele>
        <time>2020-02-09T12:30:45Z</time>
      </trkpt>
      <trkpt lat="46.307793483138084" lon="8.241160372272134">
        <ele>2005.45</ele>
        <time>2020-02-09T12:30:46Z</time>
      </trkpt>
      <trkpt lat="46.307795327156782" lon="8.241160456091166">
        <ele>1999.79</ele>
        <time>2020-02-09T12:30:47Z</time>
      </trkpt>
      <trkpt lat="46.307798679918051" lon="8.241157773882151">
        <ele>1996.24</ele>
        <time>2020-02-09T12:30:49Z</time>
      </trkpt>
      <trkpt lat="46.307800859212875" lon="8.241155510768294">
        <ele>2002.01</ele>
        <time>2020-02-09T12:30:50Z</time>
      </trkpt>
      <trkpt lat="46.307801781222224" lon="8.241155175492168">
        <ele>2000.8399999999999</ele>
        <time>2020-02-09T12:30:51Z</time>
      </trkpt>
      <trkpt lat="46.307814605534077" lon="8.241165401414037">
        <ele>2011.3900000000001</ele>
        <time>2020-02-09T12:30:57Z</time>
      </trkpt>
      <trkpt lat="46.307809324935079" lon="8.241167664527893">
        <ele>2004.21</ele>
        <time>2020-02-09T12:30:59Z</time>
      </trkpt>
      <trkpt lat="46.307809744030237" lon="8.241167664527893">
        <ele>2005.03</ele>
        <time>2020-02-09T12:31:00Z</time>
      </trkpt>
      <trkpt lat="46.307797254994512" lon="8.241173196583986">
        <ele>2033.8900000000001</ele>
        <time>2020-02-09T12:31:09Z</time>
      </trkpt>
      <trkpt lat="46.307787615805864" lon="8.241181159391999">
        <ele>2020.8599999999999</ele>
        <time>2020-02-09T12:31:10Z</time>
      </trkpt>
      <trkpt lat="46.307785604149103" lon="8.241183757781982">
        <ele>2009.29</ele>
        <time>2020-02-09T12:31:11Z</time>
      </trkpt>
      <trkpt lat="46.307779150083661" lon="8.241188870742917">
        <ele>2005.8199999999999</ele>
        <time>2020-02-09T12:31:14Z</time>
      </trkpt>
      <trkpt lat="46.307769427075982" lon="8.241196917369962">
        <ele>1993.3599999999999</ele>
        <time>2020-02-09T12:31:22Z</time>
      </trkpt>
      <trkpt lat="46.307769594714046" lon="8.241197923198342">
        <ele>1983.0599999999999</ele>
        <time>2020-02-09T12:31:23Z</time>
      </trkpt>
      <trkpt lat="46.307772025465965" lon="8.24119633063674">
        <ele>1992.3699999999999</ele>
        <time>2020-02-09T12:31:24Z</time>
      </trkpt>
      <trkpt lat="46.307773031294346" lon="8.241195743903518">
        <ele>1999.8699999999999</ele>
        <time>2020-02-09T12:31:25Z</time>
      </trkpt>
      <trkpt lat="46.307773785665631" lon="8.241198845207691">
        <ele>1998.96</ele>
        <time>2020-02-09T12:31:26Z</time>
      </trkpt>
      <trkpt lat="46.30777470767498" lon="8.241197755560279">
        <ele>2004.8800000000001</ele>
        <time>2020-02-09T12:31:27Z</time>
      </trkpt>
      <trkpt lat="46.307773450389504" lon="8.241197671741247">
        <ele>2028.98</ele>
        <time>2020-02-09T12:31:28Z</time>
      </trkpt>
      <trkpt lat="46.307772947475314" lon="8.241197587922216">
        <ele>1999.1500000000001</ele>
        <time>2020-02-09T12:31:29Z</time>
      </trkpt>
      <trkpt lat="46.307774791494012" lon="8.241193732246757">
        <ele>2018.05</ele>
        <time>2020-02-09T12:31:30Z</time>
      </trkpt>
      <trkpt lat="46.307771857827902" lon="8.241197587922216">
        <ele>1997.23</ele>
        <time>2020-02-09T12:31:31Z</time>
      </trkpt>
      <trkpt lat="46.307771606370807" lon="8.241197755560279">
        <ele>2015.25</ele>
        <time>2020-02-09T12:31:32Z</time>
      </trkpt>
      <trkpt lat="46.307768924161792" lon="8.241198677569628">
        <ele>2004.1099999999999</ele>
        <time>2020-02-09T12:31:33Z</time>
      </trkpt>
      <trkpt lat="46.307771941646934" lon="8.241199934855104">
        <ele>1991.6800000000001</ele>
        <time>2020-02-09T12:31:35Z</time>
      </trkpt>
      <trkpt lat="46.307773366570473" lon="8.241200186312199">
        <ele>2009.5799999999999</ele>
        <time>2020-02-09T12:31:36Z</time>
      </trkpt>
      <trkpt lat="46.307770265266299" lon="8.241202365607023">
        <ele>2023.3099999999999</ele>
        <time>2020-02-09T12:31:37Z</time>
      </trkpt>
      <trkpt lat="46.307774540036917" lon="8.241200605407357">
        <ele>2008.95</ele>
        <time>2020-02-09T12:31:38Z</time>
      </trkpt>
      <trkpt lat="46.307777473703027" lon="8.241196917369962">
        <ele>1982.71</ele>
        <time>2020-02-09T12:31:39Z</time>
      </trkpt>
      <trkpt lat="46.307780994102359" lon="8.24119440279901">
        <ele>1996.7</ele>
        <time>2020-02-09T12:31:40Z</time>
      </trkpt>
      <trkpt lat="46.307783341035247" lon="8.241192055866122">
        <ele>2006.48</ele>
        <time>2020-02-09T12:31:41Z</time>
      </trkpt>
      <trkpt lat="46.307783089578152" lon="8.241192726418376">
        <ele>2006.49</ele>
        <time>2020-02-09T12:31:42Z</time>
      </trkpt>
      <trkpt lat="46.30778300575912" lon="8.241193816065788">
        <ele>2026.6400000000001</ele>
        <time>2020-02-09T12:31:43Z</time>
      </trkpt>
      <trkpt lat="46.307782670482993" lon="8.241195240989327">
        <ele>2018.98</ele>
        <time>2020-02-09T12:31:44Z</time>
      </trkpt>
      <trkpt lat="46.307783676311374" lon="8.241195240989327">
        <ele>2011.48</ele>
        <time>2020-02-09T12:31:45Z</time>
      </trkpt>
      <trkpt lat="46.307785352692008" lon="8.241194235160947">
        <ele>2008.1900000000001</ele>
        <time>2020-02-09T12:31:46Z</time>
      </trkpt>
      <trkpt lat="46.307808151468635" lon="8.241190295666456">
        <ele>2002.9000000000001</ele>
        <time>2020-02-09T12:32:13Z</time>
      </trkpt>
      <trkpt lat="46.30780840292573" lon="8.241191133856773">
        <ele>2002.8900000000001</ele>
        <time>2020-02-09T12:32:14Z</time>
      </trkpt>
      <trkpt lat="46.307813515886664" lon="8.241190379485488">
        <ele>2004.8900000000001</ele>
        <time>2020-02-09T12:32:17Z</time>
      </trkpt>
      <trkpt lat="46.307809827849269" lon="8.241194235160947">
        <ele>2013.5599999999999</ele>
        <time>2020-02-09T12:32:20Z</time>
      </trkpt>
      <trkpt lat="46.307809576392174" lon="8.241193816065788">
        <ele>2005.75</ele>
        <time>2020-02-09T12:32:21Z</time>
      </trkpt>
      <trkpt lat="46.307782838121057" lon="8.241196079179645">
        <ele>2005.4300000000001</ele>
        <time>2020-02-09T12:32:46Z</time>
      </trkpt>
      <trkpt lat="46.307782838121057" lon="8.241189792752266">
        <ele>2001.1500000000001</ele>
        <time>2020-02-09T12:32:53Z</time>
      </trkpt>
      <trkpt lat="46.307785185053945" lon="8.241188703104854">
        <ele>1986.6500000000001</ele>
        <time>2020-02-09T12:32:54Z</time>
      </trkpt>
      <trkpt lat="46.307786861434579" lon="8.24118853546679">
        <ele>1992.8299999999999</ele>
        <time>2020-02-09T12:32:55Z</time>
      </trkpt>
      <trkpt lat="46.307782670482993" lon="8.241190295666456">
        <ele>2000.3099999999999</ele>
        <time>2020-02-09T12:32:56Z</time>
      </trkpt>
      <trkpt lat="46.307780742645264" lon="8.241193732246757">
        <ele>2003.9400000000001</ele>
        <time>2020-02-09T12:32:57Z</time>
      </trkpt>
      <trkpt lat="46.307777892798185" lon="8.24119389988482">
        <ele>2026.45</ele>
        <time>2020-02-09T12:32:59Z</time>
      </trkpt>
      <trkpt lat="46.307777808979154" lon="8.241193229332566">
        <ele>2015.1400000000001</ele>
        <time>2020-02-09T12:33:00Z</time>
      </trkpt>
      <trkpt lat="46.307779066264629" lon="8.241194654256105">
        <ele>2008.3</ele>
        <time>2020-02-09T12:33:01Z</time>
      </trkpt>
      <trkpt lat="46.307784514501691" lon="8.241194067522883">
        <ele>2003.01</ele>
        <time>2020-02-09T12:33:04Z</time>
      </trkpt>
      <trkpt lat="46.307784011587501" lon="8.241196917369962">
        <ele>1999.3499999999999</ele>
        <time>2020-02-09T12:33:05Z</time>
      </trkpt>
      <trkpt lat="46.307789795100689" lon="8.241199599578977">
        <ele>2003.0999999999999</ele>
        <time>2020-02-09T12:33:09Z</time>
      </trkpt>
      <trkpt lat="46.307798679918051" lon="8.241193816065788">
        <ele>2004.55</ele>
        <time>2020-02-09T12:33:11Z</time>
      </trkpt>
      <trkpt lat="46.307799015194178" lon="8.241191552951932">
        <ele>2011.5799999999999</ele>
        <time>2020-02-09T12:33:30Z</time>
      </trkpt>
      <trkpt lat="46.307796500623226" lon="8.241191552951932">
        <ele>2006.49</ele>
        <time>2020-02-09T12:33:31Z</time>
      </trkpt>
      <trkpt lat="46.307791220024228" lon="8.241195073351264">
        <ele>2005.72</ele>
        <time>2020-02-09T12:33:33Z</time>
      </trkpt>
      <trkpt lat="46.307773618027568" lon="8.241216447204351">
        <ele>2030.8800000000001</ele>
        <time>2020-02-09T12:33:53Z</time>
      </trkpt>
      <trkpt lat="46.307768756523728" lon="8.241220638155937">
        <ele>2028.6300000000001</ele>
        <time>2020-02-09T12:33:54Z</time>
      </trkpt>
      <trkpt lat="46.307765822857618" lon="8.241222901269794">
        <ele>2007.26</ele>
        <time>2020-02-09T12:33:55Z</time>
      </trkpt>
      <trkpt lat="46.307765822857618" lon="8.24122516438365">
        <ele>2006.02</ele>
        <time>2020-02-09T12:33:57Z</time>
      </trkpt>
      <trkpt lat="46.307764481753111" lon="8.241232708096504">
        <ele>2006.5699999999999</ele>
        <time>2020-02-09T12:34:18Z</time>
      </trkpt>
      <trkpt lat="46.307748975232244" lon="8.24124033562839">
        <ele>2012.9000000000001</ele>
        <time>2020-02-09T12:34:27Z</time>
      </trkpt>
      <trkpt lat="46.307746209204197" lon="8.241241257637739">
        <ele>2009.77</ele>
        <time>2020-02-09T12:34:28Z</time>
      </trkpt>
      <trkpt lat="46.307744197547436" lon="8.241243772208691">
        <ele>2006.5</ele>
        <time>2020-02-09T12:34:29Z</time>
      </trkpt>
      <trkpt lat="46.307742772623897" lon="8.241241173818708">
        <ele>2005.3499999999999</ele>
        <time>2020-02-09T12:34:31Z</time>
      </trkpt>
      <trkpt lat="46.307738414034247" lon="8.241243185475469">
        <ele>2000.5899999999999</ele>
        <time>2020-02-09T12:34:37Z</time>
      </trkpt>
      <trkpt lat="46.307738246396184" lon="8.241242347285152">
        <ele>2005.4400000000001</ele>
        <time>2020-02-09T12:34:38Z</time>
      </trkpt>
      <trkpt lat="46.307741263881326" lon="8.241216195747256">
        <ele>2009.05</ele>
        <time>2020-02-09T12:34:56Z</time>
      </trkpt>
      <trkpt lat="46.307744784280658" lon="8.24121443554759">
        <ele>2003.1500000000001</ele>
        <time>2020-02-09T12:34:59Z</time>
      </trkpt>
      <trkpt lat="46.30774587392807" lon="8.241211082786322">
        <ele>2003.74</ele>
        <time>2020-02-09T12:35:00Z</time>
      </trkpt>
      <trkpt lat="46.307747634127736" lon="8.241204544901848">
        <ele>2006.46</ele>
        <time>2020-02-09T12:35:03Z</time>
      </trkpt>
      <trkpt lat="46.307747550308704" lon="8.241195827722549">
        <ele>1996.3399999999999</ele>
        <time>2020-02-09T12:35:18Z</time>
      </trkpt>
      <trkpt lat="46.307748053222895" lon="8.241196498274803">
        <ele>1999.99</ele>
        <time>2020-02-09T12:35:19Z</time>
      </trkpt>
      <trkpt lat="46.307748723775148" lon="8.241197839379311">
        <ele>2003.8499999999999</ele>
        <time>2020-02-09T12:35:20Z</time>
      </trkpt>
      <trkpt lat="46.307748556137085" lon="8.241198342293501">
        <ele>2014.4100000000001</ele>
        <time>2020-02-09T12:35:21Z</time>
      </trkpt>
      <trkpt lat="46.307749561965466" lon="8.241197587922216">
        <ele>2012.21</ele>
        <time>2020-02-09T12:35:22Z</time>
      </trkpt>
      <trkpt lat="46.307748472318053" lon="8.241198426112533">
        <ele>2008.46</ele>
        <time>2020-02-09T12:35:23Z</time>
      </trkpt>
      <trkpt lat="46.307747215032578" lon="8.241200773045421">
        <ele>2006.78</ele>
        <time>2020-02-09T12:35:25Z</time>
      </trkpt>
      <trkpt lat="46.3077512383461" lon="8.241190547123551">
        <ele>2000.01</ele>
        <time>2020-02-09T12:35:44Z</time>
      </trkpt>
      <trkpt lat="46.307752998545766" lon="8.24118853546679">
        <ele>2005.6199999999999</ele>
        <time>2020-02-09T12:35:45Z</time>
      </trkpt>
      <trkpt lat="46.307755596935749" lon="8.241189206019044">
        <ele>1995.47</ele>
        <time>2020-02-09T12:35:47Z</time>
      </trkpt>
      <trkpt lat="46.30775710567832" lon="8.241188703104854">
        <ele>2002.9000000000001</ele>
        <time>2020-02-09T12:35:48Z</time>
      </trkpt>
      <trkpt lat="46.307753333821893" lon="8.241189038380981">
        <ele>2008.9300000000001</ele>
        <time>2020-02-09T12:35:49Z</time>
      </trkpt>
      <trkpt lat="46.307753333821893" lon="8.24118853546679">
        <ele>1989.3599999999999</ele>
        <time>2020-02-09T12:35:50Z</time>
      </trkpt>
      <trkpt lat="46.307753501459956" lon="8.241188870742917">
        <ele>1992.1700000000001</ele>
        <time>2020-02-09T12:35:51Z</time>
      </trkpt>
      <trkpt lat="46.307753417640924" lon="8.241187026724219">
        <ele>1997.9300000000001</ele>
        <time>2020-02-09T12:35:53Z</time>
      </trkpt>
      <trkpt lat="46.307753501459956" lon="8.241187864914537">
        <ele>2011.53</ele>
        <time>2020-02-09T12:35:55Z</time>
      </trkpt>
      <trkpt lat="46.307754507288337" lon="8.241186523810029">
        <ele>2016.1099999999999</ele>
        <time>2020-02-09T12:35:56Z</time>
      </trkpt>
      <trkpt lat="46.307754842564464" lon="8.241187110543251">
        <ele>2021.1500000000001</ele>
        <time>2020-02-09T12:35:57Z</time>
      </trkpt>
      <trkpt lat="46.307754926383495" lon="8.24118560180068">
        <ele>2008.1500000000001</ele>
        <time>2020-02-09T12:35:58Z</time>
      </trkpt>
      <trkpt lat="46.307758865877986" lon="8.24118560180068">
        <ele>1999.5899999999999</ele>
        <time>2020-02-09T12:35:59Z</time>
      </trkpt>
      <trkpt lat="46.307762051001191" lon="8.241180572658777">
        <ele>2041.23</ele>
        <time>2020-02-09T12:36:00Z</time>
      </trkpt>
      <trkpt lat="46.307763727381825" lon="8.24117680080235">
        <ele>2031.95</ele>
        <time>2020-02-09T12:36:01Z</time>
      </trkpt>
      <trkpt lat="46.307764817029238" lon="8.241172358393669">
        <ele>2017.8800000000001</ele>
        <time>2020-02-09T12:36:02Z</time>
      </trkpt>
      <trkpt lat="46.307765990495682" lon="8.241167832165957">
        <ele>2012.6099999999999</ele>
        <time>2020-02-09T12:36:03Z</time>
      </trkpt>
      <trkpt lat="46.307766158133745" lon="8.241164479404688">
        <ele>2008.3299999999999</ele>
        <time>2020-02-09T12:36:05Z</time>
      </trkpt>
      <trkpt lat="46.307767415419221" lon="8.24115676805377">
        <ele>2006.3800000000001</ele>
        <time>2020-02-09T12:36:07Z</time>
      </trkpt>
      <trkpt lat="46.307750819250941" lon="8.241149978712201">
        <ele>2006.05</ele>
        <time>2020-02-09T12:36:35Z</time>
      </trkpt>
      <trkpt lat="46.307767750695348" lon="8.241172106936574">
        <ele>2005.75</ele>
        <time>2020-02-09T12:37:34Z</time>
      </trkpt>
      <trkpt lat="46.307781748473644" lon="8.241160707548261">
        <ele>2005.8099999999999</ele>
        <time>2020-02-09T12:38:28Z</time>
      </trkpt>
      <trkpt lat="46.307783843949437" lon="8.241173028945923">
        <ele>2006.0599999999999</ele>
        <time>2020-02-09T12:38:40Z</time>
      </trkpt>
      <trkpt lat="46.30778543651104" lon="8.241184679791331">
        <ele>2006.8699999999999</ele>
        <time>2020-02-09T12:39:34Z</time>
      </trkpt>
      <trkpt lat="46.307781497016549" lon="8.241184428334236">
        <ele>2006.77</ele>
        <time>2020-02-09T12:40:43Z</time>
      </trkpt>
      <trkpt lat="46.3077737018466" lon="8.241198929026723">
        <ele>2006.8299999999999</ele>
        <time>2020-02-09T12:42:00Z</time>
      </trkpt>
      <trkpt lat="46.307777892798185" lon="8.241169089451432">
        <ele>2007.1199999999999</ele>
        <time>2020-02-09T12:43:14Z</time>
      </trkpt>
      <trkpt lat="46.307766744866967" lon="8.241185350343585">
        <ele>2006.6099999999999</ele>
        <time>2020-02-09T12:44:34Z</time>
      </trkpt>
      <trkpt lat="46.307786693796515" lon="8.241208735853434">
        <ele>2006.96</ele>
        <time>2020-02-09T12:45:49Z</time>
      </trkpt>
      <trkpt lat="46.307781413197517" lon="8.241198593750596">
        <ele>2007.97</ele>
        <time>2020-02-09T12:46:00Z</time>
      </trkpt>
      <trkpt lat="46.30777764134109" lon="8.241176716983318">
        <ele>2008.02</ele>
        <time>2020-02-09T12:46:15Z</time>
      </trkpt>
      <trkpt lat="46.307766744866967" lon="8.241170095279813">
        <ele>2007.71</ele>
        <time>2020-02-09T12:46:30Z</time>
      </trkpt>
      <trkpt lat="46.307762302458286" lon="8.241180405020714">
        <ele>2007.6600000000001</ele>
        <time>2020-02-09T12:46:56Z</time>
      </trkpt>
      <trkpt lat="46.307761799544096" lon="8.241175292059779">
        <ele>2007.6099999999999</ele>
        <time>2020-02-09T12:47:17Z</time>
      </trkpt>
      <trkpt lat="46.307764900848269" lon="8.241174956783652">
        <ele>2007.6500000000001</ele>
        <time>2020-02-09T12:47:43Z</time>
      </trkpt>
      <trkpt lat="46.307762637734413" lon="8.241175040602684">
        <ele>2008.5</ele>
        <time>2020-02-09T12:48:01Z</time>
      </trkpt>
      <trkpt lat="46.307761967182159" lon="8.241175040602684">
        <ele>2007.46</ele>
        <time>2020-02-09T12:48:03Z</time>
      </trkpt>
      <trkpt lat="46.307763643562794" lon="8.241168083623052">
        <ele>2007.5899999999999</ele>
        <time>2020-02-09T12:48:18Z</time>
      </trkpt>
      <trkpt lat="46.307755094021559" lon="8.241169424727559">
        <ele>2007.52</ele>
        <time>2020-02-09T12:48:37Z</time>
      </trkpt>
      <trkpt lat="46.307754591107368" lon="8.241173699498177">
        <ele>2008.24</ele>
        <time>2020-02-09T12:49:01Z</time>
      </trkpt>
      <trkpt lat="46.307758111506701" lon="8.241172358393669">
        <ele>2008.3499999999999</ele>
        <time>2020-02-09T12:49:21Z</time>
      </trkpt>
      <trkpt lat="46.30776297301054" lon="8.24117730371654">
        <ele>2008.21</ele>
        <time>2020-02-09T12:49:40Z</time>
      </trkpt>
      <trkpt lat="46.307761464267969" lon="8.241174286231399">
        <ele>2008.3399999999999</ele>
        <time>2020-02-09T12:49:56Z</time>
      </trkpt>
      <trkpt lat="46.307762637734413" lon="8.241175124421716">
        <ele>2008.1400000000001</ele>
        <time>2020-02-09T12:50:19Z</time>
      </trkpt>
      <trkpt lat="46.307767080143094" lon="8.241175375878811">
        <ele>2007.8900000000001</ele>
        <time>2020-02-09T12:50:38Z</time>
      </trkpt>
      <trkpt lat="46.307764314115047" lon="8.241176884621382">
        <ele>2007.6600000000001</ele>
        <time>2020-02-09T12:50:59Z</time>
      </trkpt>
      <trkpt lat="46.307760626077652" lon="8.24117386713624">
        <ele>2008.4100000000001</ele>
        <time>2020-02-09T12:51:21Z</time>
      </trkpt>
      <trkpt lat="46.307782419025898" lon="8.241228768602014">
        <ele>2008.05</ele>
        <time>2020-02-09T12:51:41Z</time>
      </trkpt>
      <trkpt lat="46.307816784828901" lon="8.2413624599576">
        <ele>2007.3599999999999</ele>
        <time>2020-02-09T12:51:54Z</time>
      </trkpt>
      <trkpt lat="46.307830028235912" lon="8.241496486589313">
        <ele>2006.3199999999999</ele>
        <time>2020-02-09T12:52:05Z</time>
      </trkpt>
      <trkpt lat="46.307827094569802" lon="8.24169815517962">
        <ele>2004.47</ele>
        <time>2020-02-09T12:52:19Z</time>
      </trkpt>
      <trkpt lat="46.307828351855278" lon="8.24186772108078">
        <ele>2003.9400000000001</ele>
        <time>2020-02-09T12:52:32Z</time>
      </trkpt>
      <trkpt lat="46.307831956073642" lon="8.242006106302142">
        <ele>2002.5699999999999</ele>
        <time>2020-02-09T12:52:45Z</time>
      </trkpt>
      <trkpt lat="46.307854000478983" lon="8.242061929777265">
        <ele>2000.0699999999999</ele>
        <time>2020-02-09T12:52:56Z</time>
      </trkpt>
      <trkpt lat="46.307864226400852" lon="8.242139043286443">
        <ele>1998.3199999999999</ele>
        <time>2020-02-09T12:53:07Z</time>
      </trkpt>
      <trkpt lat="46.307890545576811" lon="8.242158070206642">
        <ele>1996.29</ele>
        <time>2020-02-09T12:53:13Z</time>
      </trkpt>
      <trkpt lat="46.307930443435907" lon="8.242212133482099">
        <ele>1993.4300000000001</ele>
        <time>2020-02-09T12:53:25Z</time>
      </trkpt>
      <trkpt lat="46.307966317981482" lon="8.242202578112483">
        <ele>1990.8900000000001</ele>
        <time>2020-02-09T12:53:37Z</time>
      </trkpt>
      <trkpt lat="46.308009484782815" lon="8.242189921438694">
        <ele>1989.4400000000001</ele>
        <time>2020-02-09T12:53:52Z</time>
      </trkpt>
      <trkpt lat="46.308022979646921" lon="8.242252450436354">
        <ele>1987.4000000000001</ele>
        <time>2020-02-09T12:54:03Z</time>
      </trkpt>
      <trkpt lat="46.308014094829559" lon="8.242268627509475">
        <ele>1987.5899999999999</ele>
        <time>2020-02-09T12:54:21Z</time>
      </trkpt>
      <trkpt lat="46.308012837544084" lon="8.24228011071682">
        <ele>1987.51</ele>
        <time>2020-02-09T12:54:47Z</time>
      </trkpt>
      <trkpt lat="46.30801216699183" lon="8.242278099060059">
        <ele>1982.99</ele>
        <time>2020-02-09T12:54:53Z</time>
      </trkpt>
      <trkpt lat="46.308011999353766" lon="8.242277931421995">
        <ele>1987.75</ele>
        <time>2020-02-09T12:54:54Z</time>
      </trkpt>
      <trkpt lat="46.30800437182188" lon="8.242262341082096">
        <ele>1987.3900000000001</ele>
        <time>2020-02-09T12:55:24Z</time>
      </trkpt>
      <trkpt lat="46.307998839765787" lon="8.242263598367572">
        <ele>1987.4100000000001</ele>
        <time>2020-02-09T12:55:44Z</time>
      </trkpt>
      <trkpt lat="46.30801266990602" lon="8.242270136252046">
        <ele>1987.6800000000001</ele>
        <time>2020-02-09T12:56:14Z</time>
      </trkpt>
      <trkpt lat="46.308008981868625" lon="8.242269968613982">
        <ele>1987.5899999999999</ele>
        <time>2020-02-09T12:56:41Z</time>
      </trkpt>
      <trkpt lat="46.307965563610196" lon="8.242234513163567">
        <ele>1989.0599999999999</ele>
        <time>2020-02-09T12:57:00Z</time>
      </trkpt>
      <trkpt lat="46.307924911379814" lon="8.242183802649379">
        <ele>1991.8399999999999</ele>
        <time>2020-02-09T12:57:13Z</time>
      </trkpt>
      <trkpt lat="46.307924492284656" lon="8.242178270593286">
        <ele>1991.8699999999999</ele>
        <time>2020-02-09T12:57:29Z</time>
      </trkpt>
      <trkpt lat="46.307926084846258" lon="8.242181790992618">
        <ele>1991.8</ele>
        <time>2020-02-09T12:57:42Z</time>
      </trkpt>
      <trkpt lat="46.307935053482652" lon="8.242184724658728">
        <ele>1992.1199999999999</ele>
        <time>2020-02-09T12:58:08Z</time>
      </trkpt>
      <trkpt lat="46.307938657701015" lon="8.242197465151548">
        <ele>1991.8099999999999</ele>
        <time>2020-02-09T12:58:38Z</time>
      </trkpt>
      <trkpt lat="46.307941088452935" lon="8.242196710780263">
        <ele>1991.9300000000001</ele>
        <time>2020-02-09T12:58:59Z</time>
      </trkpt>
      <trkpt lat="46.307948799803853" lon="8.242196124047041">
        <ele>1991.95</ele>
        <time>2020-02-09T12:59:15Z</time>
      </trkpt>
      <trkpt lat="46.307953828945756" lon="8.242192100733519">
        <ele>1992.2</ele>
        <time>2020-02-09T12:59:35Z</time>
      </trkpt>
      <trkpt lat="46.307951649650931" lon="8.242192603647709">
        <ele>1992.27</ele>
        <time>2020-02-09T12:59:51Z</time>
      </trkpt>
      <trkpt lat="46.307956175878644" lon="8.242210540920496">
        <ele>1991.8900000000001</ele>
        <time>2020-02-09T13:00:13Z</time>
      </trkpt>
      <trkpt lat="46.307924743741751" lon="8.242202242836356">
        <ele>1993.3299999999999</ele>
        <time>2020-02-09T13:00:27Z</time>
      </trkpt>
      <trkpt lat="46.307906052097678" lon="8.242201488465071">
        <ele>1994.73</ele>
        <time>2020-02-09T13:00:39Z</time>
      </trkpt>
      <trkpt lat="46.307888785377145" lon="8.242176258936524">
        <ele>1996.1300000000001</ele>
        <time>2020-02-09T13:00:55Z</time>
      </trkpt>
      <trkpt lat="46.307888450101018" lon="8.242178522050381">
        <ele>1996.21</ele>
        <time>2020-02-09T13:01:15Z</time>
      </trkpt>
      <trkpt lat="46.307892305776477" lon="8.242181371897459">
        <ele>1996.1900000000001</ele>
        <time>2020-02-09T13:01:39Z</time>
      </trkpt>
      <trkpt lat="46.307892641052604" lon="8.242180785164237">
        <ele>1996.2</ele>
        <time>2020-02-09T13:02:03Z</time>
      </trkpt>
      <trkpt lat="46.307892641052604" lon="8.242184557020664">
        <ele>1996.22</ele>
        <time>2020-02-09T13:02:19Z</time>
      </trkpt>
      <trkpt lat="46.307890210300684" lon="8.242190675809979">
        <ele>1996.1600000000001</ele>
        <time>2020-02-09T13:02:36Z</time>
      </trkpt>
      <trkpt lat="46.307922815904021" lon="8.242197968065739">
        <ele>1994.73</ele>
        <time>2020-02-09T13:02:46Z</time>
      </trkpt>
      <trkpt lat="46.307935891672969" lon="8.24220291338861">
        <ele>1993.1800000000001</ele>
        <time>2020-02-09T13:02:55Z</time>
      </trkpt>
      <trkpt lat="46.307967491447926" lon="8.242240631952882">
        <ele>1991.6700000000001</ele>
        <time>2020-02-09T13:03:09Z</time>
      </trkpt>
      <trkpt lat="46.30801560357213" lon="8.242280362173915">
        <ele>1988.3199999999999</ele>
        <time>2020-02-09T13:03:18Z</time>
      </trkpt>
      <trkpt lat="46.308079976588488" lon="8.242325205355883">
        <ele>1985.29</ele>
        <time>2020-02-09T13:03:29Z</time>
      </trkpt>
      <trkpt lat="46.308154575526714" lon="8.242356386035681">
        <ele>1982.1099999999999</ele>
        <time>2020-02-09T13:03:40Z</time>
      </trkpt>
      <trkpt lat="46.308230767026544" lon="8.242371808737516">
        <ele>1978.99</ele>
        <time>2020-02-09T13:03:50Z</time>
      </trkpt>
      <trkpt lat="46.308317687362432" lon="8.242424782365561">
        <ele>1975.5899999999999</ele>
        <time>2020-02-09T13:04:03Z</time>
      </trkpt>
      <trkpt lat="46.308418437838554" lon="8.242442803457379">
        <ele>1972.3900000000001</ele>
        <time>2020-02-09T13:04:15Z</time>
      </trkpt>
      <trkpt lat="46.30849689245224" lon="8.24247901327908">
        <ele>1969.6500000000001</ele>
        <time>2020-02-09T13:04:25Z</time>
      </trkpt>
      <trkpt lat="46.308595547452569" lon="8.242546571418643">
        <ele>1966.22</ele>
        <time>2020-02-09T13:04:37Z</time>
      </trkpt>
      <trkpt lat="46.308686155825853" lon="8.242576159536839">
        <ele>1963.2</ele>
        <time>2020-02-09T13:04:48Z</time>
      </trkpt>
      <trkpt lat="46.308770142495632" lon="8.24260113760829">
        <ele>1959.8599999999999</ele>
        <time>2020-02-09T13:04:59Z</time>
      </trkpt>
      <trkpt lat="46.308862343430519" lon="8.242604825645685">
        <ele>1956.75</ele>
        <time>2020-02-09T13:05:10Z</time>
      </trkpt>
      <trkpt lat="46.308957478031516" lon="8.242628462612629">
        <ele>1954.2</ele>
        <time>2020-02-09T13:05:21Z</time>
      </trkpt>
      <trkpt lat="46.309040039777756" lon="8.24269057251513">
        <ele>1950.77</ele>
        <time>2020-02-09T13:05:32Z</time>
      </trkpt>
      <trkpt lat="46.309113632887602" lon="8.242741283029318">
        <ele>1947.6900000000001</ele>
        <time>2020-02-09T13:05:42Z</time>
      </trkpt>
      <trkpt lat="46.309143807739019" lon="8.242807751521468">
        <ele>1944.6900000000001</ele>
        <time>2020-02-09T13:05:52Z</time>
      </trkpt>
      <trkpt lat="46.309151519089937" lon="8.242815462872386">
        <ele>1944.02</ele>
        <time>2020-02-09T13:05:55Z</time>
      </trkpt>
      <trkpt lat="46.309162834659219" lon="8.24283130466938">
        <ele>1943.3299999999999</ele>
        <time>2020-02-09T13:05:57Z</time>
      </trkpt>
      <trkpt lat="46.309116147458553" lon="8.242950662970543">
        <ele>1940.45</ele>
        <time>2020-02-09T13:06:10Z</time>
      </trkpt>
      <trkpt lat="46.309144478291273" lon="8.242992321029306">
        <ele>1937.5599999999999</ele>
        <time>2020-02-09T13:06:22Z</time>
      </trkpt>
      <trkpt lat="46.30914774723351" lon="8.242998775094748">
        <ele>1937.8699999999999</ele>
        <time>2020-02-09T13:06:43Z</time>
      </trkpt>
      <trkpt lat="46.309197200462222" lon="8.24304630048573">
        <ele>1936.4400000000001</ele>
        <time>2020-02-09T13:06:52Z</time>
      </trkpt>
      <trkpt lat="46.309258053079247" lon="8.243081755936146">
        <ele>1933.3800000000001</ele>
        <time>2020-02-09T13:07:00Z</time>
      </trkpt>
      <trkpt lat="46.309346482157707" lon="8.243145793676376">
        <ele>1930.1600000000001</ele>
        <time>2020-02-09T13:07:13Z</time>
      </trkpt>
      <trkpt lat="46.309411944821477" lon="8.243168676272035">
        <ele>1926.8</ele>
        <time>2020-02-09T13:07:22Z</time>
      </trkpt>
      <trkpt lat="46.309420578181744" lon="8.24317529797554">
        <ele>1926.52</ele>
        <time>2020-02-09T13:07:23Z</time>
      </trkpt>
      <trkpt lat="46.309490399435163" lon="8.243242353200913">
        <ele>1923.4300000000001</ele>
        <time>2020-02-09T13:07:32Z</time>
      </trkpt>
      <trkpt lat="46.309547647833824" lon="8.243309073150158">
        <ele>1921.29</ele>
        <time>2020-02-09T13:07:44Z</time>
      </trkpt>
      <trkpt lat="46.309602214023471" lon="8.243294740095735">
        <ele>1919.8399999999999</ele>
        <time>2020-02-09T13:08:01Z</time>
      </trkpt>
      <trkpt lat="46.309614619240165" lon="8.243294572457671">
        <ele>1918.97</ele>
        <time>2020-02-09T13:08:14Z</time>
      </trkpt>
      <trkpt lat="46.309627695009112" lon="8.243309073150158">
        <ele>1919.1500000000001</ele>
        <time>2020-02-09T13:08:21Z</time>
      </trkpt>
      <trkpt lat="46.309779239818454" lon="8.243419714272022">
        <ele>1916.1400000000001</ele>
        <time>2020-02-09T13:08:38Z</time>
      </trkpt>
      <trkpt lat="46.309815617278218" lon="8.243455588817596">
        <ele>1914.98</ele>
        <time>2020-02-09T13:08:43Z</time>
      </trkpt>
      <trkpt lat="46.309858616441488" lon="8.243456929922104">
        <ele>1914.22</ele>
        <time>2020-02-09T13:08:47Z</time>
      </trkpt>
      <trkpt lat="46.309946542605758" lon="8.243407225236297">
        <ele>1914.3699999999999</ele>
        <time>2020-02-09T13:09:00Z</time>
      </trkpt>
      <trkpt lat="46.310016615316272" lon="8.243443015962839">
        <ele>1914.8599999999999</ele>
        <time>2020-02-09T13:09:12Z</time>
      </trkpt>
      <trkpt lat="46.310056010261178" lon="8.243496660143137">
        <ele>1914.24</ele>
        <time>2020-02-09T13:09:23Z</time>
      </trkpt>
      <trkpt lat="46.310054082423449" lon="8.243490792810917">
        <ele>1914.0999999999999</ele>
        <time>2020-02-09T13:09:43Z</time>
      </trkpt>
      <trkpt lat="46.310032708570361" lon="8.243422983214259">
        <ele>1914.4100000000001</ele>
        <time>2020-02-09T13:09:55Z</time>
      </trkpt>
      <trkpt lat="46.310031954199076" lon="8.243427174165845">
        <ele>1914.8299999999999</ele>
        <time>2020-02-09T13:10:08Z</time>
      </trkpt>
      <trkpt lat="46.310041090473533" lon="8.243417451158166">
        <ele>1913.5</ele>
        <time>2020-02-09T13:10:23Z</time>
      </trkpt>
      <trkpt lat="46.310042599216104" lon="8.243406219407916">
        <ele>1913.5999999999999</ele>
        <time>2020-02-09T13:11:07Z</time>
      </trkpt>
      <trkpt lat="46.310042263939977" lon="8.243409655988216">
        <ele>1913.55</ele>
        <time>2020-02-09T13:11:53Z</time>
      </trkpt>
      <trkpt lat="46.310053076595068" lon="8.243407057598233">
        <ele>1913.48</ele>
        <time>2020-02-09T13:12:34Z</time>
      </trkpt>
      <trkpt lat="46.310058105736971" lon="8.243410410359502">
        <ele>1913.05</ele>
        <time>2020-02-09T13:13:20Z</time>
      </trkpt>
      <trkpt lat="46.310064475983381" lon="8.243390964344144">
        <ele>1913.4000000000001</ele>
        <time>2020-02-09T13:14:11Z</time>
      </trkpt>
      <trkpt lat="46.310061626136303" lon="8.243416445329785">
        <ele>1914.4300000000001</ele>
        <time>2020-02-09T13:14:38Z</time>
      </trkpt>
      <trkpt lat="46.310050142928958" lon="8.243418540805578">
        <ele>1914</ele>
        <time>2020-02-09T13:14:55Z</time>
      </trkpt>
      <trkpt lat="46.310041509568691" lon="8.243415858596563">
        <ele>1914.0999999999999</ele>
        <time>2020-02-09T13:15:14Z</time>
      </trkpt>
      <trkpt lat="46.31004243157804" lon="8.243418456986547">
        <ele>1913.8699999999999</ele>
        <time>2020-02-09T13:15:31Z</time>
      </trkpt>
      <trkpt lat="46.310041174292564" lon="8.243417786434293">
        <ele>1913.9000000000001</ele>
        <time>2020-02-09T13:15:53Z</time>
      </trkpt>
      <trkpt lat="46.310045449063182" lon="8.243418037891388">
        <ele>1914.1099999999999</ele>
        <time>2020-02-09T13:16:09Z</time>
      </trkpt>
      <trkpt lat="46.310050981119275" lon="8.243413176387548">
        <ele>1913.8800000000001</ele>
        <time>2020-02-09T13:16:30Z</time>
      </trkpt>
      <trkpt lat="46.310045197606087" lon="8.243425413966179">
        <ele>1913.25</ele>
        <time>2020-02-09T13:16:42Z</time>
      </trkpt>
      <trkpt lat="46.310067577287555" lon="8.243431281298399">
        <ele>1913.6300000000001</ele>
        <time>2020-02-09T13:16:54Z</time>
      </trkpt>
      <trkpt lat="46.310127843171358" lon="8.243414852768183">
        <ele>1913.02</ele>
        <time>2020-02-09T13:17:06Z</time>
      </trkpt>
      <trkpt lat="46.310196993872523" lon="8.243402363732457">
        <ele>1910.5899999999999</ele>
        <time>2020-02-09T13:17:19Z</time>
      </trkpt>
      <trkpt lat="46.310264887288213" lon="8.243419965729117">
        <ele>1909.0599999999999</ele>
        <time>2020-02-09T13:17:31Z</time>
      </trkpt>
      <trkpt lat="46.310286512598395" lon="8.243458941578865">
        <ele>1908.1800000000001</ele>
        <time>2020-02-09T13:17:45Z</time>
      </trkpt>
      <trkpt lat="46.310364883393049" lon="8.243496492505074">
        <ele>1905.72</ele>
        <time>2020-02-09T13:18:06Z</time>
      </trkpt>
      <trkpt lat="46.310439649969339" lon="8.243630602955818">
        <ele>1902.5699999999999</ele>
        <time>2020-02-09T13:18:19Z</time>
      </trkpt>
      <trkpt lat="46.310488851740956" lon="8.243723977357149">
        <ele>1900.9300000000001</ele>
        <time>2020-02-09T13:18:31Z</time>
      </trkpt>
      <trkpt lat="46.3105090521276" lon="8.24377628043294">
        <ele>1899.99</ele>
        <time>2020-02-09T13:18:35Z</time>
      </trkpt>
      <trkpt lat="46.310622459277511" lon="8.24398348107934">
        <ele>1898.4100000000001</ele>
        <time>2020-02-09T13:18:53Z</time>
      </trkpt>
      <trkpt lat="46.310697225853801" lon="8.244176600128412">
        <ele>1895.45</ele>
        <time>2020-02-09T13:19:09Z</time>
      </trkpt>
      <trkpt lat="46.310761934146285" lon="8.244334599003196">
        <ele>1892.45</ele>
        <time>2020-02-09T13:19:24Z</time>
      </trkpt>
      <trkpt lat="46.310840472579002" lon="8.244464183226228">
        <ele>1890.1700000000001</ele>
        <time>2020-02-09T13:19:39Z</time>
      </trkpt>
      <trkpt lat="46.31092487834394" lon="8.244584463536739">
        <ele>1888.8299999999999</ele>
        <time>2020-02-09T13:19:54Z</time>
      </trkpt>
      <trkpt lat="46.311025796458125" lon="8.24472569860518">
        <ele>1887.27</ele>
        <time>2020-02-09T13:20:10Z</time>
      </trkpt>
      <trkpt lat="46.311030741780996" lon="8.244733577594161">
        <ele>1887.03</ele>
        <time>2020-02-09T13:20:13Z</time>
      </trkpt>
      <trkpt lat="46.311061419546604" lon="8.244770709425211">
        <ele>1886.4400000000001</ele>
        <time>2020-02-09T13:20:17Z</time>
      </trkpt>
      <trkpt lat="46.311182789504528" lon="8.244925020262599">
        <ele>1883.73</ele>
        <time>2020-02-09T13:20:34Z</time>
      </trkpt>
      <trkpt lat="46.311259735375643" lon="8.245052676647902">
        <ele>1880.8</ele>
        <time>2020-02-09T13:20:49Z</time>
      </trkpt>
      <trkpt lat="46.311321426182985" lon="8.245178237557411">
        <ele>1877.96</ele>
        <time>2020-02-09T13:21:03Z</time>
      </trkpt>
      <trkpt lat="46.311387810856104" lon="8.245324501767755">
        <ele>1875.1300000000001</ele>
        <time>2020-02-09T13:21:18Z</time>
      </trkpt>
      <trkpt lat="46.311465175822377" lon="8.245494067668915">
        <ele>1872.1900000000001</ele>
        <time>2020-02-09T13:21:35Z</time>
      </trkpt>
      <trkpt lat="46.311493339017034" lon="8.245537066832185">
        <ele>1871.76</ele>
        <time>2020-02-09T13:21:48Z</time>
      </trkpt>
      <trkpt lat="46.311493422836065" lon="8.245544359087944">
        <ele>1870.75</ele>
        <time>2020-02-09T13:22:11Z</time>
      </trkpt>
      <trkpt lat="46.311512785032392" lon="8.245555926114321">
        <ele>1871.1900000000001</ele>
        <time>2020-02-09T13:22:30Z</time>
      </trkpt>
      <trkpt lat="46.311522759497166" lon="8.24555735103786">
        <ele>1870.79</ele>
        <time>2020-02-09T13:22:31Z</time>
      </trkpt>
      <trkpt lat="46.311597358435392" lon="8.245605966076255">
        <ele>1868.9200000000001</ele>
        <time>2020-02-09T13:22:43Z</time>
      </trkpt>
      <trkpt lat="46.311637088656425" lon="8.245629435405135">
        <ele>1867.8699999999999</ele>
        <time>2020-02-09T13:22:57Z</time>
      </trkpt>
      <trkpt lat="46.311655025929213" lon="8.245636308565736">
        <ele>1867.72</ele>
        <time>2020-02-09T13:23:10Z</time>
      </trkpt>
      <trkpt lat="46.311706909909844" lon="8.245677379891276">
        <ele>1866.4000000000001</ele>
        <time>2020-02-09T13:23:23Z</time>
      </trkpt>
      <trkpt lat="46.311783604323864" lon="8.245744351297617">
        <ele>1863.3800000000001</ele>
        <time>2020-02-09T13:23:37Z</time>
      </trkpt>
      <trkpt lat="46.311805816367269" lon="8.245716355741024">
        <ele>1862.5599999999999</ele>
        <time>2020-02-09T13:23:47Z</time>
      </trkpt>
      <trkpt lat="46.311843702569604" lon="8.245709398761392">
        <ele>1860.51</ele>
        <time>2020-02-09T13:24:00Z</time>
      </trkpt>
      <trkpt lat="46.311890976503491" lon="8.245732448995113">
        <ele>1858.52</ele>
        <time>2020-02-09T13:24:07Z</time>
      </trkpt>
      <trkpt lat="46.311919977888465" lon="8.245739908888936">
        <ele>1857.03</ele>
        <time>2020-02-09T13:24:10Z</time>
      </trkpt>
      <trkpt lat="46.311996839940548" lon="8.245733035728335">
        <ele>1853.3599999999999</ele>
        <time>2020-02-09T13:24:23Z</time>
      </trkpt>
      <trkpt lat="46.312061464414001" lon="8.245802018791437">
        <ele>1850.7</ele>
        <time>2020-02-09T13:24:34Z</time>
      </trkpt>
      <trkpt lat="46.312130363658071" lon="8.245891788974404">
        <ele>1848.47</ele>
        <time>2020-02-09T13:24:47Z</time>
      </trkpt>
      <trkpt lat="46.312218876555562" lon="8.24596487917006">
        <ele>1845.8699999999999</ele>
        <time>2020-02-09T13:24:59Z</time>
      </trkpt>
      <trkpt lat="46.312294313684106" lon="8.246018188074231">
        <ele>1843.1600000000001</ele>
        <time>2020-02-09T13:25:10Z</time>
      </trkpt>
      <trkpt lat="46.312385844066739" lon="8.246095050126314">
        <ele>1839.8499999999999</ele>
        <time>2020-02-09T13:25:23Z</time>
      </trkpt>
      <trkpt lat="46.312430016696453" lon="8.246136289089918">
        <ele>1838.22</ele>
        <time>2020-02-09T13:25:29Z</time>
      </trkpt>
      <trkpt lat="46.312487935647368" lon="8.246209966018796">
        <ele>1836.1199999999999</ele>
        <time>2020-02-09T13:25:36Z</time>
      </trkpt>
      <trkpt lat="46.312575610354543" lon="8.246286660432816">
        <ele>1835.02</ele>
        <time>2020-02-09T13:25:47Z</time>
      </trkpt>
      <trkpt lat="46.312596062198281" lon="8.246327061206102">
        <ele>1833.5</ele>
        <time>2020-02-09T13:25:51Z</time>
      </trkpt>
      <trkpt lat="46.312638809904456" lon="8.246385650709271">
        <ele>1832.1199999999999</ele>
        <time>2020-02-09T13:25:56Z</time>
      </trkpt>
      <trkpt lat="46.312756491824985" lon="8.246461674571037">
        <ele>1830.5899999999999</ele>
        <time>2020-02-09T13:26:09Z</time>
      </trkpt>
      <trkpt lat="46.312778955325484" lon="8.246497800573707">
        <ele>1829.74</ele>
        <time>2020-02-09T13:26:19Z</time>
      </trkpt>
      <trkpt lat="46.312783062458038" lon="8.246499309316278">
        <ele>1829.7</ele>
        <time>2020-02-09T13:26:20Z</time>
      </trkpt>
      <trkpt lat="46.312816338613629" lon="8.246498806402087">
        <ele>1829.8199999999999</ele>
        <time>2020-02-09T13:26:23Z</time>
      </trkpt>
      <trkpt lat="46.312851877883077" lon="8.24653560295701">
        <ele>1829.95</ele>
        <time>2020-02-09T13:26:28Z</time>
      </trkpt>
      <trkpt lat="46.312887584790587" lon="8.246621014550328">
        <ele>1830.04</ele>
        <time>2020-02-09T13:26:35Z</time>
      </trkpt>
      <trkpt lat="46.313010212033987" lon="8.24671589769423">
        <ele>1827.7</ele>
        <time>2020-02-09T13:26:49Z</time>
      </trkpt>
      <trkpt lat="46.313105933368206" lon="8.246820336207748">
        <ele>1824.4400000000001</ele>
        <time>2020-02-09T13:27:00Z</time>
      </trkpt>
      <trkpt lat="46.313170809298754" lon="8.246942963451147">
        <ele>1822.23</ele>
        <time>2020-02-09T13:27:12Z</time>
      </trkpt>
      <trkpt lat="46.313232332468033" lon="8.247132143005729">
        <ele>1820.21</ele>
        <time>2020-02-09T13:27:26Z</time>
      </trkpt>
      <trkpt lat="46.313265860080719" lon="8.247265666723251">
        <ele>1817.03</ele>
        <time>2020-02-09T13:27:36Z</time>
      </trkpt>
      <trkpt lat="46.313320258632302" lon="8.247387707233429">
        <ele>1814.77</ele>
        <time>2020-02-09T13:27:50Z</time>
      </trkpt>
      <trkpt lat="46.3133480027318" lon="8.247442357242107">
        <ele>1813.6800000000001</ele>
        <time>2020-02-09T13:28:00Z</time>
      </trkpt>
      <trkpt lat="46.313387313857675" lon="8.247503377497196">
        <ele>1811.48</ele>
        <time>2020-02-09T13:28:11Z</time>
      </trkpt>
      <trkpt lat="46.313459146767855" lon="8.247491391375661">
        <ele>1808.76</ele>
        <time>2020-02-09T13:28:24Z</time>
      </trkpt>
      <trkpt lat="46.313535422086716" lon="8.247473621740937">
        <ele>1805.72</ele>
        <time>2020-02-09T13:28:38Z</time>
      </trkpt>
      <trkpt lat="46.313605075702071" lon="8.247450236231089">
        <ele>1802.8399999999999</ele>
        <time>2020-02-09T13:28:51Z</time>
      </trkpt>
      <trkpt lat="46.313676573336124" lon="8.247435903176665">
        <ele>1799.71</ele>
        <time>2020-02-09T13:29:04Z</time>
      </trkpt>
      <trkpt lat="46.313734157010913" lon="8.247444368898869">
        <ele>1798.0999999999999</ele>
        <time>2020-02-09T13:29:15Z</time>
      </trkpt>
      <trkpt lat="46.313783442601562" lon="8.247432969510555">
        <ele>1796.1800000000001</ele>
        <time>2020-02-09T13:29:29Z</time>
      </trkpt>
      <trkpt lat="46.313861478120089" lon="8.247464569285512">
        <ele>1793.96</ele>
        <time>2020-02-09T13:29:44Z</time>
      </trkpt>
      <trkpt lat="46.313911266624928" lon="8.247516620904207">
        <ele>1791.27</ele>
        <time>2020-02-09T13:29:53Z</time>
      </trkpt>
      <trkpt lat="46.313993576914072" lon="8.247496336698532">
        <ele>1788.9100000000001</ele>
        <time>2020-02-09T13:30:05Z</time>
      </trkpt>
      <trkpt lat="46.31408435292542" lon="8.247538832947612">
        <ele>1785.9000000000001</ele>
        <time>2020-02-09T13:30:20Z</time>
      </trkpt>
      <trkpt lat="46.314140763133764" lon="8.24754704721272">
        <ele>1784.55</ele>
        <time>2020-02-09T13:30:32Z</time>
      </trkpt>
      <trkpt lat="46.314158197492361" lon="8.247567918151617">
        <ele>1783.99</ele>
        <time>2020-02-09T13:30:47Z</time>
      </trkpt>
      <trkpt lat="46.314193988218904" lon="8.247575126588345">
        <ele>1783.1099999999999</ele>
        <time>2020-02-09T13:31:00Z</time>
      </trkpt>
      <trkpt lat="46.314263138920069" lon="8.24760714545846">
        <ele>1779.8499999999999</ele>
        <time>2020-02-09T13:31:09Z</time>
      </trkpt>
      <trkpt lat="46.314339665696025" lon="8.247609660029411">
        <ele>1776.6600000000001</ele>
        <time>2020-02-09T13:31:21Z</time>
      </trkpt>
      <trkpt lat="46.314405295997858" lon="8.247634889557958">
        <ele>1774.1400000000001</ele>
        <time>2020-02-09T13:31:33Z</time>
      </trkpt>
      <trkpt lat="46.314452905207872" lon="8.247649725526571">
        <ele>1771.9300000000001</ele>
        <time>2020-02-09T13:31:39Z</time>
      </trkpt>
      <trkpt lat="46.314506297931075" lon="8.247684510424733">
        <ele>1770.55</ele>
        <time>2020-02-09T13:31:46Z</time>
      </trkpt>
      <trkpt lat="46.31462330929935" lon="8.247766736894846">
        <ele>1768.04</ele>
        <time>2020-02-09T13:32:02Z</time>
      </trkpt>
      <trkpt lat="46.314710900187492" lon="8.24783437885344">
        <ele>1766.1400000000001</ele>
        <time>2020-02-09T13:32:14Z</time>
      </trkpt>
      <trkpt lat="46.31475917994976" lon="8.247881485149264">
        <ele>1763.99</ele>
        <time>2020-02-09T13:32:24Z</time>
      </trkpt>
      <trkpt lat="46.314822630956769" lon="8.247908474877477">
        <ele>1761.6099999999999</ele>
        <time>2020-02-09T13:32:35Z</time>
      </trkpt>
      <trkpt lat="46.314925979822874" lon="8.247951976954937">
        <ele>1758.8599999999999</ele>
        <time>2020-02-09T13:32:49Z</time>
      </trkpt>
      <trkpt lat="46.314954645931721" lon="8.248005621135235">
        <ele>1757.48</ele>
        <time>2020-02-09T13:32:57Z</time>
      </trkpt>
      <trkpt lat="46.314998902380466" lon="8.248074185103178">
        <ele>1756.6199999999999</ele>
        <time>2020-02-09T13:33:03Z</time>
      </trkpt>
      <trkpt lat="46.3151197694242" lon="8.248213911429048">
        <ele>1754.3299999999999</ele>
        <time>2020-02-09T13:33:19Z</time>
      </trkpt>
      <trkpt lat="46.31512806750834" lon="8.248242158442736">
        <ele>1753.9400000000001</ele>
        <time>2020-02-09T13:33:30Z</time>
      </trkpt>
      <trkpt lat="46.315125552937388" lon="8.248235872015357">
        <ele>1753.5799999999999</ele>
        <time>2020-02-09T13:33:53Z</time>
      </trkpt>
      <trkpt lat="46.315125888213515" lon="8.248241068795323">
        <ele>1753.5599999999999</ele>
        <time>2020-02-09T13:34:08Z</time>
      </trkpt>
      <trkpt lat="46.315150111913681" lon="8.248257329687476">
        <ele>1753.53</ele>
        <time>2020-02-09T13:34:23Z</time>
      </trkpt>
      <trkpt lat="46.315188081935048" lon="8.2483493629843">
        <ele>1753.4400000000001</ele>
        <time>2020-02-09T13:34:34Z</time>
      </trkpt>
      <trkpt lat="46.315221693366766" lon="8.248375095427036">
        <ele>1753.5999999999999</ele>
        <time>2020-02-09T13:34:38Z</time>
      </trkpt>
      <trkpt lat="46.315300818532705" lon="8.248447431251407">
        <ele>1752.46</ele>
        <time>2020-02-09T13:34:51Z</time>
      </trkpt>
      <trkpt lat="46.315364688634872" lon="8.248510546982288">
        <ele>1752.5799999999999</ele>
        <time>2020-02-09T13:35:03Z</time>
      </trkpt>
      <trkpt lat="46.315420595929027" lon="8.248582044616342">
        <ele>1750.73</ele>
        <time>2020-02-09T13:35:15Z</time>
      </trkpt>
      <trkpt lat="46.315499804913998" lon="8.248640550300479">
        <ele>1748.1800000000001</ele>
        <time>2020-02-09T13:35:26Z</time>
      </trkpt>
      <trkpt lat="46.315591502934694" lon="8.248730236664414">
        <ele>1745.8900000000001</ele>
        <time>2020-02-09T13:35:40Z</time>
      </trkpt>
      <trkpt lat="46.315639698877931" lon="8.248798381537199">
        <ele>1743.9400000000001</ele>
        <time>2020-02-09T13:35:51Z</time>
      </trkpt>
      <trkpt lat="46.315733743831515" lon="8.248847667127848">
        <ele>1741.24</ele>
        <time>2020-02-09T13:36:08Z</time>
      </trkpt>
      <trkpt lat="46.31577649153769" lon="8.248896114528179">
        <ele>1739.6199999999999</ele>
        <time>2020-02-09T13:36:20Z</time>
      </trkpt>
      <trkpt lat="46.315829884260893" lon="8.248936263844371">
        <ele>1737.1600000000001</ele>
        <time>2020-02-09T13:36:31Z</time>
      </trkpt>
      <trkpt lat="46.315876320004463" lon="8.24900608509779">
        <ele>1734.4100000000001</ele>
        <time>2020-02-09T13:36:44Z</time>
      </trkpt>
      <trkpt lat="46.315937591716647" lon="8.249065931886435">
        <ele>1731.4000000000001</ele>
        <time>2020-02-09T13:36:57Z</time>
      </trkpt>
      <trkpt lat="46.315982351079583" lon="8.249002899974585">
        <ele>1729.6800000000001</ele>
        <time>2020-02-09T13:37:11Z</time>
      </trkpt>
      <trkpt lat="46.316017052158713" lon="8.249015724286437">
        <ele>1727.3499999999999</ele>
        <time>2020-02-09T13:37:21Z</time>
      </trkpt>
      <trkpt lat="46.316055441275239" lon="8.249045982956886">
        <ele>1725.76</ele>
        <time>2020-02-09T13:37:33Z</time>
      </trkpt>
      <trkpt lat="46.316094165667892" lon="8.249017652124167">
        <ele>1723.4000000000001</ele>
        <time>2020-02-09T13:37:47Z</time>
      </trkpt>
      <trkpt lat="46.316145546734333" lon="8.249100465327501">
        <ele>1720.46</ele>
        <time>2020-02-09T13:38:00Z</time>
      </trkpt>
      <trkpt lat="46.316161220893264" lon="8.249168274924159">
        <ele>1719.0799999999999</ele>
        <time>2020-02-09T13:38:10Z</time>
      </trkpt>
      <trkpt lat="46.316152838990092" lon="8.249266762286425">
        <ele>1717.53</ele>
        <time>2020-02-09T13:38:23Z</time>
      </trkpt>
      <trkpt lat="46.316090142354369" lon="8.249309007078409">
        <ele>1715.3099999999999</ele>
        <time>2020-02-09T13:38:34Z</time>
      </trkpt>
      <trkpt lat="46.316025350242853" lon="8.249352844431996">
        <ele>1713.1400000000001</ele>
        <time>2020-02-09T13:38:45Z</time>
      </trkpt>
      <trkpt lat="46.315992577001452" lon="8.249409841373563">
        <ele>1711.2</ele>
        <time>2020-02-09T13:38:56Z</time>
      </trkpt>
      <trkpt lat="46.315961228683591" lon="8.249496761709452">
        <ele>1708.5</ele>
        <time>2020-02-09T13:39:08Z</time>
      </trkpt>
      <trkpt lat="46.315916050225496" lon="8.249607989564538">
        <ele>1705.8099999999999</ele>
        <time>2020-02-09T13:39:19Z</time>
      </trkpt>
      <trkpt lat="46.315845726057887" lon="8.24971217662096">
        <ele>1702.78</ele>
        <time>2020-02-09T13:39:33Z</time>
      </trkpt>
      <trkpt lat="46.315822843462229" lon="8.249761881306768">
        <ele>1702</ele>
        <time>2020-02-09T13:39:38Z</time>
      </trkpt>
      <trkpt lat="46.315763499587774" lon="8.249864391982555">
        <ele>1700.3800000000001</ele>
        <time>2020-02-09T13:39:53Z</time>
      </trkpt>
      <trkpt lat="46.315749837085605" lon="8.249895991757512">
        <ele>1699.6099999999999</ele>
        <time>2020-02-09T13:40:00Z</time>
      </trkpt>
      <trkpt lat="46.315821083262563" lon="8.249887023121119">
        <ele>1697</ele>
        <time>2020-02-09T13:40:11Z</time>
      </trkpt>
      <trkpt lat="46.315871123224497" lon="8.24988903477788">
        <ele>1695.3800000000001</ele>
        <time>2020-02-09T13:40:21Z</time>
      </trkpt>
      <trkpt lat="46.315827704966068" lon="8.249959275126457">
        <ele>1693.47</ele>
        <time>2020-02-09T13:40:33Z</time>
      </trkpt>
      <trkpt lat="46.315800799056888" lon="8.249976206570864">
        <ele>1692.75</ele>
        <time>2020-02-09T13:40:38Z</time>
      </trkpt>
      <trkpt lat="46.315762829035521" lon="8.249998586252332">
        <ele>1692.45</ele>
        <time>2020-02-09T13:40:42Z</time>
      </trkpt>
      <trkpt lat="46.315660821273923" lon="8.250045189633966">
        <ele>1690.75</ele>
        <time>2020-02-09T13:40:55Z</time>
      </trkpt>
      <trkpt lat="46.315589742735028" lon="8.250105623155832">
        <ele>1690.1600000000001</ele>
        <time>2020-02-09T13:41:07Z</time>
      </trkpt>
      <trkpt lat="46.315501648932695" lon="8.250154573470354">
        <ele>1689.54</ele>
        <time>2020-02-09T13:41:19Z</time>
      </trkpt>
      <trkpt lat="46.315460661426187" lon="8.250181563198566">
        <ele>1689.47</ele>
        <time>2020-02-09T13:41:27Z</time>
      </trkpt>
      <trkpt lat="46.315423278138041" lon="8.250278206542134">
        <ele>1689.24</ele>
        <time>2020-02-09T13:41:36Z</time>
      </trkpt>
      <trkpt lat="46.315328646451235" lon="8.250432349741459">
        <ele>1688.3499999999999</ele>
        <time>2020-02-09T13:41:51Z</time>
      </trkpt>
      <trkpt lat="46.315274750813842" lon="8.250482138246298">
        <ele>1687.01</ele>
        <time>2020-02-09T13:42:00Z</time>
      </trkpt>
      <trkpt lat="46.315233260393143" lon="8.250561011955142">
        <ele>1685.1500000000001</ele>
        <time>2020-02-09T13:42:09Z</time>
      </trkpt>
      <trkpt lat="46.315194703638554" lon="8.250672910362482">
        <ele>1683.1199999999999</ele>
        <time>2020-02-09T13:42:18Z</time>
      </trkpt>
      <trkpt lat="46.315161092206836" lon="8.250721357762814">
        <ele>1682.3299999999999</ele>
        <time>2020-02-09T13:42:22Z</time>
      </trkpt>
      <trkpt lat="46.315077859908342" lon="8.250873321667314">
        <ele>1679.5999999999999</ele>
        <time>2020-02-09T13:42:38Z</time>
      </trkpt>
      <trkpt lat="46.31503427401185" lon="8.250957224518061">
        <ele>1677.25</ele>
        <time>2020-02-09T13:42:48Z</time>
      </trkpt>
      <trkpt lat="46.314898235723376" lon="8.251033164560795">
        <ele>1675.47</ele>
        <time>2020-02-09T13:43:03Z</time>
      </trkpt>
      <trkpt lat="46.314800502732396" lon="8.251138441264629">
        <ele>1675.3499999999999</ele>
        <time>2020-02-09T13:43:17Z</time>
      </trkpt>
      <trkpt lat="46.314699416980147" lon="8.251232150942087">
        <ele>1674.51</ele>
        <time>2020-02-09T13:43:30Z</time>
      </trkpt>
      <trkpt lat="46.314703272655606" lon="8.251266768202186">
        <ele>1674.6300000000001</ele>
        <time>2020-02-09T13:43:33Z</time>
      </trkpt>
      <trkpt lat="46.314723137766123" lon="8.251306330785155">
        <ele>1674.3699999999999</ele>
        <time>2020-02-09T13:43:43Z</time>
      </trkpt>
      <trkpt lat="46.314716599881649" lon="8.251368943601847">
        <ele>1673.8099999999999</ele>
        <time>2020-02-09T13:43:48Z</time>
      </trkpt>
      <trkpt lat="46.31465457379818" lon="8.251470029354096">
        <ele>1672.1199999999999</ele>
        <time>2020-02-09T13:43:59Z</time>
      </trkpt>
      <trkpt lat="46.314585423097014" lon="8.251523086801171">
        <ele>1670.3199999999999</ele>
        <time>2020-02-09T13:44:10Z</time>
      </trkpt>
      <trkpt lat="46.314553907141089" lon="8.251656945794821">
        <ele>1667.52</ele>
        <time>2020-02-09T13:44:23Z</time>
      </trkpt>
      <trkpt lat="46.314549716189504" lon="8.251717882230878">
        <ele>1666.26</ele>
        <time>2020-02-09T13:44:27Z</time>
      </trkpt>
      <trkpt lat="46.314555248245597" lon="8.251881413161755">
        <ele>1663.6199999999999</ele>
        <time>2020-02-09T13:44:41Z</time>
      </trkpt>
      <trkpt lat="46.314571676775813" lon="8.252054583281279">
        <ele>1661.3499999999999</ele>
        <time>2020-02-09T13:44:56Z</time>
      </trkpt>
      <trkpt lat="46.314579723402858" lon="8.252195231616497">
        <ele>1658.99</ele>
        <time>2020-02-09T13:45:09Z</time>
      </trkpt>
      <trkpt lat="46.314601013436913" lon="8.252282487228513">
        <ele>1657.8399999999999</ele>
        <time>2020-02-09T13:45:20Z</time>
      </trkpt>
      <trkpt lat="46.31463018245995" lon="8.252381142228842">
        <ele>1656.3199999999999</ele>
        <time>2020-02-09T13:45:32Z</time>
      </trkpt>
      <trkpt lat="46.314636552706361" lon="8.252477701753378">
        <ele>1654.5799999999999</ele>
        <time>2020-02-09T13:45:39Z</time>
      </trkpt>
      <trkpt lat="46.314737889915705" lon="8.2526302523911">
        <ele>1652.75</ele>
        <time>2020-02-09T13:45:54Z</time>
      </trkpt>
      <trkpt lat="46.314790276810527" lon="8.252657828852534">
        <ele>1652.8499999999999</ele>
        <time>2020-02-09T13:46:01Z</time>
      </trkpt>
      <trkpt lat="46.314806034788489" lon="8.252755897119641">
        <ele>1652.4000000000001</ele>
        <time>2020-02-09T13:46:09Z</time>
      </trkpt>
      <trkpt lat="46.314811902120709" lon="8.252996290102601">
        <ele>1651.5799999999999</ele>
        <time>2020-02-09T13:46:26Z</time>
      </trkpt>
      <trkpt lat="46.314823888242245" lon="8.25307684019208">
        <ele>1651.49</ele>
        <time>2020-02-09T13:46:32Z</time>
      </trkpt>
      <trkpt lat="46.314870491623878" lon="8.25334070250392">
        <ele>1649.6800000000001</ele>
        <time>2020-02-09T13:46:50Z</time>
      </trkpt>
      <trkpt lat="46.314938385039568" lon="8.253555111587048">
        <ele>1648.72</ele>
        <time>2020-02-09T13:47:06Z</time>
      </trkpt>
      <trkpt lat="46.315021868795156" lon="8.253732640296221">
        <ele>1648.26</ele>
        <time>2020-02-09T13:47:21Z</time>
      </trkpt>
      <trkpt lat="46.315090851858258" lon="8.253903044387698">
        <ele>1647.8</ele>
        <time>2020-02-09T13:47:35Z</time>
      </trkpt>
      <trkpt lat="46.315136533230543" lon="8.254090882837772">
        <ele>1647.4400000000001</ele>
        <time>2020-02-09T13:47:49Z</time>
      </trkpt>
      <trkpt lat="46.315185986459255" lon="8.254274362698197">
        <ele>1646.8</ele>
        <time>2020-02-09T13:48:03Z</time>
      </trkpt>
      <trkpt lat="46.315216412767768" lon="8.254458932206035">
        <ele>1646.49</ele>
        <time>2020-02-09T13:48:17Z</time>
      </trkpt>
      <trkpt lat="46.315226471051574" lon="8.25462045148015">
        <ele>1646.1300000000001</ele>
        <time>2020-02-09T13:48:30Z</time>
      </trkpt>
      <trkpt lat="46.315221609547734" lon="8.254613829776645">
        <ele>1645.1700000000001</ele>
        <time>2020-02-09T13:48:44Z</time>
      </trkpt>
      <trkpt lat="46.315206773579121" lon="8.254619110375643">
        <ele>1645.1099999999999</ele>
        <time>2020-02-09T13:49:14Z</time>
      </trkpt>
      <trkpt lat="46.315201660618186" lon="8.254616763442755">
        <ele>1644.97</ele>
        <time>2020-02-09T13:49:49Z</time>
      </trkpt>
      <trkpt lat="46.315203839913011" lon="8.254618188366294">
        <ele>1644.97</ele>
        <time>2020-02-09T13:50:16Z</time>
      </trkpt>
      <trkpt lat="46.315204678103328" lon="8.254626654088497">
        <ele>1645.1900000000001</ele>
        <time>2020-02-09T13:50:41Z</time>
      </trkpt>
      <trkpt lat="46.315210126340389" lon="8.254623804241419">
        <ele>1644.9300000000001</ele>
        <time>2020-02-09T13:51:18Z</time>
      </trkpt>
      <trkpt lat="46.315225046128035" lon="8.254604944959283">
        <ele>1644.9300000000001</ele>
        <time>2020-02-09T13:51:53Z</time>
      </trkpt>
      <trkpt lat="46.315222196280956" lon="8.25460528023541">
        <ele>1645.4200000000001</ele>
        <time>2020-02-09T13:52:23Z</time>
      </trkpt>
      <trkpt lat="46.315231416374445" lon="8.254622798413038">
        <ele>1646.4200000000001</ele>
        <time>2020-02-09T13:52:41Z</time>
      </trkpt>
      <trkpt lat="46.315234517678618" lon="8.254619613289833">
        <ele>1646.6099999999999</ele>
        <time>2020-02-09T13:52:54Z</time>
      </trkpt>
      <trkpt lat="46.315225129947066" lon="8.254617685452104">
        <ele>1646.45</ele>
        <time>2020-02-09T13:53:08Z</time>
      </trkpt>
      <trkpt lat="46.315246168524027" lon="8.2547025103122">
        <ele>1646.1400000000001</ele>
        <time>2020-02-09T13:53:21Z</time>
      </trkpt>
      <trkpt lat="46.315249102190137" lon="8.254730002954602">
        <ele>1646.03</ele>
        <time>2020-02-09T13:53:23Z</time>
      </trkpt>
      <trkpt lat="46.315261339768767" lon="8.254950195550919">
        <ele>1645.46</ele>
        <time>2020-02-09T13:53:39Z</time>
      </trkpt>
      <trkpt lat="46.315277684479952" lon="8.255188073962927">
        <ele>1644.5799999999999</ele>
        <time>2020-02-09T13:53:55Z</time>
      </trkpt>
      <trkpt lat="46.315304171293974" lon="8.255402902141213">
        <ele>1644.28</ele>
        <time>2020-02-09T13:54:09Z</time>
      </trkpt>
      <trkpt lat="46.315308278426528" lon="8.255641451105475">
        <ele>1644.05</ele>
        <time>2020-02-09T13:54:24Z</time>
      </trkpt>
      <trkpt lat="46.315324204042554" lon="8.255910594016314">
        <ele>1643.3299999999999</ele>
        <time>2020-02-09T13:54:41Z</time>
      </trkpt>
      <trkpt lat="46.315351445227861" lon="8.25616892427206">
        <ele>1642.6199999999999</ele>
        <time>2020-02-09T13:54:59Z</time>
      </trkpt>
      <trkpt lat="46.315334849059582" lon="8.2563291862607">
        <ele>1642.54</ele>
        <time>2020-02-09T13:55:13Z</time>
      </trkpt>
      <trkpt lat="46.315163858234882" lon="8.25638635084033">
        <ele>1641.8</ele>
        <time>2020-02-09T13:55:30Z</time>
      </trkpt>
      <trkpt lat="46.314981048926711" lon="8.256465308368206">
        <ele>1641.5599999999999</ele>
        <time>2020-02-09T13:55:48Z</time>
      </trkpt>
      <trkpt lat="46.314801089465618" lon="8.256561364978552">
        <ele>1641.6600000000001</ele>
        <time>2020-02-09T13:56:05Z</time>
      </trkpt>
      <trkpt lat="46.314759934321046" lon="8.256599418818951">
        <ele>1641.4100000000001</ele>
        <time>2020-02-09T13:56:10Z</time>
      </trkpt>
      <trkpt lat="46.314747948199511" lon="8.256781306117773">
        <ele>1641.52</ele>
        <time>2020-02-09T13:56:23Z</time>
      </trkpt>
      <trkpt lat="46.314760521054268" lon="8.256906028836966">
        <ele>1640.9200000000001</ele>
        <time>2020-02-09T13:56:32Z</time>
      </trkpt>
      <trkpt lat="46.314777955412865" lon="8.257046677172184">
        <ele>1640.5899999999999</ele>
        <time>2020-02-09T13:56:42Z</time>
      </trkpt>
      <trkpt lat="46.314796144142747" lon="8.257211297750473">
        <ele>1640.22</ele>
        <time>2020-02-09T13:56:52Z</time>
      </trkpt>
      <trkpt lat="46.314798658713698" lon="8.257277514785528">
        <ele>1640.0799999999999</ele>
        <time>2020-02-09T13:56:56Z</time>
      </trkpt>
      <trkpt lat="46.314826738089323" lon="8.257486559450626">
        <ele>1639.9400000000001</ele>
        <time>2020-02-09T13:57:10Z</time>
      </trkpt>
      <trkpt lat="46.314880214631557" lon="8.257611952722073">
        <ele>1640.25</ele>
        <time>2020-02-09T13:57:24Z</time>
      </trkpt>
      <trkpt lat="46.314856493845582" lon="8.257637266069651">
        <ele>1639.49</ele>
        <time>2020-02-09T13:57:36Z</time>
      </trkpt>
      <trkpt lat="46.314858002588153" lon="8.257638104259968">
        <ele>1639.1700000000001</ele>
        <time>2020-02-09T13:57:49Z</time>
      </trkpt>
      <trkpt lat="46.314849453046918" lon="8.257645145058632">
        <ele>1639.0999999999999</ele>
        <time>2020-02-09T13:58:01Z</time>
      </trkpt>
      <trkpt lat="46.314894715324044" lon="8.25762159191072">
        <ele>1638.75</ele>
        <time>2020-02-09T13:58:13Z</time>
      </trkpt>
      <trkpt lat="46.314900331199169" lon="8.257628465071321">
        <ele>1638.72</ele>
        <time>2020-02-09T13:58:29Z</time>
      </trkpt>
      <trkpt lat="46.314902259036899" lon="8.257639948278666">
        <ele>1639</ele>
        <time>2020-02-09T13:58:45Z</time>
      </trkpt>
      <trkpt lat="46.314897900447249" lon="8.257632153108716">
        <ele>1638.77</ele>
        <time>2020-02-09T13:58:59Z</time>
      </trkpt>
      <trkpt lat="46.314900582656264" lon="8.257629387080669">
        <ele>1638.0899999999999</ele>
        <time>2020-02-09T13:59:13Z</time>
      </trkpt>
      <trkpt lat="46.314895050600171" lon="8.257596613839269">
        <ele>1635.47</ele>
        <time>2020-02-09T13:59:30Z</time>
      </trkpt>
      <trkpt lat="46.314890775829554" lon="8.25759569182992">
        <ele>1635.48</ele>
        <time>2020-02-09T13:59:31Z</time>
      </trkpt>
      <trkpt lat="46.314868815243244" lon="8.25758496299386">
        <ele>1638.8199999999999</ele>
        <time>2020-02-09T13:59:35Z</time>
      </trkpt>
      <trkpt lat="46.314863367006183" lon="8.257574485614896">
        <ele>1638.6600000000001</ele>
        <time>2020-02-09T13:59:36Z</time>
      </trkpt>
      <trkpt lat="46.31484123878181" lon="8.257517823949456">
        <ele>1638.1500000000001</ele>
        <time>2020-02-09T13:59:45Z</time>
      </trkpt>
      <trkpt lat="46.314854146912694" lon="8.257522769272327">
        <ele>1638.72</ele>
        <time>2020-02-09T14:00:03Z</time>
      </trkpt>
      <trkpt lat="46.314847441390157" lon="8.257512710988522">
        <ele>1638.78</ele>
        <time>2020-02-09T14:00:13Z</time>
      </trkpt>
      <trkpt lat="46.314866468310356" lon="8.257502485066652">
        <ele>1638.1400000000001</ele>
        <time>2020-02-09T14:00:42Z</time>
      </trkpt>
      <trkpt lat="46.314879963174462" lon="8.2575121242553">
        <ele>1638.79</ele>
        <time>2020-02-09T14:01:18Z</time>
      </trkpt>
      <trkpt lat="46.314883567392826" lon="8.257510866969824">
        <ele>1639.23</ele>
        <time>2020-02-09T14:01:23Z</time>
      </trkpt>
      <trkpt lat="46.314875688403845" lon="8.257586471736431">
        <ele>1638.02</ele>
        <time>2020-02-09T14:01:42Z</time>
      </trkpt>
      <trkpt lat="46.314888847991824" lon="8.257611114531755">
        <ele>1638.55</ele>
        <time>2020-02-09T14:01:56Z</time>
      </trkpt>
      <trkpt lat="46.314910557121038" lon="8.257618239149451">
        <ele>1639.6099999999999</ele>
        <time>2020-02-09T14:02:13Z</time>
      </trkpt>
      <trkpt lat="46.314919022843242" lon="8.257620837539434">
        <ele>1639.5999999999999</ele>
        <time>2020-02-09T14:02:30Z</time>
      </trkpt>
      <trkpt lat="46.31491843611002" lon="8.257637517526746">
        <ele>1640</ele>
        <time>2020-02-09T14:02:56Z</time>
      </trkpt>
    </trkseg>
  </trk>

</gpx>